Time,TemperatureF,DewpointF,PressureIn,WindDirection,WindDirectionDegrees,WindSpeedMPH,WindSpeedGustMPH,Humidity,HourlyPrecipIn,Conditions,Clouds,dailyrainin,SoftwareType,DateUTC
2013-01-05 00:00:00,35.9,34.6,30.26,NNW,340,0.0,0.0,95,0.00,,SKC,0.00,VWS V14.01,2013-01-04 10:00:00,
2013-01-05 00:01:00,35.7,34.4,30.26,NNW,340,0.0,0.0,95,0.00,,SKC,0.00,VWS V14.01,2013-01-04 10:01:00,
2013-01-05 00:02:00,35.8,34.5,30.26,NNW,340,0.0,0.0,95,0.00,,SKC,0.00,VWS V14.01,2013-01-04 10:02:00,
2013-01-05 00:03:00,35.7,34.4,30.26,NNW,340,0.0,0.0,95,0.00,,SKC,0.00,VWS V14.01,2013-01-04 10:03:00,
2013-01-05 00:04:00,35.7,34.4,30.26,NNW,340,0.0,0.0,95,0.00,,SKC,0.00,VWS V14.01,2013-01-04 10:04:00,
2013-01-05 00:05:00,35.6,34.3,30.26,NNW,340,0.0,0.0,95,0.00,,SKC,0.00,VWS V14.01,2013-01-04 10:05:00,
2013-01-05 00:06:00,35.7,34.7,30.26,NNW,340,0.0,0.0,96,0.00,,SKC,0.00,VWS V14.01,2013-01-04 10:06:00,
2013-01-05 00:07:00,35.6,34.6,30.26,NNW,340,0.0,0.0,96,0.00,,SKC,0.00,VWS V14.01,2013-01-04 10:07:00,
2013-01-05 00:08:00,35.7,34.7,30.27,NNW,340,0.0,0.0,96,0.00,,SKC,0.00,VWS V14.01,2013-01-04 10:08:00,
2013-01-05 00:09:00,35.8,34.8,30.27,NNW,340,0.0,0.0,96,0.00,,SKC,0.00,VWS V14.01,2013-01-04 10:09:00,
2013-01-05 00:10:00,35.9,34.9,30.26,NNW,340,0.0,0.0,96,0.00,,SKC,0.00,VWS V14.01,2013-01-04 10:10:00,
2013-01-05 00:11:00,36.2,35.2,30.26,NNW,340,0.0,0.0,96,0.00,,SKC,0.00,VWS V14.01,2013-01-04 10:11:00,
2013-01-05 00:12:00,36.2,35.2,30.26,NNW,340,0.0,0.0,96,0.00,,SKC,0.00,VWS V14.01,2013-01-04 10:12:00,
2013-01-05 00:13:00,36.2,35.2,30.26,NNW,340,0.0,0.0,96,0.00,,SKC,0.00,VWS V14.01,2013-01-04 10:13:00,
2013-01-05 00:14:00,36.2,35.2,30.26,NNW,340,0.0,0.0,96,0.00,,SKC,0.00,VWS V14.01,2013-01-04 10:14:00,
2013-01-05 00:15:00,36.2,35.2,30.26,NNW,340,0.0,0.0,96,0.00,,SKC,0.00,VWS V14.01,2013-01-04 10:15:00,
2013-01-05 00:16:00,36.3,35.3,30.26,NNW,340,0.0,0.0,96,0.00,,SKC,0.00,VWS V14.01,2013-01-04 10:16:00,
2013-01-05 00:17:00,36.3,35.3,30.26,NNW,340,0.0,0.0,96,0.00,,SKC,0.00,VWS V14.01,2013-01-04 10:17:00,
2013-01-05 00:18:00,36.3,35.3,30.26,NNW,340,0.0,0.0,96,0.00,,SKC,0.00,VWS V14.01,2013-01-04 10:18:00,
2013-01-05 00:19:00,36.2,35.2,30.26,NNW,340,0.0,0.0,96,0.00,,SKC,0.00,VWS V14.01,2013-01-04 10:19:00,
2013-01-05 00:20:00,36.2,35.2,30.26,NNW,340,0.0,0.0,96,0.00,,SKC,0.00,VWS V14.01,2013-01-04 10:20:00,
2013-01-05 00:21:00,36.0,35.0,30.26,NNW,340,0.0,0.0,96,0.00,,SKC,0.00,VWS V14.01,2013-01-04 10:21:00,
2013-01-05 00:22:00,36.1,35.1,30.26,NNW,340,0.0,0.0,96,0.00,,SKC,0.00,VWS V14.01,2013-01-04 10:22:00,
2013-01-05 00:23:00,35.9,34.9,30.26,NNW,340,0.0,0.0,96,0.00,,SKC,0.00,VWS V14.01,2013-01-04 10:23:00,
2013-01-05 00:24:00,36.0,35.0,30.26,NNW,340,0.0,0.0,96,0.00,,SKC,0.00,VWS V14.01,2013-01-04 10:24:00,
2013-01-05 00:25:00,36.1,35.1,30.26,NNW,340,0.0,0.0,96,0.00,,SKC,0.00,VWS V14.01,2013-01-04 10:25:00,
2013-01-05 00:26:00,36.0,35.0,30.26,NNW,340,0.0,0.0,96,0.00,,SKC,0.00,VWS V14.01,2013-01-04 10:26:00,
2013-01-05 00:28:00,36.0,35.0,30.26,NNW,340,0.0,0.0,96,0.00,,SKC,0.00,VWS V14.01,2013-01-04 10:28:00,
2013-01-05 00:29:00,36.0,35.0,30.26,NNW,340,0.0,0.0,96,0.00,,SKC,0.00,VWS V14.01,2013-01-04 10:29:00,
2013-01-05 00:30:00,35.9,34.9,30.26,NNW,340,0.0,0.0,96,0.00,,SKC,0.00,VWS V14.01,2013-01-04 10:30:00,
2013-01-05 00:31:00,35.8,34.8,30.26,NNW,340,0.0,0.0,96,0.00,,SKC,0.00,VWS V14.01,2013-01-04 10:31:00,
2013-01-05 00:32:00,35.8,34.8,30.26,NNW,340,0.0,0.0,96,0.00,,SKC,0.00,VWS V14.01,2013-01-04 10:32:00,
2013-01-05 00:33:00,35.8,34.8,30.26,NNW,340,0.0,0.0,96,0.00,,SKC,0.00,VWS V14.01,2013-01-04 10:33:00,
2013-01-05 00:34:00,35.8,34.8,30.26,NNW,340,0.0,0.0,96,0.00,,SKC,0.00,VWS V14.01,2013-01-04 10:34:00,
2013-01-05 00:35:00,35.8,34.8,30.26,NNW,340,0.0,0.0,96,0.00,,SKC,0.00,VWS V14.01,2013-01-04 10:35:00,
2013-01-05 00:36:00,35.5,34.5,30.26,NNW,340,0.0,0.0,96,0.00,,SKC,0.00,VWS V14.01,2013-01-04 10:36:00,
2013-01-05 00:37:00,35.5,34.5,30.26,NNW,340,0.0,0.0,96,0.00,,SKC,0.00,VWS V14.01,2013-01-04 10:37:00,
2013-01-05 00:38:00,35.5,34.5,30.26,NNW,340,0.0,0.0,96,0.00,,SKC,0.00,VWS V14.01,2013-01-04 10:38:00,
2013-01-05 00:39:00,35.5,34.5,30.26,NNW,340,0.0,0.0,96,0.00,,SKC,0.00,VWS V14.01,2013-01-04 10:39:00,
2013-01-05 00:40:00,35.5,34.5,30.26,NNW,340,0.0,0.0,96,0.00,,SKC,0.00,VWS V14.01,2013-01-04 10:40:00,
2013-01-05 00:41:00,35.5,34.5,30.26,NNW,340,0.0,0.0,96,0.00,,SKC,0.00,VWS V14.01,2013-01-04 10:41:00,
2013-01-05 00:42:00,35.5,34.5,30.26,NNW,340,0.0,0.0,96,0.00,,SKC,0.00,VWS V14.01,2013-01-04 10:42:00,
2013-01-05 00:43:00,35.5,34.5,30.26,NNW,340,0.0,0.0,96,0.00,,SKC,0.00,VWS V14.01,2013-01-04 10:43:00,
2013-01-05 00:44:00,35.4,34.4,30.26,NNW,340,0.0,0.0,96,0.00,,SKC,0.00,VWS V14.01,2013-01-04 10:44:00,
2013-01-05 00:45:00,35.3,34.3,30.26,NNW,340,0.0,0.0,96,0.00,,SKC,0.00,VWS V14.01,2013-01-04 10:45:00,
2013-01-05 00:46:00,35.1,34.1,30.26,NNW,340,0.0,0.0,96,0.00,,SKC,0.00,VWS V14.01,2013-01-04 10:46:00,
2013-01-05 00:47:00,35.1,34.1,30.26,NNW,340,0.0,0.0,96,0.00,,SKC,0.00,VWS V14.01,2013-01-04 10:47:00,
2013-01-05 00:48:00,35.1,34.1,30.26,NNW,340,0.0,0.0,96,0.00,,SKC,0.00,VWS V14.01,2013-01-04 10:48:00,
2013-01-05 00:49:00,35.0,34.0,30.26,NNW,340,0.0,0.0,96,0.00,,SKC,0.00,VWS V14.01,2013-01-04 10:49:00,
2013-01-05 00:50:00,34.8,33.8,30.26,NNW,340,0.0,0.0,96,0.00,,SKC,0.00,VWS V14.01,2013-01-04 10:50:00,
2013-01-05 00:51:00,34.8,33.8,30.26,NNW,340,0.0,0.0,96,0.00,,SKC,0.00,VWS V14.01,2013-01-04 10:51:00,
2013-01-05 00:52:00,34.8,33.8,30.26,NNW,340,0.0,0.0,96,0.00,,SKC,0.00,VWS V14.01,2013-01-04 10:52:00,
2013-01-05 00:53:00,34.8,33.8,30.26,NNW,340,0.0,0.0,96,0.00,,SKC,0.00,VWS V14.01,2013-01-04 10:53:00,
2013-01-05 00:54:00,34.8,33.8,30.26,NNW,340,0.0,0.0,96,0.00,,SKC,0.00,VWS V14.01,2013-01-04 10:54:00,
2013-01-05 00:55:00,34.9,33.9,30.26,NNW,340,0.0,0.0,96,0.00,,SKC,0.00,VWS V14.01,2013-01-04 10:55:00,
2013-01-05 00:56:00,34.9,33.9,30.26,NNW,340,0.0,0.0,96,0.00,,SKC,0.00,VWS V14.01,2013-01-04 10:56:00,
2013-01-05 00:57:00,34.9,33.9,30.26,NNW,340,0.0,0.0,96,0.00,,SKC,0.00,VWS V14.01,2013-01-04 10:57:00,
2013-01-05 00:58:00,34.9,33.9,30.26,NNW,340,0.0,0.0,96,0.00,,SKC,0.00,VWS V14.01,2013-01-04 10:58:00,
2013-01-05 00:59:00,34.9,33.9,30.26,NNW,340,0.0,0.0,96,0.00,,SKC,0.00,VWS V14.01,2013-01-04 10:59:00,
2013-01-05 01:00:00,34.9,33.9,30.26,NNW,340,0.0,0.0,96,0.00,,SKC,0.00,VWS V14.01,2013-01-04 11:00:00,
2013-01-05 01:01:00,35.0,34.0,30.26,NNW,340,0.0,0.0,96,0.00,,SKC,0.00,VWS V14.01,2013-01-04 11:01:00,
2013-01-05 01:02:00,35.0,34.0,30.26,NNW,340,0.0,0.0,96,0.00,,SKC,0.00,VWS V14.01,2013-01-04 11:02:00,
2013-01-05 01:03:00,35.0,34.0,30.26,NNW,340,0.0,0.0,96,0.00,,SKC,0.00,VWS V14.01,2013-01-04 11:03:00,
2013-01-05 01:04:00,35.2,34.2,30.26,NNW,340,0.0,0.0,96,0.00,,SKC,0.00,VWS V14.01,2013-01-04 11:04:00,
2013-01-05 01:05:00,35.2,34.2,30.26,NNW,340,0.0,0.0,96,0.00,,SKC,0.00,VWS V14.01,2013-01-04 11:05:00,
2013-01-05 01:06:00,35.1,34.1,30.26,NNW,340,0.0,0.0,96,0.00,,SKC,0.00,VWS V14.01,2013-01-04 11:06:00,
2013-01-05 01:07:00,35.1,34.1,30.26,NNW,340,0.0,0.0,96,0.00,,SKC,0.00,VWS V14.01,2013-01-04 11:07:00,
2013-01-05 01:08:00,35.1,34.1,30.26,NNW,340,0.0,0.0,96,0.00,,SKC,0.00,VWS V14.01,2013-01-04 11:08:00,
2013-01-05 01:09:00,35.1,34.1,30.26,NNW,340,0.0,0.0,96,0.00,,SKC,0.00,VWS V14.01,2013-01-04 11:09:00,
2013-01-05 01:10:00,35.2,34.2,30.26,NNW,340,0.0,0.0,96,0.00,,SKC,0.00,VWS V14.01,2013-01-04 11:10:00,
2013-01-05 01:11:00,35.2,34.2,30.26,NNW,340,0.0,0.0,96,0.00,,SKC,0.00,VWS V14.01,2013-01-04 11:11:00,
2013-01-05 01:12:00,35.2,34.2,30.26,NNW,340,0.0,0.0,96,0.00,,SKC,0.00,VWS V14.01,2013-01-04 11:12:00,
2013-01-05 01:13:00,35.2,34.2,30.26,NNW,340,0.0,0.0,96,0.00,,SKC,0.00,VWS V14.01,2013-01-04 11:13:00,
2013-01-05 01:14:00,35.1,34.1,30.26,NNW,340,0.0,0.0,96,0.00,,SKC,0.00,VWS V14.01,2013-01-04 11:14:00,
2013-01-05 01:15:00,35.1,34.1,30.26,NNW,340,0.0,0.0,96,0.00,,SKC,0.00,VWS V14.01,2013-01-04 11:15:00,
2013-01-05 01:16:00,34.9,33.9,30.26,NNW,340,0.0,0.0,96,0.00,,SKC,0.00,VWS V14.01,2013-01-04 11:16:00,
2013-01-05 01:17:00,34.9,33.9,30.26,NNW,340,0.0,0.0,96,0.00,,SKC,0.00,VWS V14.01,2013-01-04 11:17:00,
2013-01-05 01:18:00,34.9,33.9,30.26,NNW,340,0.0,0.0,96,0.00,,SKC,0.00,VWS V14.01,2013-01-04 11:18:00,
2013-01-05 01:19:00,34.8,33.8,30.26,NNW,340,0.0,0.0,96,0.00,,SKC,0.00,VWS V14.01,2013-01-04 11:19:00,
2013-01-05 01:20:00,34.9,33.9,30.26,NNW,340,0.0,0.0,96,0.00,,SKC,0.00,VWS V14.01,2013-01-04 11:20:00,
2013-01-05 01:21:00,34.8,33.8,30.26,NNW,340,0.0,0.0,96,0.00,,SKC,0.00,VWS V14.01,2013-01-04 11:21:00,
2013-01-05 01:22:00,34.8,33.8,30.26,NNW,340,0.0,0.0,96,0.00,,SKC,0.00,VWS V14.01,2013-01-04 11:22:00,
2013-01-05 01:23:00,34.8,33.8,30.26,NNW,340,0.0,0.0,96,0.00,,SKC,0.00,VWS V14.01,2013-01-04 11:23:00,
2013-01-05 01:24:00,34.8,33.8,30.26,NNW,340,0.0,0.0,96,0.00,,SKC,0.00,VWS V14.01,2013-01-04 11:24:00,
2013-01-05 01:25:00,34.7,33.7,30.26,NNW,340,0.0,0.0,96,0.00,,SKC,0.00,VWS V14.01,2013-01-04 11:25:00,
2013-01-05 01:26:00,34.7,33.7,30.26,NNW,340,0.0,0.0,96,0.00,,SKC,0.00,VWS V14.01,2013-01-04 11:26:00,
2013-01-05 01:27:00,34.7,33.7,30.26,NNW,340,0.0,0.0,96,0.00,,SKC,0.00,VWS V14.01,2013-01-04 11:27:00,
2013-01-05 01:28:00,34.7,33.7,30.26,NNW,340,0.0,0.0,96,0.00,,SKC,0.00,VWS V14.01,2013-01-04 11:28:00,
2013-01-05 01:29:00,34.7,33.7,30.26,NNW,340,0.0,0.0,96,0.00,,SKC,0.00,VWS V14.01,2013-01-04 11:29:00,
2013-01-05 01:30:00,34.8,33.8,30.26,NNW,340,0.0,0.0,96,0.00,,SKC,0.00,VWS V14.01,2013-01-04 11:30:00,
2013-01-05 01:31:00,34.9,34.1,30.26,NNW,340,0.0,0.0,97,0.00,,SKC,0.00,VWS V14.01,2013-01-04 11:31:00,
2013-01-05 01:32:00,34.9,34.1,30.26,NNW,340,0.0,0.0,97,0.00,,SKC,0.00,VWS V14.01,2013-01-04 11:32:00,
2013-01-05 01:33:00,34.9,34.1,30.26,NNW,340,0.0,0.0,97,0.00,,SKC,0.00,VWS V14.01,2013-01-04 11:33:00,
2013-01-05 01:34:00,34.8,33.8,30.26,NNW,340,0.0,0.0,96,0.00,,SKC,0.00,VWS V14.01,2013-01-04 11:34:00,
2013-01-05 01:35:00,34.8,33.8,30.26,NNW,340,0.0,0.0,96,0.00,,SKC,0.00,VWS V14.01,2013-01-04 11:35:00,
2013-01-05 01:36:00,34.6,33.6,30.26,NNW,340,0.0,0.0,96,0.00,,SKC,0.00,VWS V14.01,2013-01-04 11:36:00,
2013-01-05 01:37:00,34.7,33.7,30.26,NNW,340,0.0,0.0,96,0.00,,SKC,0.00,VWS V14.01,2013-01-04 11:37:00,
2013-01-05 01:38:00,34.6,33.6,30.26,NNW,340,0.0,0.0,96,0.00,,SKC,0.00,VWS V14.01,2013-01-04 11:38:00,
2013-01-05 01:39:00,34.6,33.6,30.26,NNW,340,0.0,0.0,96,0.00,,SKC,0.00,VWS V14.01,2013-01-04 11:39:00,
2013-01-05 01:40:00,34.5,33.5,30.26,NNW,340,0.0,0.0,96,0.00,,SKC,0.00,VWS V14.01,2013-01-04 11:40:00,
2013-01-05 01:41:00,34.5,33.5,30.26,NNW,340,0.0,1.0,96,0.00,,SKC,0.00,VWS V14.01,2013-01-04 11:41:00,
2013-01-05 01:42:00,34.5,33.5,30.26,NNW,340,0.0,1.0,96,0.00,,SKC,0.00,VWS V14.01,2013-01-04 11:42:00,
2013-01-05 01:43:00,34.5,33.5,30.26,NNW,340,0.0,1.0,96,0.00,,SKC,0.00,VWS V14.01,2013-01-04 11:43:00,
2013-01-05 01:44:00,34.5,33.5,30.26,NNW,340,0.0,1.0,96,0.00,,SKC,0.00,VWS V14.01,2013-01-04 11:44:00,
2013-01-05 01:45:00,34.6,33.6,30.26,NNW,340,0.0,0.0,96,0.00,,SKC,0.00,VWS V14.01,2013-01-04 11:45:00,
2013-01-05 01:46:00,34.8,34.0,30.26,NNW,340,0.0,1.0,97,0.00,,SKC,0.00,VWS V14.01,2013-01-04 11:46:00,
2013-01-05 01:47:00,34.8,34.0,30.26,NNW,340,1.0,1.0,97,0.00,,SKC,0.00,VWS V14.01,2013-01-04 11:47:00,
2013-01-05 01:48:00,34.8,34.0,30.26,NNW,340,0.0,1.0,97,0.00,,SKC,0.00,VWS V14.01,2013-01-04 11:48:00,
2013-01-05 01:49:00,34.8,34.0,30.26,NNW,340,0.0,1.0,97,0.00,,SKC,0.00,VWS V14.01,2013-01-04 11:49:00,
2013-01-05 01:50:00,34.8,34.0,30.26,NNW,340,2.0,2.0,97,0.00,,SKC,0.00,VWS V14.01,2013-01-04 11:50:00,
2013-01-05 01:51:00,35.0,34.2,30.27,NNW,340,1.0,2.0,97,0.00,,SKC,0.00,VWS V14.01,2013-01-04 11:51:00,
2013-01-05 01:52:00,35.0,34.2,30.27,NNW,340,0.0,0.0,97,0.00,,SKC,0.00,VWS V14.01,2013-01-04 11:52:00,
2013-01-05 01:53:00,35.0,34.2,30.26,NNW,340,1.0,2.0,97,0.00,,SKC,0.00,VWS V14.01,2013-01-04 11:53:00,
2013-01-05 01:54:00,35.0,34.2,30.27,NNW,340,0.0,1.0,97,0.00,,SKC,0.00,VWS V14.01,2013-01-04 11:54:00,
2013-01-05 01:55:00,34.9,33.9,30.27,NNW,340,0.0,1.0,96,0.00,,SKC,0.00,VWS V14.01,2013-01-04 11:55:00,
2013-01-05 01:56:00,34.8,33.8,30.26,NNW,340,0.0,0.0,96,0.00,,SKC,0.00,VWS V14.01,2013-01-04 11:56:00,
2013-01-05 01:57:00,34.8,33.8,30.26,NNW,340,0.0,1.0,96,0.00,,SKC,0.00,VWS V14.01,2013-01-04 11:57:00,
2013-01-05 01:58:00,34.8,33.8,30.26,NNW,340,1.0,1.0,96,0.00,,SKC,0.00,VWS V14.01,2013-01-04 11:58:00,
2013-01-05 01:59:00,34.7,33.7,30.26,NNW,340,2.0,2.0,96,0.00,,SKC,0.00,VWS V14.01,2013-01-04 11:59:00,
2013-01-05 02:00:00,34.8,34.0,30.26,NNW,340,0.0,2.0,97,0.00,,SKC,0.00,VWS V14.01,2013-01-04 12:00:00,
2013-01-05 02:01:00,35.0,34.2,30.26,NNW,340,0.0,0.0,97,0.00,,SKC,0.00,VWS V14.01,2013-01-04 12:01:00,
2013-01-05 02:02:00,35.0,34.2,30.27,NNW,340,0.0,1.0,97,0.00,,SKC,0.00,VWS V14.01,2013-01-04 12:02:00,
2013-01-05 02:03:00,35.0,34.2,30.26,NNW,340,0.0,0.0,97,0.00,,SKC,0.00,VWS V14.01,2013-01-04 12:03:00,
2013-01-05 02:04:00,35.0,34.2,30.26,NNW,340,0.0,0.0,97,0.00,,SKC,0.00,VWS V14.01,2013-01-04 12:04:00,
2013-01-05 02:05:00,35.0,34.0,30.26,NNW,340,0.0,0.0,96,0.00,,SKC,0.00,VWS V14.01,2013-01-04 12:05:00,
2013-01-05 02:06:00,35.1,34.3,30.26,NNW,340,0.0,1.0,97,0.00,,SKC,0.00,VWS V14.01,2013-01-04 12:06:00,
2013-01-05 02:07:00,35.0,34.2,30.26,NNW,340,0.0,0.0,97,0.00,,SKC,0.00,VWS V14.01,2013-01-04 12:07:00,
2013-01-05 02:08:00,35.1,34.3,30.26,NNW,340,0.0,1.0,97,0.00,,SKC,0.00,VWS V14.01,2013-01-04 12:08:00,
2013-01-05 02:09:00,35.1,34.3,30.26,NNW,340,0.0,0.0,97,0.00,,SKC,0.00,VWS V14.01,2013-01-04 12:09:00,
2013-01-05 02:10:00,35.0,34.0,30.26,NNW,340,0.0,0.0,96,0.00,,SKC,0.00,VWS V14.01,2013-01-04 12:10:00,
2013-01-05 02:11:00,35.1,34.3,30.26,NNW,340,0.0,0.0,97,0.00,,SKC,0.00,VWS V14.01,2013-01-04 12:11:00,
2013-01-05 02:12:00,35.1,34.3,30.26,NNW,340,0.0,0.0,97,0.00,,SKC,0.00,VWS V14.01,2013-01-04 12:12:00,
2013-01-05 02:13:00,35.1,34.3,30.26,NNW,340,0.0,0.0,97,0.00,,SKC,0.00,VWS V14.01,2013-01-04 12:13:00,
2013-01-05 02:14:00,35.2,34.4,30.26,NNW,340,0.0,0.0,97,0.00,,SKC,0.00,VWS V14.01,2013-01-04 12:14:00,
2013-01-05 02:15:00,35.2,34.4,30.26,NNW,340,0.0,1.0,97,0.00,,SKC,0.00,VWS V14.01,2013-01-04 12:15:00,
2013-01-05 02:16:00,35.1,34.1,30.26,NNW,340,1.0,1.0,96,0.00,,SKC,0.00,VWS V14.01,2013-01-04 12:16:00,
2013-01-05 02:17:00,35.1,34.1,30.26,NNW,340,0.0,0.0,96,0.00,,SKC,0.00,VWS V14.01,2013-01-04 12:17:00,
2013-01-05 02:18:00,35.1,34.1,30.26,NNW,340,1.0,2.0,96,0.00,,SKC,0.00,VWS V14.01,2013-01-04 12:18:00,
2013-01-05 02:19:00,35.2,34.2,30.26,NNW,340,0.0,1.0,96,0.00,,SKC,0.00,VWS V14.01,2013-01-04 12:19:00,
2013-01-05 02:20:00,35.2,34.4,30.26,NNW,340,0.0,1.0,97,0.00,,SKC,0.00,VWS V14.01,2013-01-04 12:20:00,
2013-01-05 02:21:00,35.2,34.4,30.26,NNW,340,0.0,0.0,97,0.00,,SKC,0.00,VWS V14.01,2013-01-04 12:21:00,
2013-01-05 02:22:00,35.2,34.4,30.26,NNW,340,0.0,0.0,97,0.00,,SKC,0.00,VWS V14.01,2013-01-04 12:22:00,
2013-01-05 02:23:00,35.2,34.4,30.26,NNW,340,0.0,0.0,97,0.00,,SKC,0.00,VWS V14.01,2013-01-04 12:23:00,
2013-01-05 02:24:00,35.2,34.4,30.26,NNW,340,0.0,0.0,97,0.00,,SKC,0.00,VWS V14.01,2013-01-04 12:24:00,
2013-01-05 02:25:00,35.1,34.1,30.26,NNW,340,0.0,0.0,96,0.00,,SKC,0.00,VWS V14.01,2013-01-04 12:25:00,
2013-01-05 02:26:00,35.0,34.0,30.26,NNW,340,0.0,0.0,96,0.00,,SKC,0.00,VWS V14.01,2013-01-04 12:26:00,
2013-01-05 02:27:00,35.0,34.0,30.26,NNW,340,0.0,0.0,96,0.00,,SKC,0.00,VWS V14.01,2013-01-04 12:27:00,
2013-01-05 02:28:00,35.0,34.0,30.26,NNW,340,0.0,0.0,96,0.00,,SKC,0.00,VWS V14.01,2013-01-04 12:28:00,
2013-01-05 02:29:00,35.0,34.0,30.26,NNW,340,0.0,0.0,96,0.00,,SKC,0.00,VWS V14.01,2013-01-04 12:29:00,
2013-01-05 02:30:00,34.9,33.9,30.25,NNW,340,0.0,0.0,96,0.00,,SKC,0.00,VWS V14.01,2013-01-04 12:30:00,
2013-01-05 02:31:00,34.9,34.1,30.25,NNW,340,0.0,0.0,97,0.00,,SKC,0.00,VWS V14.01,2013-01-04 12:31:00,
2013-01-05 02:32:00,34.9,34.1,30.26,NNW,340,0.0,0.0,97,0.00,,SKC,0.00,VWS V14.01,2013-01-04 12:32:00,
2013-01-05 02:33:00,34.9,34.1,30.25,NNW,340,0.0,0.0,97,0.00,,SKC,0.00,VWS V14.01,2013-01-04 12:33:00,
2013-01-05 02:34:00,34.8,34.0,30.25,NNW,340,0.0,0.0,97,0.00,,SKC,0.00,VWS V14.01,2013-01-04 12:34:00,
2013-01-05 02:35:00,34.8,34.0,30.25,NNW,340,0.0,0.0,97,0.00,,SKC,0.00,VWS V14.01,2013-01-04 12:35:00,
2013-01-05 02:36:00,34.6,33.6,30.25,NNW,340,0.0,0.0,96,0.00,,SKC,0.00,VWS V14.01,2013-01-04 12:36:00,
2013-01-05 02:37:00,34.7,33.9,30.25,NNW,340,0.0,0.0,97,0.00,,SKC,0.00,VWS V14.01,2013-01-04 12:37:00,
2013-01-05 02:38:00,34.7,33.9,30.25,NNW,340,0.0,0.0,97,0.00,,SKC,0.00,VWS V14.01,2013-01-04 12:38:00,
2013-01-05 02:39:00,34.7,33.7,30.25,NNW,340,0.0,0.0,96,0.00,,SKC,0.00,VWS V14.01,2013-01-04 12:39:00,
2013-01-05 02:40:00,34.7,33.9,30.25,NNW,340,0.0,0.0,97,0.00,,SKC,0.00,VWS V14.01,2013-01-04 12:40:00,
2013-01-05 02:41:00,34.8,34.0,30.25,NNW,340,0.0,0.0,97,0.00,,SKC,0.00,VWS V14.01,2013-01-04 12:41:00,
2013-01-05 02:42:00,34.8,34.0,30.25,NNW,340,0.0,0.0,97,0.00,,SKC,0.00,VWS V14.01,2013-01-04 12:42:00,
2013-01-05 02:43:00,34.8,34.0,30.25,NNW,340,0.0,0.0,97,0.00,,SKC,0.00,VWS V14.01,2013-01-04 12:43:00,
2013-01-05 02:44:00,34.8,34.0,30.25,NNW,340,0.0,0.0,97,0.00,,SKC,0.00,VWS V14.01,2013-01-04 12:44:00,
2013-01-05 02:45:00,34.7,33.7,30.25,NNW,340,0.0,0.0,96,0.00,,SKC,0.00,VWS V14.01,2013-01-04 12:45:00,
2013-01-05 02:46:00,34.7,33.7,30.25,NNW,340,0.0,0.0,96,0.00,,SKC,0.00,VWS V14.01,2013-01-04 12:46:00,
2013-01-05 02:47:00,34.7,33.7,30.25,NNW,340,0.0,0.0,96,0.00,,SKC,0.00,VWS V14.01,2013-01-04 12:47:00,
2013-01-05 02:48:00,34.7,33.7,30.25,NNW,340,0.0,0.0,96,0.00,,SKC,0.00,VWS V14.01,2013-01-04 12:48:00,
2013-01-05 02:49:00,34.6,33.6,30.25,NNW,340,0.0,0.0,96,0.00,,SKC,0.00,VWS V14.01,2013-01-04 12:49:00,
2013-01-05 02:50:00,34.6,33.6,30.25,NNW,340,0.0,0.0,96,0.00,,SKC,0.00,VWS V14.01,2013-01-04 12:50:00,
2013-01-05 02:51:00,34.5,33.5,30.25,NNW,340,0.0,0.0,96,0.00,,SKC,0.00,VWS V14.01,2013-01-04 12:51:00,
2013-01-05 02:52:00,34.6,33.8,30.25,NNW,340,0.0,0.0,97,0.00,,SKC,0.00,VWS V14.01,2013-01-04 12:52:00,
2013-01-05 02:53:00,34.5,33.5,30.25,NNW,340,0.0,0.0,96,0.00,,SKC,0.00,VWS V14.01,2013-01-04 12:53:00,
2013-01-05 02:54:00,34.6,33.8,30.25,NNW,340,0.0,0.0,97,0.00,,SKC,0.00,VWS V14.01,2013-01-04 12:54:00,
2013-01-05 02:55:00,34.6,33.8,30.25,NNW,340,0.0,0.0,97,0.00,,SKC,0.00,VWS V14.01,2013-01-04 12:55:00,
2013-01-05 02:56:00,34.6,33.8,30.25,NNW,340,0.0,0.0,97,0.00,,SKC,0.00,VWS V14.01,2013-01-04 12:56:00,
2013-01-05 02:57:00,34.6,33.8,30.25,NNW,340,0.0,0.0,97,0.00,,SKC,0.00,VWS V14.01,2013-01-04 12:57:00,
2013-01-05 02:58:00,34.6,33.8,30.25,NNW,340,0.0,0.0,97,0.00,,SKC,0.00,VWS V14.01,2013-01-04 12:58:00,
2013-01-05 02:59:00,34.6,33.8,30.25,NNW,340,0.0,0.0,97,0.00,,SKC,0.00,VWS V14.01,2013-01-04 12:59:00,
2013-01-05 03:00:00,34.6,33.8,30.25,NNW,340,0.0,0.0,97,0.00,,SKC,0.00,VWS V14.01,2013-01-04 13:00:00,
2013-01-05 03:01:00,34.5,33.7,30.25,NNW,340,0.0,0.0,97,0.00,,SKC,0.00,VWS V14.01,2013-01-04 13:01:00,
2013-01-05 03:02:00,34.5,33.7,30.25,NNW,340,0.0,0.0,97,0.00,,SKC,0.00,VWS V14.01,2013-01-04 13:02:00,
2013-01-05 03:03:00,34.5,33.7,30.25,NNW,340,0.0,0.0,97,0.00,,SKC,0.00,VWS V14.01,2013-01-04 13:03:00,
2013-01-05 03:04:00,34.4,33.6,30.25,NNW,340,0.0,0.0,97,0.00,,SKC,0.00,VWS V14.01,2013-01-04 13:04:00,
2013-01-05 03:05:00,34.3,33.5,30.25,NNW,340,0.0,0.0,97,0.00,,SKC,0.00,VWS V14.01,2013-01-04 13:05:00,
2013-01-05 03:06:00,34.3,33.5,30.25,NNW,340,0.0,0.0,97,0.00,,SKC,0.00,VWS V14.01,2013-01-04 13:06:00,
2013-01-05 03:07:00,34.3,33.5,30.25,NNW,340,0.0,0.0,97,0.00,,SKC,0.00,VWS V14.01,2013-01-04 13:07:00,
2013-01-05 03:08:00,34.3,33.5,30.25,NNW,340,0.0,0.0,97,0.00,,SKC,0.00,VWS V14.01,2013-01-04 13:08:00,
2013-01-05 03:09:00,34.2,33.4,30.25,NNW,340,0.0,0.0,97,0.00,,SKC,0.00,VWS V14.01,2013-01-04 13:09:00,
2013-01-05 03:10:00,34.3,33.5,30.25,NNW,340,0.0,0.0,97,0.00,,SKC,0.00,VWS V14.01,2013-01-04 13:10:00,
2013-01-05 03:11:00,34.4,33.6,30.25,NNW,340,0.0,1.0,97,0.00,,SKC,0.00,VWS V14.01,2013-01-04 13:11:00,
2013-01-05 03:12:00,34.4,33.6,30.25,NNW,340,1.0,1.0,97,0.00,,SKC,0.00,VWS V14.01,2013-01-04 13:12:00,
2013-01-05 03:13:00,34.4,33.6,30.25,NNW,340,0.0,1.0,97,0.00,,SKC,0.00,VWS V14.01,2013-01-04 13:13:00,
2013-01-05 03:14:00,34.4,33.6,30.25,NNW,340,0.0,0.0,97,0.00,,SKC,0.00,VWS V14.01,2013-01-04 13:14:00,
2013-01-05 03:15:00,34.4,33.6,30.25,NNW,340,0.0,0.0,97,0.00,,SKC,0.00,VWS V14.01,2013-01-04 13:15:00,
2013-01-05 03:16:00,34.4,33.6,30.25,NNW,340,0.0,0.0,97,0.00,,SKC,0.00,VWS V14.01,2013-01-04 13:16:00,
2013-01-05 03:17:00,34.4,33.6,30.25,NNW,340,0.0,0.0,97,0.00,,SKC,0.00,VWS V14.01,2013-01-04 13:17:00,
2013-01-05 03:18:00,34.4,33.6,30.25,NNW,340,0.0,0.0,97,0.00,,SKC,0.00,VWS V14.01,2013-01-04 13:18:00,
2013-01-05 03:19:00,34.4,33.6,30.25,NNW,340,0.0,1.0,97,0.00,,SKC,0.00,VWS V14.01,2013-01-04 13:19:00,
2013-01-05 03:20:00,34.5,33.7,30.25,NNW,340,0.0,0.0,97,0.00,,SKC,0.00,VWS V14.01,2013-01-04 13:20:00,
2013-01-05 03:21:00,34.4,33.6,30.25,NNW,340,0.0,1.0,97,0.00,,SKC,0.00,VWS V14.01,2013-01-04 13:21:00,
2013-01-05 03:22:00,34.4,33.6,30.25,NNW,340,0.0,0.0,97,0.00,,SKC,0.00,VWS V14.01,2013-01-04 13:22:00,
2013-01-05 03:23:00,34.4,33.6,30.25,NNW,340,0.0,1.0,97,0.00,,SKC,0.00,VWS V14.01,2013-01-04 13:23:00,
2013-01-05 03:24:00,34.4,33.6,30.25,NNW,340,0.0,0.0,97,0.00,,SKC,0.00,VWS V14.01,2013-01-04 13:24:00,
2013-01-05 03:25:00,34.4,33.6,30.25,NNW,340,0.0,0.0,97,0.00,,SKC,0.00,VWS V14.01,2013-01-04 13:25:00,
2013-01-05 03:26:00,34.3,33.5,30.26,NNW,340,0.0,1.0,97,0.00,,SKC,0.00,VWS V14.01,2013-01-04 13:26:00,
2013-01-05 03:27:00,34.3,33.5,30.25,NNW,340,0.0,1.0,97,0.00,,SKC,0.00,VWS V14.01,2013-01-04 13:27:00,
2013-01-05 03:29:00,34.5,33.7,30.26,NNW,340,1.0,1.0,97,0.00,,SKC,0.00,VWS V14.01,2013-01-04 13:29:00,
2013-01-05 03:30:00,34.5,33.7,30.26,NNW,340,0.0,1.0,97,0.00,,SKC,0.00,VWS V14.01,2013-01-04 13:30:00,
2013-01-05 03:31:00,34.6,33.8,30.26,NNW,340,0.0,0.0,97,0.00,,SKC,0.00,VWS V14.01,2013-01-04 13:31:00,
2013-01-05 03:32:00,34.6,33.8,30.26,NNW,340,0.0,0.0,97,0.00,,SKC,0.00,VWS V14.01,2013-01-04 13:32:00,
2013-01-05 03:33:00,34.6,33.8,30.26,NNW,340,0.0,0.0,97,0.00,,SKC,0.00,VWS V14.01,2013-01-04 13:33:00,
2013-01-05 03:34:00,34.7,33.9,30.26,NNW,340,0.0,0.0,97,0.00,,SKC,0.00,VWS V14.01,2013-01-04 13:34:00,
2013-01-05 03:35:00,34.7,33.9,30.26,NNW,340,0.0,0.0,97,0.00,,SKC,0.00,VWS V14.01,2013-01-04 13:35:00,
2013-01-05 03:36:00,34.6,33.8,30.26,NNW,340,0.0,0.0,97,0.00,,SKC,0.00,VWS V14.01,2013-01-04 13:36:00,
2013-01-05 03:38:00,34.6,33.8,30.26,NNW,340,0.0,0.0,97,0.00,,SKC,0.00,VWS V14.01,2013-01-04 13:38:00,
2013-01-05 03:39:00,34.6,33.8,30.26,NNW,340,0.0,0.0,97,0.00,,SKC,0.00,VWS V14.01,2013-01-04 13:39:00,
2013-01-05 03:40:00,34.6,33.8,30.26,NNW,340,0.0,0.0,97,0.00,,SKC,0.00,VWS V14.01,2013-01-04 13:40:00,
2013-01-05 03:41:00,34.8,34.0,30.26,NNW,340,1.0,1.0,97,0.00,,SKC,0.00,VWS V14.01,2013-01-04 13:41:00,
2013-01-05 03:42:00,34.7,33.9,30.26,NNW,340,0.0,1.0,97,0.00,,SKC,0.00,VWS V14.01,2013-01-04 13:42:00,
2013-01-05 03:43:00,34.8,34.0,30.26,NNW,340,0.0,1.0,97,0.00,,SKC,0.00,VWS V14.01,2013-01-04 13:43:00,
2013-01-05 03:44:00,34.8,34.0,30.26,NNW,340,0.0,1.0,97,0.00,,SKC,0.00,VWS V14.01,2013-01-04 13:44:00,
2013-01-05 03:45:00,34.8,34.0,30.26,NNW,340,0.0,0.0,97,0.00,,SKC,0.00,VWS V14.01,2013-01-04 13:45:00,
2013-01-05 03:46:00,34.7,33.9,30.26,NNW,340,0.0,0.0,97,0.00,,SKC,0.00,VWS V14.01,2013-01-04 13:46:00,
2013-01-05 03:47:00,34.7,33.9,30.26,NNW,340,0.0,0.0,97,0.00,,SKC,0.00,VWS V14.01,2013-01-04 13:47:00,
2013-01-05 03:49:00,34.7,33.9,30.26,NNW,340,0.0,0.0,97,0.00,,SKC,0.00,VWS V14.01,2013-01-04 13:49:00,
2013-01-05 03:50:00,34.8,34.0,30.26,NNW,340,0.0,0.0,97,0.00,,SKC,0.00,VWS V14.01,2013-01-04 13:50:00,
2013-01-05 03:51:00,34.8,34.0,30.26,NNW,340,0.0,0.0,97,0.00,,SKC,0.00,VWS V14.01,2013-01-04 13:51:00,
2013-01-05 03:52:00,34.8,34.0,30.26,NNW,340,0.0,0.0,97,0.00,,SKC,0.00,VWS V14.01,2013-01-04 13:52:00,
2013-01-05 03:53:00,34.8,34.0,30.26,NNW,340,0.0,0.0,97,0.00,,SKC,0.00,VWS V14.01,2013-01-04 13:53:00,
2013-01-05 03:54:00,34.8,34.0,30.26,NNW,340,0.0,0.0,97,0.00,,SKC,0.00,VWS V14.01,2013-01-04 13:54:00,
2013-01-05 03:55:00,34.8,34.0,30.26,NNW,340,2.0,2.0,97,0.00,,SKC,0.00,VWS V14.01,2013-01-04 13:55:00,
2013-01-05 03:56:00,34.6,33.8,30.26,NNW,340,0.0,0.0,97,0.00,,SKC,0.00,VWS V14.01,2013-01-04 13:56:00,
2013-01-05 03:57:00,34.7,33.9,30.26,NNW,340,0.0,0.0,97,0.00,,SKC,0.00,VWS V14.01,2013-01-04 13:57:00,
2013-01-05 03:58:00,34.6,33.8,30.26,NNW,340,0.0,0.0,97,0.00,,SKC,0.00,VWS V14.01,2013-01-04 13:58:00,
2013-01-05 03:59:00,34.6,33.8,30.26,NNW,340,0.0,0.0,97,0.00,,SKC,0.00,VWS V14.01,2013-01-04 13:59:00,
2013-01-05 04:00:00,34.6,33.8,30.26,NNW,340,0.0,0.0,97,0.00,,SKC,0.00,VWS V14.01,2013-01-04 14:00:00,
2013-01-05 04:01:00,34.5,33.7,30.26,NNW,340,0.0,0.0,97,0.00,,SKC,0.00,VWS V14.01,2013-01-04 14:01:00,
2013-01-05 04:02:00,34.5,33.7,30.26,NNW,340,0.0,0.0,97,0.00,,SKC,0.00,VWS V14.01,2013-01-04 14:02:00,
2013-01-05 04:03:00,34.5,33.7,30.26,NNW,340,0.0,0.0,97,0.00,,SKC,0.00,VWS V14.01,2013-01-04 14:03:00,
2013-01-05 04:04:00,34.5,33.7,30.26,NNW,340,0.0,0.0,97,0.00,,SKC,0.00,VWS V14.01,2013-01-04 14:04:00,
2013-01-05 04:05:00,34.5,33.7,30.26,NNW,340,0.0,0.0,97,0.00,,SKC,0.00,VWS V14.01,2013-01-04 14:05:00,
2013-01-05 04:06:00,34.6,33.8,30.27,NNW,340,0.0,0.0,97,0.00,,SKC,0.00,VWS V14.01,2013-01-04 14:06:00,
2013-01-05 04:07:00,34.5,33.7,30.27,NNW,340,0.0,0.0,97,0.00,,SKC,0.00,VWS V14.01,2013-01-04 14:07:00,
2013-01-05 04:08:00,34.6,33.8,30.27,NNW,340,0.0,0.0,97,0.00,,SKC,0.00,VWS V14.01,2013-01-04 14:08:00,
2013-01-05 04:09:00,34.6,33.8,30.27,NNW,340,0.0,0.0,97,0.00,,SKC,0.00,VWS V14.01,2013-01-04 14:09:00,
2013-01-05 04:10:00,34.6,33.8,30.27,NNW,340,0.0,0.0,97,0.00,,SKC,0.00,VWS V14.01,2013-01-04 14:10:00,
2013-01-05 04:11:00,34.6,33.8,30.27,NNW,340,0.0,0.0,97,0.00,,SKC,0.00,VWS V14.01,2013-01-04 14:11:00,
2013-01-05 04:12:00,34.6,33.8,30.27,NNW,340,0.0,0.0,97,0.00,,SKC,0.00,VWS V14.01,2013-01-04 14:12:00,
2013-01-05 04:13:00,34.6,33.8,30.27,NNW,340,0.0,0.0,97,0.00,,SKC,0.00,VWS V14.01,2013-01-04 14:13:00,
2013-01-05 04:14:00,34.6,33.8,30.27,NNW,340,0.0,0.0,97,0.00,,SKC,0.00,VWS V14.01,2013-01-04 14:14:00,
2013-01-05 04:15:00,34.7,33.9,30.27,NNW,340,0.0,0.0,97,0.00,,SKC,0.00,VWS V14.01,2013-01-04 14:15:00,
2013-01-05 04:16:00,34.7,33.9,30.27,NNW,340,0.0,0.0,97,0.00,,SKC,0.00,VWS V14.01,2013-01-04 14:16:00,
2013-01-05 04:17:00,34.7,33.9,30.27,NNW,340,0.0,0.0,97,0.00,,SKC,0.00,VWS V14.01,2013-01-04 14:17:00,
2013-01-05 04:18:00,34.7,33.9,30.27,NNW,340,0.0,0.0,97,0.00,,SKC,0.00,VWS V14.01,2013-01-04 14:18:00,
2013-01-05 04:19:00,34.7,33.9,30.27,NNW,340,0.0,0.0,97,0.00,,SKC,0.00,VWS V14.01,2013-01-04 14:19:00,
2013-01-05 04:20:00,34.7,33.9,30.27,NNW,340,0.0,0.0,97,0.00,,SKC,0.00,VWS V14.01,2013-01-04 14:20:00,
2013-01-05 04:21:00,34.6,33.8,30.27,NNW,340,0.0,0.0,97,0.00,,SKC,0.00,VWS V14.01,2013-01-04 14:21:00,
2013-01-05 04:22:00,34.6,33.8,30.27,NNW,340,0.0,1.0,97,0.00,,SKC,0.00,VWS V14.01,2013-01-04 14:22:00,
2013-01-05 04:23:00,34.6,33.8,30.27,NNW,340,0.0,0.0,97,0.00,,SKC,0.00,VWS V14.01,2013-01-04 14:23:00,
2013-01-05 04:24:00,34.6,33.8,30.27,NNW,340,0.0,0.0,97,0.00,,SKC,0.00,VWS V14.01,2013-01-04 14:24:00,
2013-01-05 04:25:00,34.6,33.8,30.27,NNW,340,0.0,0.0,97,0.00,,SKC,0.00,VWS V14.01,2013-01-04 14:25:00,
2013-01-05 04:26:00,34.6,33.8,30.27,NNW,340,0.0,0.0,97,0.00,,SKC,0.00,VWS V14.01,2013-01-04 14:26:00,
2013-01-05 04:27:00,34.6,33.8,30.27,NNW,340,0.0,0.0,97,0.00,,SKC,0.00,VWS V14.01,2013-01-04 14:27:00,
2013-01-05 04:28:00,34.5,33.7,30.27,NNW,340,0.0,0.0,97,0.00,,SKC,0.00,VWS V14.01,2013-01-04 14:28:00,
2013-01-05 04:29:00,34.5,33.7,30.27,NNW,340,0.0,0.0,97,0.00,,SKC,0.00,VWS V14.01,2013-01-04 14:29:00,
2013-01-05 04:30:00,34.4,33.6,30.27,NNW,340,0.0,0.0,97,0.00,,SKC,0.00,VWS V14.01,2013-01-04 14:30:00,
2013-01-05 04:31:00,34.4,33.6,30.27,NNW,340,0.0,0.0,97,0.00,,SKC,0.00,VWS V14.01,2013-01-04 14:31:00,
2013-01-05 04:32:00,34.4,33.6,30.27,NNW,340,0.0,0.0,97,0.00,,SKC,0.00,VWS V14.01,2013-01-04 14:32:00,
2013-01-05 04:33:00,34.4,33.6,30.27,NNW,340,0.0,0.0,97,0.00,,SKC,0.00,VWS V14.01,2013-01-04 14:33:00,
2013-01-05 04:34:00,34.3,33.5,30.27,NNW,340,0.0,0.0,97,0.00,,SKC,0.00,VWS V14.01,2013-01-04 14:34:00,
2013-01-05 04:36:00,34.2,33.4,30.27,NNW,340,0.0,0.0,97,0.00,,SKC,0.00,VWS V14.01,2013-01-04 14:36:00,
2013-01-05 04:37:00,34.2,33.4,30.27,NNW,340,0.0,0.0,97,0.00,,SKC,0.00,VWS V14.01,2013-01-04 14:37:00,
2013-01-05 04:38:00,34.2,33.4,30.27,NNW,340,0.0,0.0,97,0.00,,SKC,0.00,VWS V14.01,2013-01-04 14:38:00,
2013-01-05 04:39:00,34.3,33.5,30.27,NNW,340,0.0,0.0,97,0.00,,SKC,0.00,VWS V14.01,2013-01-04 14:39:00,
2013-01-05 04:40:00,34.2,33.4,30.27,NNW,340,0.0,0.0,97,0.00,,SKC,0.00,VWS V14.01,2013-01-04 14:40:00,
2013-01-05 04:41:00,34.3,33.5,30.27,NNW,340,0.0,0.0,97,0.00,,SKC,0.00,VWS V14.01,2013-01-04 14:41:00,
2013-01-05 04:42:00,34.3,33.5,30.27,NNW,340,0.0,0.0,97,0.00,,SKC,0.00,VWS V14.01,2013-01-04 14:42:00,
2013-01-05 04:43:00,34.3,33.5,30.27,NNW,340,0.0,0.0,97,0.00,,SKC,0.00,VWS V14.01,2013-01-04 14:43:00,
2013-01-05 04:44:00,34.3,33.5,30.27,NNW,340,0.0,0.0,97,0.00,,SKC,0.00,VWS V14.01,2013-01-04 14:44:00,
2013-01-05 04:45:00,34.3,33.5,30.27,NNW,340,0.0,0.0,97,0.00,,SKC,0.00,VWS V14.01,2013-01-04 14:45:00,
2013-01-05 04:46:00,34.3,33.5,30.27,NNW,340,0.0,0.0,97,0.00,,SKC,0.00,VWS V14.01,2013-01-04 14:46:00,
2013-01-05 04:47:00,34.4,33.6,30.27,NNW,340,0.0,0.0,97,0.00,,SKC,0.00,VWS V14.01,2013-01-04 14:47:00,
2013-01-05 04:48:00,34.4,33.6,30.27,NNW,340,0.0,0.0,97,0.00,,SKC,0.00,VWS V14.01,2013-01-04 14:48:00,
2013-01-05 04:49:00,34.3,33.5,30.27,NNW,340,0.0,0.0,97,0.00,,SKC,0.00,VWS V14.01,2013-01-04 14:49:00,
2013-01-05 04:50:00,34.3,33.5,30.27,NNW,340,0.0,0.0,97,0.00,,SKC,0.00,VWS V14.01,2013-01-04 14:50:00,
2013-01-05 04:51:00,34.1,33.3,30.27,NNW,340,0.0,0.0,97,0.00,,SKC,0.00,VWS V14.01,2013-01-04 14:51:00,
2013-01-05 04:52:00,34.1,33.3,30.27,NNW,340,0.0,0.0,97,0.00,,SKC,0.00,VWS V14.01,2013-01-04 14:52:00,
2013-01-05 04:53:00,34.1,33.3,30.27,NNW,340,0.0,0.0,97,0.00,,SKC,0.00,VWS V14.01,2013-01-04 14:53:00,
2013-01-05 04:54:00,34.0,33.2,30.27,NNW,340,0.0,0.0,97,0.00,,SKC,0.00,VWS V14.01,2013-01-04 14:54:00,
2013-01-05 04:55:00,33.9,33.1,30.27,NNW,340,0.0,0.0,97,0.00,,SKC,0.00,VWS V14.01,2013-01-04 14:55:00,
2013-01-05 04:56:00,33.9,33.1,30.27,NNW,340,0.0,0.0,97,0.00,,SKC,0.00,VWS V14.01,2013-01-04 14:56:00,
2013-01-05 04:57:00,34.0,33.2,30.27,NNW,340,0.0,0.0,97,0.00,,SKC,0.00,VWS V14.01,2013-01-04 14:57:00,
2013-01-05 04:58:00,34.0,33.2,30.27,NNW,340,0.0,0.0,97,0.00,,SKC,0.00,VWS V14.01,2013-01-04 14:58:00,
2013-01-05 04:59:00,34.0,33.2,30.27,NNW,340,0.0,0.0,97,0.00,,SKC,0.00,VWS V14.01,2013-01-04 14:59:00,
2013-01-05 05:00:00,34.0,33.2,30.27,NNW,340,0.0,0.0,97,0.00,,SKC,0.00,VWS V14.01,2013-01-04 15:00:00,
2013-01-05 05:01:00,34.0,33.2,30.28,NNW,340,0.0,0.0,97,0.00,,BKN060,0.00,VWS V14.01,2013-01-04 15:01:00,
2013-01-05 05:02:00,34.0,33.2,30.28,NNW,340,0.0,0.0,97,0.00,,SKC,0.00,VWS V14.01,2013-01-04 15:02:00,
2013-01-05 05:03:00,34.1,33.3,30.28,NNW,340,0.0,0.0,97,0.00,,SKC,0.00,VWS V14.01,2013-01-04 15:03:00,
2013-01-05 05:04:00,34.0,33.2,30.27,NNW,340,0.0,0.0,97,0.00,,SKC,0.00,VWS V14.01,2013-01-04 15:04:00,
2013-01-05 05:05:00,34.0,33.2,30.28,NNW,340,0.0,0.0,97,0.00,,SKC,0.00,VWS V14.01,2013-01-04 15:05:00,
2013-01-05 05:06:00,34.1,33.3,30.27,NNW,340,0.0,0.0,97,0.00,,BKN060,0.00,VWS V14.01,2013-01-04 15:06:00,
2013-01-05 05:07:00,34.1,33.3,30.27,NNW,340,0.0,0.0,97,0.00,,SKC,0.00,VWS V14.01,2013-01-04 15:07:00,
2013-01-05 05:08:00,34.1,33.3,30.27,NNW,340,0.0,0.0,97,0.00,,SKC,0.00,VWS V14.01,2013-01-04 15:08:00,
2013-01-05 05:09:00,34.1,33.3,30.27,NNW,340,0.0,0.0,97,0.00,,SKC,0.00,VWS V14.01,2013-01-04 15:09:00,
2013-01-05 05:10:00,34.1,33.3,30.27,NNW,340,0.0,0.0,97,0.00,,SKC,0.00,VWS V14.01,2013-01-04 15:10:00,
2013-01-05 05:11:00,34.1,33.3,30.27,NNW,340,0.0,0.0,97,0.00,,BKN060,0.00,VWS V14.01,2013-01-04 15:11:00,
2013-01-05 05:12:00,34.1,33.3,30.28,NNW,340,0.0,0.0,97,0.00,,SKC,0.00,VWS V14.01,2013-01-04 15:12:00,
2013-01-05 05:13:00,34.0,33.2,30.27,NNW,340,0.0,0.0,97,0.00,,SKC,0.00,VWS V14.01,2013-01-04 15:13:00,
2013-01-05 05:14:00,34.0,33.2,30.27,NNW,340,0.0,0.0,97,0.00,,SKC,0.00,VWS V14.01,2013-01-04 15:14:00,
2013-01-05 05:15:00,33.9,33.1,30.27,NNW,340,0.0,0.0,97,0.00,,SKC,0.00,VWS V14.01,2013-01-04 15:15:00,
2013-01-05 05:16:00,33.7,32.9,30.27,NNW,340,0.0,0.0,97,0.00,,BKN060,0.00,VWS V14.01,2013-01-04 15:16:00,
2013-01-05 05:17:00,33.7,32.9,30.27,NNW,340,0.0,0.0,97,0.00,,SKC,0.00,VWS V14.01,2013-01-04 15:17:00,
2013-01-05 05:18:00,33.6,32.8,30.27,NNW,340,0.0,0.0,97,0.00,,SKC,0.00,VWS V14.01,2013-01-04 15:18:00,
2013-01-05 05:19:00,33.6,32.8,30.27,NNW,340,0.0,0.0,97,0.00,,SKC,0.00,VWS V14.01,2013-01-04 15:19:00,
2013-01-05 05:20:00,33.6,32.8,30.27,NNW,340,0.0,0.0,97,0.00,,SKC,0.00,VWS V14.01,2013-01-04 15:20:00,
2013-01-05 05:21:00,33.4,32.6,30.28,NNW,340,1.0,1.0,97,0.00,,BKN060,0.00,VWS V14.01,2013-01-04 15:21:00,
2013-01-05 05:22:00,33.5,32.7,30.27,NNW,340,0.0,0.0,97,0.00,,SKC,0.00,VWS V14.01,2013-01-04 15:22:00,
2013-01-05 05:23:00,33.4,32.6,30.28,NNW,340,0.0,1.0,97,0.00,,SKC,0.00,VWS V14.01,2013-01-04 15:23:00,
2013-01-05 05:24:00,33.4,32.6,30.27,NNW,340,0.0,1.0,97,0.00,,SKC,0.00,VWS V14.01,2013-01-04 15:24:00,
2013-01-05 05:25:00,33.4,32.6,30.27,NNW,340,0.0,0.0,97,0.00,,SKC,0.00,VWS V14.01,2013-01-04 15:25:00,
2013-01-05 05:26:00,33.5,32.7,30.28,NNW,340,0.0,0.0,97,0.00,,BKN060,0.00,VWS V14.01,2013-01-04 15:26:00,
2013-01-05 05:27:00,33.5,32.7,30.27,NNW,340,0.0,0.0,97,0.00,,SKC,0.00,VWS V14.01,2013-01-04 15:27:00,
2013-01-05 05:28:00,33.5,32.7,30.28,NNW,340,0.0,0.0,97,0.00,,SKC,0.00,VWS V14.01,2013-01-04 15:28:00,
2013-01-05 05:29:00,33.5,32.7,30.27,NNW,340,0.0,0.0,97,0.00,,SKC,0.00,VWS V14.01,2013-01-04 15:29:00,
2013-01-05 05:30:00,33.5,32.7,30.27,NNW,340,0.0,0.0,97,0.00,,SKC,0.00,VWS V14.01,2013-01-04 15:30:00,
2013-01-05 05:31:00,33.6,32.8,30.27,NNW,340,0.0,0.0,97,0.00,,BKN060,0.00,VWS V14.01,2013-01-04 15:31:00,
2013-01-05 05:32:00,33.5,32.7,30.28,NNW,340,0.0,0.0,97,0.00,,SKC,0.00,VWS V14.01,2013-01-04 15:32:00,
2013-01-05 05:33:00,33.6,32.8,30.27,NNW,340,0.0,0.0,97,0.00,,SKC,0.00,VWS V14.01,2013-01-04 15:33:00,
2013-01-05 05:34:00,33.7,32.9,30.27,NNW,340,0.0,0.0,97,0.00,,SKC,0.00,VWS V14.01,2013-01-04 15:34:00,
2013-01-05 05:35:00,33.7,32.9,30.27,NNW,340,0.0,0.0,97,0.00,,SKC,0.00,VWS V14.01,2013-01-04 15:35:00,
2013-01-05 05:36:00,33.6,32.8,30.27,NNW,340,0.0,0.0,97,0.00,,BKN060,0.00,VWS V14.01,2013-01-04 15:36:00,
2013-01-05 05:37:00,33.6,32.8,30.27,NNW,340,0.0,0.0,97,0.00,,SKC,0.00,VWS V14.01,2013-01-04 15:37:00,
2013-01-05 05:38:00,33.5,32.7,30.27,NNW,340,0.0,0.0,97,0.00,,SKC,0.00,VWS V14.01,2013-01-04 15:38:00,
2013-01-05 05:39:00,33.5,32.7,30.27,NNW,340,0.0,0.0,97,0.00,,SKC,0.00,VWS V14.01,2013-01-04 15:39:00,
2013-01-05 05:40:00,33.6,32.8,30.27,NNW,340,0.0,0.0,97,0.00,,SKC,0.00,VWS V14.01,2013-01-04 15:40:00,
2013-01-05 05:41:00,33.5,32.7,30.27,NNW,340,0.0,0.0,97,0.00,,BKN060,0.00,VWS V14.01,2013-01-04 15:41:00,
2013-01-05 05:42:00,33.5,32.7,30.27,NNW,340,0.0,0.0,97,0.00,,SKC,0.00,VWS V14.01,2013-01-04 15:42:00,
2013-01-05 05:43:00,33.5,32.7,30.27,NNW,340,0.0,0.0,97,0.00,,SKC,0.00,VWS V14.01,2013-01-04 15:43:00,
2013-01-05 05:44:00,33.7,32.9,30.27,NNW,340,0.0,0.0,97,0.00,,SKC,0.00,VWS V14.01,2013-01-04 15:44:00,
2013-01-05 05:45:00,33.9,33.1,30.27,NNW,340,0.0,0.0,97,0.00,,SKC,0.00,VWS V14.01,2013-01-04 15:45:00,
2013-01-05 05:46:00,33.9,33.1,30.27,NNW,340,0.0,0.0,97,0.00,,BKN060,0.00,VWS V14.01,2013-01-04 15:46:00,
2013-01-05 05:47:00,33.9,33.1,30.27,NNW,340,0.0,0.0,97,0.00,,SKC,0.00,VWS V14.01,2013-01-04 15:47:00,
2013-01-05 05:48:00,33.9,33.1,30.27,NNW,340,0.0,0.0,97,0.00,,SKC,0.00,VWS V14.01,2013-01-04 15:48:00,
2013-01-05 05:49:00,33.9,33.1,30.27,NNW,340,0.0,0.0,97,0.00,,SKC,0.00,VWS V14.01,2013-01-04 15:49:00,
2013-01-05 05:50:00,33.8,33.0,30.27,NNW,340,0.0,0.0,97,0.00,,SKC,0.00,VWS V14.01,2013-01-04 15:50:00,
2013-01-05 05:51:00,33.8,33.0,30.27,NNW,340,0.0,0.0,97,0.00,,BKN060,0.00,VWS V14.01,2013-01-04 15:51:00,
2013-01-05 05:52:00,33.8,33.0,30.27,NNW,340,0.0,0.0,97,0.00,,SKC,0.00,VWS V14.01,2013-01-04 15:52:00,
2013-01-05 05:53:00,33.8,33.0,30.27,NNW,340,0.0,0.0,97,0.00,,SKC,0.00,VWS V14.01,2013-01-04 15:53:00,
2013-01-05 05:54:00,33.8,33.0,30.27,NNW,340,0.0,0.0,97,0.00,,SKC,0.00,VWS V14.01,2013-01-04 15:54:00,
2013-01-05 05:55:00,33.8,33.0,30.27,NNW,340,0.0,0.0,97,0.00,,SKC,0.00,VWS V14.01,2013-01-04 15:55:00,
2013-01-05 05:56:00,33.9,33.1,30.27,NNW,340,0.0,0.0,97,0.00,,BKN060,0.00,VWS V14.01,2013-01-04 15:56:00,
2013-01-05 05:57:00,33.9,33.1,30.27,NNW,340,0.0,0.0,97,0.00,,SKC,0.00,VWS V14.01,2013-01-04 15:57:00,
2013-01-05 05:58:00,33.9,33.1,30.27,NNW,340,0.0,0.0,97,0.00,,SKC,0.00,VWS V14.01,2013-01-04 15:58:00,
2013-01-05 05:59:00,33.8,33.0,30.27,NNW,340,0.0,1.0,97,0.00,,SKC,0.00,VWS V14.01,2013-01-04 15:59:00,
2013-01-05 06:00:00,33.8,33.0,30.27,NNW,340,0.0,0.0,97,0.00,,SKC,0.00,VWS V14.01,2013-01-04 16:00:00,
2013-01-05 06:01:00,33.8,33.0,30.27,NNW,340,0.0,0.0,97,0.00,,SCT060,0.00,VWS V14.01,2013-01-04 16:01:00,
2013-01-05 06:03:00,33.9,33.1,30.27,NNW,340,0.0,0.0,97,0.00,,SKC,0.00,VWS V14.01,2013-01-04 16:03:00,
2013-01-05 06:04:00,34.2,33.7,30.27,NNW,340,0.0,0.0,98,0.00,,SKC,0.00,VWS V14.01,2013-01-04 16:04:00,
2013-01-05 06:05:00,34.4,33.9,30.27,NNW,340,1.0,1.0,98,0.00,,SKC,0.00,VWS V14.01,2013-01-04 16:05:00,
2013-01-05 06:06:00,34.6,33.8,30.27,NNW,340,1.0,2.0,97,0.00,,SCT060,0.00,VWS V14.01,2013-01-04 16:06:00,
2013-01-05 06:07:00,34.6,33.8,30.27,NNW,340,2.0,2.0,97,0.00,,SKC,0.00,VWS V14.01,2013-01-04 16:07:00,
2013-01-05 06:08:00,34.6,33.8,30.27,NNW,340,1.0,2.0,97,0.00,,SKC,0.00,VWS V14.01,2013-01-04 16:08:00,
2013-01-05 06:09:00,34.7,33.9,30.27,NNW,340,0.0,1.0,97,0.00,,SKC,0.00,VWS V14.01,2013-01-04 16:09:00,
2013-01-05 06:10:00,34.8,34.3,30.27,NNW,340,0.0,1.0,98,0.00,,SKC,0.00,VWS V14.01,2013-01-04 16:10:00,
2013-01-05 06:11:00,34.9,34.1,30.28,NNW,340,0.0,1.0,97,0.00,,SCT060,0.00,VWS V14.01,2013-01-04 16:11:00,
2013-01-05 06:12:00,34.9,34.4,30.27,NNW,340,1.0,1.0,98,0.00,,SKC,0.00,VWS V14.01,2013-01-04 16:12:00,
2013-01-05 06:13:00,34.8,34.0,30.28,NNW,340,1.0,1.0,97,0.00,,SKC,0.00,VWS V14.01,2013-01-04 16:13:00,
2013-01-05 06:14:00,34.9,34.1,30.27,NNW,340,0.0,1.0,97,0.00,,SKC,0.00,VWS V14.01,2013-01-04 16:14:00,
2013-01-05 06:15:00,35.2,34.4,30.28,NNW,340,1.0,2.0,97,0.00,,SKC,0.00,VWS V14.01,2013-01-04 16:15:00,
2013-01-05 06:16:00,35.9,35.4,30.28,NNW,340,2.0,2.0,98,0.00,,SCT060,0.00,VWS V14.01,2013-01-04 16:16:00,
2013-01-05 06:17:00,35.8,35.3,30.28,NNW,340,1.0,1.0,98,0.00,,SKC,0.00,VWS V14.01,2013-01-04 16:17:00,
2013-01-05 06:18:00,36.0,35.5,30.28,NNW,340,0.0,2.0,98,0.00,,SKC,0.00,VWS V14.01,2013-01-04 16:18:00,
2013-01-05 06:19:00,36.1,35.6,30.28,NNW,340,0.0,1.0,98,0.00,,SKC,0.00,VWS V14.01,2013-01-04 16:19:00,
2013-01-05 06:20:00,36.3,35.8,30.28,NNW,340,0.0,1.0,98,0.00,,SKC,0.00,VWS V14.01,2013-01-04 16:20:00,
2013-01-05 06:21:00,36.7,36.2,30.28,NNW,340,1.0,1.0,98,0.00,,SCT060,0.00,VWS V14.01,2013-01-04 16:21:00,
2013-01-05 06:22:00,36.7,36.2,30.28,NNW,340,1.0,1.0,98,0.00,,SKC,0.00,VWS V14.01,2013-01-04 16:22:00,
2013-01-05 06:23:00,36.6,36.1,30.28,NNW,340,0.0,1.0,98,0.00,,SKC,0.00,VWS V14.01,2013-01-04 16:23:00,
2013-01-05 06:24:00,36.7,36.2,30.28,NNW,340,1.0,2.0,98,0.00,,SKC,0.00,VWS V14.01,2013-01-04 16:24:00,
2013-01-05 06:25:00,36.9,36.1,30.28,NNW,340,0.0,1.0,97,0.00,,SKC,0.00,VWS V14.01,2013-01-04 16:25:00,
2013-01-05 06:26:00,37.1,36.6,30.28,NNW,340,0.0,0.0,98,0.00,,SCT060,0.00,VWS V14.01,2013-01-04 16:26:00,
2013-01-05 06:27:00,37.1,36.6,30.28,NNW,340,0.0,0.0,98,0.00,,SKC,0.00,VWS V14.01,2013-01-04 16:27:00,
2013-01-05 06:28:00,37.2,36.4,30.28,NNW,340,0.0,1.0,97,0.00,,SKC,0.00,VWS V14.01,2013-01-04 16:28:00,
2013-01-05 06:29:00,37.2,36.4,30.28,NNW,340,0.0,0.0,97,0.00,,SKC,0.00,VWS V14.01,2013-01-04 16:29:00,
2013-01-05 06:30:00,37.2,36.4,30.28,NNW,340,0.0,0.0,97,0.00,,SKC,0.00,VWS V14.01,2013-01-04 16:30:00,
2013-01-05 06:31:00,37.3,36.5,30.28,NNW,340,0.0,1.0,97,0.00,,SCT060,0.00,VWS V14.01,2013-01-04 16:31:00,
2013-01-05 06:32:00,37.2,36.4,30.28,NNW,340,0.0,0.0,97,0.00,,SKC,0.00,VWS V14.01,2013-01-04 16:32:00,
2013-01-05 06:33:00,37.4,36.6,30.28,NNW,340,0.0,1.0,97,0.00,,SKC,0.00,VWS V14.01,2013-01-04 16:33:00,
2013-01-05 06:34:00,37.5,36.7,30.28,NNW,340,0.0,0.0,97,0.00,,SKC,0.00,VWS V14.01,2013-01-04 16:34:00,
2013-01-05 06:35:00,37.6,36.8,30.28,NNW,340,0.0,0.0,97,0.00,,SKC,0.00,VWS V14.01,2013-01-04 16:35:00,
2013-01-05 06:36:00,38.0,37.2,30.28,NNW,340,0.0,0.0,97,0.00,,SCT060,0.00,VWS V14.01,2013-01-04 16:36:00,
2013-01-05 06:37:00,37.9,37.1,30.28,NNW,340,0.0,0.0,97,0.00,,SKC,0.00,VWS V14.01,2013-01-04 16:37:00,
2013-01-05 06:38:00,38.0,37.2,30.28,NNW,340,0.0,0.0,97,0.00,,SKC,0.00,VWS V14.01,2013-01-04 16:38:00,
2013-01-05 06:39:00,38.2,37.4,30.28,NNW,340,0.0,1.0,97,0.00,,SKC,0.00,VWS V14.01,2013-01-04 16:39:00,
2013-01-05 06:40:00,38.4,37.6,30.28,NNW,340,0.0,0.0,97,0.00,,SKC,0.00,VWS V14.01,2013-01-04 16:40:00,
2013-01-05 06:41:00,38.8,38.0,30.28,NNW,340,0.0,0.0,97,0.00,,SCT060,0.00,VWS V14.01,2013-01-04 16:41:00,
2013-01-05 06:42:00,38.7,37.9,30.28,NNW,340,0.0,0.0,97,0.00,,SKC,0.00,VWS V14.01,2013-01-04 16:42:00,
2013-01-05 06:43:00,38.8,38.0,30.28,NNW,340,0.0,0.0,97,0.00,,SKC,0.00,VWS V14.01,2013-01-04 16:43:00,
2013-01-05 06:44:00,39.0,38.2,30.28,NNW,340,0.0,0.0,97,0.00,,SKC,0.00,VWS V14.01,2013-01-04 16:44:00,
2013-01-05 06:45:00,39.0,38.0,30.28,NNW,340,0.0,0.0,96,0.00,,SKC,0.00,VWS V14.01,2013-01-04 16:45:00,
2013-01-05 06:46:00,39.5,38.5,30.28,NNW,340,0.0,0.0,96,0.00,,SCT060,0.00,VWS V14.01,2013-01-04 16:46:00,
2013-01-05 06:47:00,39.4,38.4,30.28,NNW,340,0.0,0.0,96,0.00,,SKC,0.00,VWS V14.01,2013-01-04 16:47:00,
2013-01-05 06:48:00,39.7,38.7,30.28,NNW,340,0.0,1.0,96,0.00,,SKC,0.00,VWS V14.01,2013-01-04 16:48:00,
2013-01-05 06:49:00,39.9,38.8,30.28,NNW,340,0.0,0.0,96,0.00,,SKC,0.00,VWS V14.01,2013-01-04 16:49:00,
2013-01-05 06:50:00,40.1,39.0,30.28,NNW,340,0.0,0.0,96,0.00,,SKC,0.00,VWS V14.01,2013-01-04 16:50:00,
2013-01-05 06:51:00,40.7,39.4,30.28,NNW,340,0.0,0.0,95,0.00,,SCT060,0.00,VWS V14.01,2013-01-04 16:51:00,
2013-01-05 06:52:00,40.6,39.3,30.28,NNW,340,0.0,0.0,95,0.00,,SKC,0.00,VWS V14.01,2013-01-04 16:52:00,
2013-01-05 06:53:00,40.9,39.6,30.28,NNW,340,0.0,0.0,95,0.00,,SKC,0.00,VWS V14.01,2013-01-04 16:53:00,
2013-01-05 06:54:00,41.1,39.8,30.28,NNW,340,0.0,0.0,95,0.00,,SKC,0.00,VWS V14.01,2013-01-04 16:54:00,
2013-01-05 06:55:00,41.1,39.5,30.28,NNW,340,0.0,0.0,94,0.00,,SKC,0.00,VWS V14.01,2013-01-04 16:55:00,
2013-01-05 06:56:00,41.3,39.4,30.28,NNW,340,0.0,0.0,93,0.00,,SCT060,0.00,VWS V14.01,2013-01-04 16:56:00,
2013-01-05 06:57:00,41.2,39.3,30.28,NNW,340,0.0,0.0,93,0.00,,SKC,0.00,VWS V14.01,2013-01-04 16:57:00,
2013-01-05 06:58:00,41.3,39.4,30.28,NNW,340,0.0,0.0,93,0.00,,SKC,0.00,VWS V14.01,2013-01-04 16:58:00,
2013-01-05 06:59:00,41.5,39.6,30.28,NNW,340,0.0,0.0,93,0.00,,SKC,0.00,VWS V14.01,2013-01-04 16:59:00,
2013-01-05 07:00:00,41.6,39.7,30.28,NNW,340,0.0,0.0,93,0.00,,SKC,0.00,VWS V14.01,2013-01-04 17:00:00,
2013-01-05 07:01:00,42.3,40.2,30.28,NNW,340,0.0,1.0,92,0.00,,SCT060,0.00,VWS V14.01,2013-01-04 17:01:00,
2013-01-05 07:02:00,42.2,40.0,30.28,NNW,340,0.0,1.0,92,0.00,,SKC,0.00,VWS V14.01,2013-01-04 17:02:00,
2013-01-05 07:03:00,42.5,40.3,30.28,NNW,340,0.0,1.0,92,0.00,,SKC,0.00,VWS V14.01,2013-01-04 17:03:00,
2013-01-05 07:04:00,42.7,40.3,30.28,NNW,340,1.0,1.0,91,0.00,,SKC,0.00,VWS V14.01,2013-01-04 17:04:00,
2013-01-05 07:05:00,42.8,40.4,30.28,NNW,340,0.0,1.0,91,0.00,,SKC,0.00,VWS V14.01,2013-01-04 17:05:00,
2013-01-05 07:06:00,43.2,40.5,30.28,NNW,340,0.0,0.0,90,0.00,,SCT060,0.00,VWS V14.01,2013-01-04 17:06:00,
2013-01-05 07:07:00,43.1,40.4,30.28,NNW,340,0.0,0.0,90,0.00,,SKC,0.00,VWS V14.01,2013-01-04 17:07:00,
2013-01-05 07:08:00,43.3,40.6,30.28,NNW,340,0.0,1.0,90,0.00,,SKC,0.00,VWS V14.01,2013-01-04 17:08:00,
2013-01-05 07:09:00,43.5,40.8,30.28,NNW,340,0.0,0.0,90,0.00,,SKC,0.00,VWS V14.01,2013-01-04 17:09:00,
2013-01-05 07:10:00,43.7,41.0,30.28,NNW,340,1.0,1.0,90,0.00,,SKC,0.00,VWS V14.01,2013-01-04 17:10:00,
2013-01-05 07:11:00,43.9,40.6,30.28,NNW,340,0.0,0.0,88,0.00,,SCT060,0.00,VWS V14.01,2013-01-04 17:11:00,
2013-01-05 07:12:00,43.8,40.8,30.28,NNW,340,0.0,1.0,89,0.00,,SKC,0.00,VWS V14.01,2013-01-04 17:12:00,
2013-01-05 07:13:00,43.9,40.6,30.28,NNW,340,0.0,0.0,88,0.00,,SKC,0.00,VWS V14.01,2013-01-04 17:13:00,
2013-01-05 07:14:00,44.0,40.7,30.28,NNW,340,0.0,1.0,88,0.00,,SKC,0.00,VWS V14.01,2013-01-04 17:14:00,
2013-01-05 07:15:00,44.1,40.8,30.29,NNW,340,0.0,1.0,88,0.00,,SKC,0.00,VWS V14.01,2013-01-04 17:15:00,
2013-01-05 07:16:00,44.1,40.5,30.29,NNW,340,0.0,0.0,87,0.00,,SCT060,0.00,VWS V14.01,2013-01-04 17:16:00,
2013-01-05 07:17:00,44.1,40.5,30.29,NNW,340,0.0,1.0,87,0.00,,SKC,0.00,VWS V14.01,2013-01-04 17:17:00,
2013-01-05 07:18:00,44.1,40.5,30.29,NNW,340,0.0,1.0,87,0.00,,SKC,0.00,VWS V14.01,2013-01-04 17:18:00,
2013-01-05 07:19:00,44.2,40.6,30.29,NNW,340,0.0,1.0,87,0.00,,SKC,0.00,VWS V14.01,2013-01-04 17:19:00,
2013-01-05 07:20:00,44.1,40.2,30.29,NNW,340,1.0,2.0,86,0.00,,SKC,0.00,VWS V14.01,2013-01-04 17:20:00,
2013-01-05 07:21:00,44.1,40.2,30.29,NNW,340,1.0,2.0,86,0.00,,SCT060,0.00,VWS V14.01,2013-01-04 17:21:00,
2013-01-05 07:22:00,44.1,40.2,30.29,NNW,340,1.0,2.0,86,0.00,,SKC,0.00,VWS V14.01,2013-01-04 17:22:00,
2013-01-05 07:23:00,44.1,40.2,30.29,NNW,340,0.0,2.0,86,0.00,,SKC,0.00,VWS V14.01,2013-01-04 17:23:00,
2013-01-05 07:24:00,44.3,40.4,30.29,NNW,340,0.0,1.0,86,0.00,,SKC,0.00,VWS V14.01,2013-01-04 17:24:00,
2013-01-05 07:25:00,44.4,40.5,30.29,NNW,340,0.0,1.0,86,0.00,,SKC,0.00,VWS V14.01,2013-01-04 17:25:00,
2013-01-05 07:26:00,44.5,40.6,30.30,NNW,340,1.0,1.0,86,0.00,,SCT060,0.00,VWS V14.01,2013-01-04 17:26:00,
2013-01-05 07:27:00,44.5,40.6,30.30,NNW,340,0.0,1.0,86,0.00,,SKC,0.00,VWS V14.01,2013-01-04 17:27:00,
2013-01-05 07:28:00,44.5,40.6,30.30,NNW,340,1.0,1.0,86,0.00,,SKC,0.00,VWS V14.01,2013-01-04 17:28:00,
2013-01-05 07:29:00,44.5,40.6,30.30,NNW,340,0.0,1.0,86,0.00,,SKC,0.00,VWS V14.01,2013-01-04 17:29:00,
2013-01-05 07:30:00,44.6,40.7,30.29,NNW,340,0.0,0.0,86,0.00,,SKC,0.00,VWS V14.01,2013-01-04 17:30:00,
2013-01-05 07:31:00,44.5,40.3,30.29,NNW,340,0.0,1.0,85,0.00,,SCT060,0.00,VWS V14.01,2013-01-04 17:31:00,
2013-01-05 07:32:00,44.5,40.3,30.29,NNW,340,1.0,1.0,85,0.00,,SKC,0.00,VWS V14.01,2013-01-04 17:32:00,
2013-01-05 07:33:00,44.6,40.7,30.29,NNW,340,1.0,1.0,86,0.00,,SKC,0.00,VWS V14.01,2013-01-04 17:33:00,
2013-01-05 07:34:00,44.6,40.7,30.30,NNW,340,0.0,1.0,86,0.00,,SKC,0.00,VWS V14.01,2013-01-04 17:34:00,
2013-01-05 07:35:00,44.6,40.4,30.30,NNW,340,0.0,2.0,85,0.00,,SKC,0.00,VWS V14.01,2013-01-04 17:35:00,
2013-01-05 07:36:00,44.8,40.9,30.30,NNW,340,0.0,0.0,86,0.00,,SCT060,0.00,VWS V14.01,2013-01-04 17:36:00,
2013-01-05 07:37:00,44.7,40.8,30.30,NNW,340,0.0,0.0,86,0.00,,SKC,0.00,VWS V14.01,2013-01-04 17:37:00,
2013-01-05 07:38:00,44.8,40.6,30.30,NNW,340,1.0,2.0,85,0.00,,SKC,0.00,VWS V14.01,2013-01-04 17:38:00,
2013-01-05 07:39:00,44.9,40.7,30.30,NNW,340,2.0,2.0,85,0.00,,SKC,0.00,VWS V14.01,2013-01-04 17:39:00,
2013-01-05 07:40:00,44.9,40.7,30.30,NNW,340,0.0,2.0,85,0.00,,SKC,0.00,VWS V14.01,2013-01-04 17:40:00,
2013-01-05 07:41:00,45.0,40.8,30.30,NNW,340,2.0,2.0,85,0.00,,SCT060,0.00,VWS V14.01,2013-01-04 17:41:00,
2013-01-05 07:42:00,45.0,40.8,30.30,NNW,340,1.0,2.0,85,0.00,,SKC,0.00,VWS V14.01,2013-01-04 17:42:00,
2013-01-05 07:45:00,45.1,40.6,30.30,NNW,340,0.0,1.0,84,0.00,,SKC,0.00,VWS V14.01,2013-01-04 17:45:00,
2013-01-05 07:46:00,45.6,41.4,30.30,NNW,340,0.0,0.0,85,0.00,,SCT060,0.00,VWS V14.01,2013-01-04 17:46:00,
2013-01-05 07:47:00,45.5,41.3,30.30,NNW,340,0.0,0.0,85,0.00,,SKC,0.00,VWS V14.01,2013-01-04 17:47:00,
2013-01-05 07:48:00,45.7,41.5,30.30,NNW,340,0.0,0.0,85,0.00,,SKC,0.00,VWS V14.01,2013-01-04 17:48:00,
2013-01-05 07:49:00,45.8,41.6,30.30,NNW,340,0.0,1.0,85,0.00,,SKC,0.00,VWS V14.01,2013-01-04 17:49:00,
2013-01-05 07:50:00,46.0,41.8,30.30,NNW,340,0.0,0.0,85,0.00,,SKC,0.00,VWS V14.01,2013-01-04 17:50:00,
2013-01-05 07:51:00,46.2,41.6,30.30,NNW,340,0.0,1.0,84,0.00,,SCT060,0.00,VWS V14.01,2013-01-04 17:51:00,
2013-01-05 07:52:00,46.1,41.5,30.30,NNW,340,0.0,0.0,84,0.00,,SKC,0.00,VWS V14.01,2013-01-04 17:52:00,
2013-01-05 07:53:00,46.2,41.6,30.30,NNW,340,0.0,1.0,84,0.00,,SKC,0.00,VWS V14.01,2013-01-04 17:53:00,
2013-01-05 07:54:00,46.3,41.7,30.30,NNW,340,0.0,1.0,84,0.00,,SKC,0.00,VWS V14.01,2013-01-04 17:54:00,
2013-01-05 07:55:00,46.2,41.6,30.30,NNW,340,0.0,1.0,84,0.00,,SKC,0.00,VWS V14.01,2013-01-04 17:55:00,
2013-01-05 07:56:00,46.1,41.2,30.30,NNW,340,0.0,1.0,83,0.00,,SCT060,0.00,VWS V14.01,2013-01-04 17:56:00,
2013-01-05 07:57:00,46.1,41.2,30.30,NNW,340,1.0,1.0,83,0.00,,SKC,0.00,VWS V14.01,2013-01-04 17:57:00,
2013-01-05 07:58:00,46.0,41.1,30.30,NNW,340,0.0,1.0,83,0.00,,SKC,0.00,VWS V14.01,2013-01-04 17:58:00,
2013-01-05 07:59:00,45.9,40.7,30.30,North,355,2.0,2.0,82,0.00,,SKC,0.00,VWS V14.01,2013-01-04 17:59:00,
2013-01-05 08:00:00,45.9,40.7,30.30,North,355,1.0,2.0,82,0.00,,SKC,0.00,VWS V14.01,2013-01-04 18:00:00,
2013-01-05 08:01:00,45.8,40.6,30.30,North,355,0.0,1.0,82,0.00,,SCT060,0.00,VWS V14.01,2013-01-04 18:01:00,
2013-01-05 08:02:00,45.8,40.6,30.30,North,355,0.0,1.0,82,0.00,,SKC,0.00,VWS V14.01,2013-01-04 18:02:00,
2013-01-05 08:03:00,45.8,40.6,30.30,North,355,0.0,1.0,82,0.00,,SKC,0.00,VWS V14.01,2013-01-04 18:03:00,
2013-01-05 08:04:00,46.0,40.8,30.30,North,355,0.0,0.0,82,0.00,,SKC,0.00,VWS V14.01,2013-01-04 18:04:00,
2013-01-05 08:05:00,46.0,41.1,30.30,North,355,0.0,1.0,83,0.00,,SKC,0.00,VWS V14.01,2013-01-04 18:05:00,
2013-01-05 08:06:00,46.2,41.3,30.30,North,355,0.0,0.0,83,0.00,,SCT060,0.00,VWS V14.01,2013-01-04 18:06:00,
2013-01-05 08:07:00,46.2,41.3,30.30,North,355,0.0,1.0,83,0.00,,SKC,0.00,VWS V14.01,2013-01-04 18:07:00,
2013-01-05 08:08:00,46.2,41.3,30.30,North,355,0.0,1.0,83,0.00,,SKC,0.00,VWS V14.01,2013-01-04 18:08:00,
2013-01-05 08:09:00,46.4,41.5,30.30,North,355,1.0,1.0,83,0.00,,SKC,0.00,VWS V14.01,2013-01-04 18:09:00,
2013-01-05 08:10:00,46.4,41.2,30.30,North,355,0.0,1.0,82,0.00,,SKC,0.00,VWS V14.01,2013-01-04 18:10:00,
2013-01-05 08:11:00,46.5,41.3,30.30,North,355,1.0,1.0,82,0.00,,SCT060,0.00,VWS V14.01,2013-01-04 18:11:00,
2013-01-05 08:12:00,46.5,41.3,30.30,North,355,0.0,0.0,82,0.00,,SKC,0.00,VWS V14.01,2013-01-04 18:12:00,
2013-01-05 08:13:00,46.5,41.3,30.30,North,355,0.0,1.0,82,0.00,,SKC,0.00,VWS V14.01,2013-01-04 18:13:00,
2013-01-05 08:14:00,46.5,41.3,30.30,North,355,1.0,1.0,82,0.00,,SKC,0.00,VWS V14.01,2013-01-04 18:14:00,
2013-01-05 08:15:00,46.5,41.3,30.29,North,355,0.0,1.0,82,0.00,,SKC,0.00,VWS V14.01,2013-01-04 18:15:00,
2013-01-05 08:16:00,46.6,41.4,30.29,North,355,0.0,0.0,82,0.00,,SCT060,0.00,VWS V14.01,2013-01-04 18:16:00,
2013-01-05 08:17:00,46.6,41.7,30.29,North,355,0.0,1.0,83,0.00,,SKC,0.00,VWS V14.01,2013-01-04 18:17:00,
2013-01-05 08:18:00,46.7,41.8,30.29,North,355,0.0,0.0,83,0.00,,SKC,0.00,VWS V14.01,2013-01-04 18:18:00,
2013-01-05 08:19:00,46.8,41.9,30.29,North,355,0.0,1.0,83,0.00,,SKC,0.00,VWS V14.01,2013-01-04 18:19:00,
2013-01-05 08:20:00,46.9,42.0,30.29,North,355,0.0,2.0,83,0.00,,SKC,0.00,VWS V14.01,2013-01-04 18:20:00,
2013-01-05 08:21:00,46.9,41.7,30.29,North,355,1.0,1.0,82,0.00,,SCT060,0.00,VWS V14.01,2013-01-04 18:21:00,
2013-01-05 08:22:00,46.9,42.0,30.29,North,355,0.0,2.0,83,0.00,,SKC,0.00,VWS V14.01,2013-01-04 18:22:00,
2013-01-05 08:23:00,46.9,41.7,30.29,North,355,0.0,1.0,82,0.00,,SKC,0.00,VWS V14.01,2013-01-04 18:23:00,
2013-01-05 08:24:00,46.9,42.0,30.29,North,355,0.0,0.0,83,0.00,,SKC,0.00,VWS V14.01,2013-01-04 18:24:00,
2013-01-05 08:25:00,47.0,42.1,30.29,North,355,0.0,0.0,83,0.00,,SKC,0.00,VWS V14.01,2013-01-04 18:25:00,
2013-01-05 08:26:00,47.1,41.9,30.29,North,360,0.0,0.0,82,0.00,,SCT060,0.00,VWS V14.01,2013-01-04 18:26:00,
2013-01-05 08:27:00,47.1,42.2,30.29,North,360,0.0,2.0,83,0.00,,SKC,0.00,VWS V14.01,2013-01-04 18:27:00,
2013-01-05 08:28:00,47.2,42.0,30.29,North,360,0.0,1.0,82,0.00,,SKC,0.00,VWS V14.01,2013-01-04 18:28:00,
2013-01-05 08:29:00,47.2,42.0,30.29,North,360,0.0,2.0,82,0.00,,SKC,0.00,VWS V14.01,2013-01-04 18:29:00,
2013-01-05 08:30:00,47.3,42.1,30.29,North,360,0.0,0.0,82,0.00,,SKC,0.00,VWS V14.01,2013-01-04 18:30:00,
2013-01-05 08:31:00,47.6,42.1,30.29,North,360,1.0,1.0,81,0.00,,SCT060,0.00,VWS V14.01,2013-01-04 18:31:00,
2013-01-05 08:32:00,47.5,42.0,30.29,North,360,1.0,2.0,81,0.00,,SKC,0.00,VWS V14.01,2013-01-04 18:32:00,
2013-01-05 08:33:00,47.5,42.0,30.29,North,360,1.0,1.0,81,0.00,,SKC,0.00,VWS V14.01,2013-01-04 18:33:00,
2013-01-05 08:34:00,47.5,41.7,30.29,North,360,1.0,1.0,80,0.00,,SKC,0.00,VWS V14.01,2013-01-04 18:34:00,
2013-01-05 08:35:00,47.6,41.4,30.29,North,360,1.0,2.0,79,0.00,,SKC,0.00,VWS V14.01,2013-01-04 18:35:00,
2013-01-05 08:36:00,47.7,41.5,30.29,North,360,0.0,1.0,79,0.00,,SCT060,0.00,VWS V14.01,2013-01-04 18:36:00,
2013-01-05 08:37:00,47.6,41.4,30.29,North,360,1.0,1.0,79,0.00,,SKC,0.00,VWS V14.01,2013-01-04 18:37:00,
2013-01-05 08:38:00,47.7,41.5,30.29,North,360,0.0,1.0,79,0.00,,SKC,0.00,VWS V14.01,2013-01-04 18:38:00,
2013-01-05 08:39:00,47.8,41.3,30.29,North,360,0.0,1.0,78,0.00,,SKC,0.00,VWS V14.01,2013-01-04 18:39:00,
2013-01-05 08:40:00,47.9,41.4,30.29,North,360,2.0,2.0,78,0.00,,SKC,0.00,VWS V14.01,2013-01-04 18:40:00,
2013-01-05 08:41:00,48.1,41.6,30.28,North,360,0.0,0.0,78,0.00,,SCT060,0.00,VWS V14.01,2013-01-04 18:41:00,
2013-01-05 08:42:00,48.0,41.5,30.29,North,360,0.0,1.0,78,0.00,,SKC,0.00,VWS V14.01,2013-01-04 18:42:00,
2013-01-05 08:43:00,48.2,41.7,30.28,North,360,0.0,0.0,78,0.00,,SKC,0.00,VWS V14.01,2013-01-04 18:43:00,
2013-01-05 08:44:00,48.3,41.8,30.28,North,360,0.0,1.0,78,0.00,,SKC,0.00,VWS V14.01,2013-01-04 18:44:00,
2013-01-05 08:45:00,48.4,41.5,30.28,North,360,0.0,1.0,77,0.00,,SKC,0.00,VWS V14.01,2013-01-04 18:45:00,
2013-01-05 08:46:00,48.6,41.4,30.28,North,360,0.0,1.0,76,0.00,,SCT060,0.00,VWS V14.01,2013-01-04 18:46:00,
2013-01-05 08:47:00,48.6,41.4,30.28,North,360,1.0,1.0,76,0.00,,SKC,0.00,VWS V14.01,2013-01-04 18:47:00,
2013-01-05 08:48:00,48.7,41.1,30.28,NNE,20,2.0,2.0,75,0.00,,SKC,0.00,VWS V14.01,2013-01-04 18:48:00,
2013-01-05 08:49:00,48.8,41.2,30.28,NNE,20,1.0,2.0,75,0.00,,SKC,0.00,VWS V14.01,2013-01-04 18:49:00,
2013-01-05 08:50:00,49.0,40.7,30.28,NNE,20,1.0,1.0,73,0.00,,SKC,0.00,VWS V14.01,2013-01-04 18:50:00,
2013-01-05 08:51:00,49.3,40.7,30.28,NE,54,0.0,1.0,72,0.00,,SCT060,0.00,VWS V14.01,2013-01-04 18:51:00,
2013-01-05 08:52:00,49.2,40.9,30.28,NE,54,0.0,2.0,73,0.00,,SKC,0.00,VWS V14.01,2013-01-04 18:52:00,
2013-01-05 08:53:00,49.4,40.8,30.28,NE,54,0.0,1.0,72,0.00,,SKC,0.00,VWS V14.01,2013-01-04 18:53:00,
2013-01-05 08:54:00,49.6,41.0,30.28,NE,54,1.0,1.0,72,0.00,,SKC,0.00,VWS V14.01,2013-01-04 18:54:00,
2013-01-05 08:55:00,49.7,41.0,30.28,NE,54,0.0,2.0,72,0.00,,SKC,0.00,VWS V14.01,2013-01-04 18:55:00,
2013-01-05 08:56:00,50.0,40.2,30.28,NE,54,1.0,2.0,69,0.00,,SCT060,0.00,VWS V14.01,2013-01-04 18:56:00,
2013-01-05 08:57:00,50.0,40.6,30.28,NE,54,1.0,2.0,70,0.00,,SKC,0.00,VWS V14.01,2013-01-04 18:57:00,
2013-01-05 08:58:00,50.1,40.3,30.28,NE,54,2.0,2.0,69,0.00,,SKC,0.00,VWS V14.01,2013-01-04 18:58:00,
2013-01-05 08:59:00,50.1,40.0,30.28,NE,54,1.0,2.0,68,0.00,,SKC,0.00,VWS V14.01,2013-01-04 18:59:00,
2013-01-05 09:00:00,50.0,39.5,30.28,NE,54,0.0,2.0,67,0.00,,SKC,0.00,VWS V14.01,2013-01-04 19:00:00,
2013-01-05 09:01:00,50.1,39.6,30.28,NE,54,1.0,2.0,67,0.00,,FEW200,0.00,VWS V14.01,2013-01-04 19:01:00,
2013-01-05 09:02:00,50.2,39.7,30.28,NE,55,2.0,3.0,67,0.00,,SKC,0.00,VWS V14.01,2013-01-04 19:02:00,
2013-01-05 09:03:00,50.1,38.8,30.28,NE,54,0.0,2.0,65,0.00,,SKC,0.00,VWS V14.01,2013-01-04 19:03:00,
2013-01-05 09:04:00,50.1,38.8,30.27,NE,54,1.0,1.0,65,0.00,,SKC,0.00,VWS V14.01,2013-01-04 19:04:00,
2013-01-05 09:05:00,50.1,38.8,30.27,NE,54,0.0,1.0,65,0.00,,SKC,0.00,VWS V14.01,2013-01-04 19:05:00,
2013-01-05 09:06:00,50.0,37.9,30.27,NE,42,5.0,6.0,63,0.00,,FEW200,0.00,VWS V14.01,2013-01-04 19:06:00,
2013-01-05 09:07:00,50.0,37.9,30.27,NE,49,4.0,5.0,63,0.00,,SKC,0.00,VWS V14.01,2013-01-04 19:07:00,
2013-01-05 09:08:00,50.0,37.9,30.27,NE,42,2.0,6.0,63,0.00,,SKC,0.00,VWS V14.01,2013-01-04 19:08:00,
2013-01-05 09:09:00,50.0,37.9,30.27,NE,42,3.0,4.0,63,0.00,,SKC,0.00,VWS V14.01,2013-01-04 19:09:00,
2013-01-05 09:10:00,49.9,37.8,30.27,NE,42,2.0,4.0,63,0.00,,SKC,0.00,VWS V14.01,2013-01-04 19:10:00,
2013-01-05 09:11:00,49.9,37.4,30.27,NE,44,2.0,3.0,62,0.00,,FEW200,0.00,VWS V14.01,2013-01-04 19:11:00,
2013-01-05 09:12:00,49.9,37.4,30.27,NE,44,1.0,3.0,62,0.00,,SKC,0.00,VWS V14.01,2013-01-04 19:12:00,
2013-01-05 09:13:00,49.9,37.8,30.27,NE,44,1.0,3.0,63,0.00,,SKC,0.00,VWS V14.01,2013-01-04 19:13:00,
2013-01-05 09:14:00,49.9,37.8,30.27,NE,44,1.0,2.0,63,0.00,,SKC,0.00,VWS V14.01,2013-01-04 19:14:00,
2013-01-05 09:15:00,49.9,37.8,30.27,NE,44,1.0,3.0,63,0.00,,SKC,0.00,VWS V14.01,2013-01-04 19:15:00,
2013-01-05 09:16:00,49.9,37.4,30.27,NE,44,1.0,2.0,62,0.00,,FEW200,0.00,VWS V14.01,2013-01-04 19:16:00,
2013-01-05 09:17:00,49.9,37.4,30.27,NE,44,1.0,2.0,62,0.00,,SKC,0.00,VWS V14.01,2013-01-04 19:17:00,
2013-01-05 09:18:00,49.9,37.4,30.27,NE,44,0.0,2.0,62,0.00,,SKC,0.00,VWS V14.01,2013-01-04 19:18:00,
2013-01-05 09:19:00,50.0,37.5,30.27,NE,44,1.0,2.0,62,0.00,,SKC,0.00,VWS V14.01,2013-01-04 19:19:00,
2013-01-05 09:20:00,50.0,37.5,30.27,NE,44,0.0,2.0,62,0.00,,SKC,0.00,VWS V14.01,2013-01-04 19:20:00,
2013-01-05 09:21:00,50.2,37.7,30.26,NE,44,1.0,2.0,62,0.00,,FEW200,0.00,VWS V14.01,2013-01-04 19:21:00,
2013-01-05 09:22:00,50.1,37.2,30.27,NE,44,2.0,3.0,61,0.00,,SKC,0.00,VWS V14.01,2013-01-04 19:22:00,
2013-01-05 09:23:00,50.2,37.7,30.26,NE,44,1.0,2.0,62,0.00,,SKC,0.00,VWS V14.01,2013-01-04 19:23:00,
2013-01-05 09:24:00,50.2,37.3,30.26,NE,44,0.0,1.0,61,0.00,,SKC,0.00,VWS V14.01,2013-01-04 19:24:00,
2013-01-05 09:25:00,50.3,37.8,30.26,NE,44,2.0,2.0,62,0.00,,SKC,0.00,VWS V14.01,2013-01-04 19:25:00,
2013-01-05 09:26:00,50.2,37.3,30.26,NE,44,0.0,0.0,61,0.00,,FEW200,0.00,VWS V14.01,2013-01-04 19:26:00,
2013-01-05 09:27:00,50.2,36.9,30.26,NE,44,0.0,1.0,60,0.00,,SKC,0.00,VWS V14.01,2013-01-04 19:27:00,
2013-01-05 09:28:00,50.3,37.0,30.26,NE,44,1.0,2.0,60,0.00,,SKC,0.00,VWS V14.01,2013-01-04 19:28:00,
2013-01-05 09:29:00,50.3,37.4,30.26,NE,44,1.0,1.0,61,0.00,,SKC,0.00,VWS V14.01,2013-01-04 19:29:00,
2013-01-05 09:30:00,50.3,37.4,30.26,NE,44,1.0,3.0,61,0.00,,SKC,0.00,VWS V14.01,2013-01-04 19:30:00,
2013-01-05 09:31:00,50.3,37.4,30.26,NE,44,0.0,1.0,61,0.00,,FEW200,0.00,VWS V14.01,2013-01-04 19:31:00,
2013-01-05 09:32:00,50.3,37.4,30.26,NE,44,1.0,2.0,61,0.00,,SKC,0.00,VWS V14.01,2013-01-04 19:32:00,
2013-01-05 09:33:00,50.4,37.5,30.26,NE,44,1.0,1.0,61,0.00,,SKC,0.00,VWS V14.01,2013-01-04 19:33:00,
2013-01-05 09:34:00,50.5,37.6,30.26,NE,44,2.0,3.0,61,0.00,,SKC,0.00,VWS V14.01,2013-01-04 19:34:00,
2013-01-05 09:35:00,50.5,37.2,30.26,NE,42,2.0,4.0,60,0.00,,SKC,0.00,VWS V14.01,2013-01-04 19:35:00,
2013-01-05 09:36:00,50.6,37.2,30.25,NE,42,0.0,0.0,60,0.00,,FEW200,0.00,VWS V14.01,2013-01-04 19:36:00,
2013-01-05 09:37:00,50.6,37.2,30.25,NE,42,0.0,3.0,60,0.00,,SKC,0.00,VWS V14.01,2013-01-04 19:37:00,
2013-01-05 09:38:00,50.7,37.8,30.25,NE,42,0.0,0.0,61,0.00,,SKC,0.00,VWS V14.01,2013-01-04 19:38:00,
2013-01-05 09:39:00,50.9,37.9,30.25,NE,42,0.0,1.0,61,0.00,,SKC,0.00,VWS V14.01,2013-01-04 19:39:00,
2013-01-05 09:40:00,51.0,38.0,30.25,NE,46,4.0,4.0,61,0.00,,SKC,0.00,VWS V14.01,2013-01-04 19:40:00,
2013-01-05 09:41:00,51.0,37.6,30.25,NNE,33,0.0,0.0,60,0.00,,FEW200,0.00,VWS V14.01,2013-01-04 19:41:00,
2013-01-05 09:42:00,50.9,37.5,30.25,NNE,33,0.0,4.0,60,0.00,,SKC,0.00,VWS V14.01,2013-01-04 19:42:00,
2013-01-05 09:43:00,51.0,38.0,30.25,NE,55,2.0,2.0,61,0.00,,SKC,0.00,VWS V14.01,2013-01-04 19:43:00,
2013-01-05 09:44:00,51.0,38.0,30.25,NE,55,0.0,2.0,61,0.00,,SKC,0.00,VWS V14.01,2013-01-04 19:44:00,
2013-01-05 09:45:00,51.2,38.2,30.25,NE,55,3.0,3.0,61,0.00,,SKC,0.00,VWS V14.01,2013-01-04 19:45:00,
2013-01-05 09:46:00,51.4,38.8,30.25,NE,55,3.0,3.0,62,0.00,,FEW200,0.00,VWS V14.01,2013-01-04 19:46:00,
2013-01-05 09:47:00,51.3,38.7,30.25,NE,55,1.0,1.0,62,0.00,,SKC,0.00,VWS V14.01,2013-01-04 19:47:00,
2013-01-05 09:48:00,51.4,38.4,30.25,NE,55,2.0,3.0,61,0.00,,SKC,0.00,VWS V14.01,2013-01-04 19:48:00,
2013-01-05 09:49:00,51.2,37.8,30.25,NE,55,2.0,4.0,60,0.00,,SKC,0.00,VWS V14.01,2013-01-04 19:49:00,
2013-01-05 09:50:00,51.1,37.7,30.25,NE,55,1.0,3.0,60,0.00,,SKC,0.00,VWS V14.01,2013-01-04 19:50:00,
2013-01-05 09:51:00,51.0,38.0,30.25,NE,55,0.0,1.0,61,0.00,,FEW200,0.00,VWS V14.01,2013-01-04 19:51:00,
2013-01-05 09:52:00,51.0,38.0,30.25,NE,55,0.0,3.0,61,0.00,,SKC,0.00,VWS V14.01,2013-01-04 19:52:00,
2013-01-05 09:53:00,51.2,38.6,30.25,NE,55,0.0,1.0,62,0.00,,SKC,0.00,VWS V14.01,2013-01-04 19:53:00,
2013-01-05 09:54:00,51.2,38.6,30.25,NE,55,0.0,2.0,62,0.00,,SKC,0.00,VWS V14.01,2013-01-04 19:54:00,
2013-01-05 09:55:00,51.4,38.8,30.25,NE,55,0.0,1.0,62,0.00,,SKC,0.00,VWS V14.01,2013-01-04 19:55:00,
2013-01-05 09:56:00,51.8,39.2,30.25,NE,55,3.0,3.0,62,0.00,,FEW200,0.00,VWS V14.01,2013-01-04 19:56:00,
2013-01-05 09:57:00,51.7,38.7,30.25,NE,55,2.0,2.0,61,0.00,,SKC,0.00,VWS V14.01,2013-01-04 19:57:00,
2013-01-05 09:58:00,51.8,38.8,30.25,NE,55,2.0,3.0,61,0.00,,SKC,0.00,VWS V14.01,2013-01-04 19:58:00,
2013-01-05 09:59:00,51.7,38.7,30.24,NE,55,0.0,2.0,61,0.00,,SKC,0.00,VWS V14.01,2013-01-04 19:59:00,
2013-01-05 10:00:00,51.9,38.9,30.24,NE,55,0.0,1.0,61,0.00,,SKC,0.00,VWS V14.01,2013-01-04 20:00:00,
2013-01-05 10:01:00,52.3,39.3,30.24,NE,55,2.0,2.0,61,0.00,,SKC,0.00,VWS V14.01,2013-01-04 20:01:00,
2013-01-05 10:02:00,52.3,39.3,30.24,NE,55,0.0,2.0,61,0.00,,SKC,0.00,VWS V14.01,2013-01-04 20:02:00,
2013-01-05 10:03:00,52.5,39.5,30.24,NE,55,0.0,2.0,61,0.00,,SKC,0.00,VWS V14.01,2013-01-04 20:03:00,
2013-01-05 10:04:00,52.7,39.6,30.24,NE,55,2.0,3.0,61,0.00,,SKC,0.00,VWS V14.01,2013-01-04 20:04:00,
2013-01-05 10:05:00,52.6,39.5,30.24,NE,55,1.0,3.0,61,0.00,,SKC,0.00,VWS V14.01,2013-01-04 20:05:00,
2013-01-05 10:06:00,52.3,39.3,30.24,NE,55,0.0,0.0,61,0.00,,SKC,0.00,VWS V14.01,2013-01-04 20:06:00,
2013-01-05 10:07:00,52.3,39.3,30.24,NE,55,0.0,1.0,61,0.00,,SKC,0.00,VWS V14.01,2013-01-04 20:07:00,
2013-01-05 10:08:00,52.3,39.7,30.24,NE,55,1.0,1.0,62,0.00,,SKC,0.00,VWS V14.01,2013-01-04 20:08:00,
2013-01-05 10:09:00,52.7,39.6,30.24,NW,322,1.0,3.0,61,0.00,,SKC,0.00,VWS V14.01,2013-01-04 20:09:00,
2013-01-05 10:10:00,52.8,39.7,30.24,NNW,344,3.0,4.0,61,0.00,,SKC,0.00,VWS V14.01,2013-01-04 20:10:00,
2013-01-05 10:11:00,52.6,39.1,30.24,NNW,344,0.0,1.0,60,0.00,,SKC,0.00,VWS V14.01,2013-01-04 20:11:00,
2013-01-05 10:12:00,52.6,39.1,30.24,NNW,344,1.0,2.0,60,0.00,,SKC,0.00,VWS V14.01,2013-01-04 20:12:00,
2013-01-05 10:13:00,52.6,39.5,30.24,NNW,344,0.0,1.0,61,0.00,,SKC,0.00,VWS V14.01,2013-01-04 20:13:00,
2013-01-05 10:14:00,52.5,39.0,30.24,NNW,344,0.0,1.0,60,0.00,,SKC,0.00,VWS V14.01,2013-01-04 20:14:00,
2013-01-05 10:15:00,52.4,38.9,30.24,NNW,345,2.0,2.0,60,0.00,,SKC,0.00,VWS V14.01,2013-01-04 20:15:00,
2013-01-05 10:16:00,52.2,39.2,30.23,NNW,345,1.0,1.0,61,0.00,,SKC,0.00,VWS V14.01,2013-01-04 20:16:00,
2013-01-05 10:17:00,52.2,39.2,30.24,NNW,345,0.0,1.0,61,0.00,,SKC,0.00,VWS V14.01,2013-01-04 20:17:00,
2013-01-05 10:18:00,52.3,39.3,30.23,North,355,3.0,3.0,61,0.00,,SKC,0.00,VWS V14.01,2013-01-04 20:18:00,
2013-01-05 10:19:00,52.4,39.4,30.23,NE,42,1.0,4.0,61,0.00,,SKC,0.00,VWS V14.01,2013-01-04 20:19:00,
2013-01-05 10:20:00,52.5,39.0,30.23,NE,42,0.0,1.0,60,0.00,,SKC,0.00,VWS V14.01,2013-01-04 20:20:00,
2013-01-05 10:21:00,53.0,39.1,30.23,NE,42,2.0,2.0,59,0.00,,SKC,0.00,VWS V14.01,2013-01-04 20:21:00,
2013-01-05 10:22:00,53.1,39.2,30.23,NE,42,2.0,3.0,59,0.00,,SKC,0.00,VWS V14.01,2013-01-04 20:22:00,
2013-01-05 10:23:00,52.9,39.0,30.23,NE,42,2.0,3.0,59,0.00,,SKC,0.00,VWS V14.01,2013-01-04 20:23:00,
2013-01-05 10:24:00,52.7,38.8,30.23,NE,42,2.0,4.0,59,0.00,,SKC,0.00,VWS V14.01,2013-01-04 20:24:00,
2013-01-05 10:25:00,52.6,38.7,30.23,NE,43,0.0,3.0,59,0.00,,SKC,0.00,VWS V14.01,2013-01-04 20:25:00,
2013-01-05 10:26:00,52.6,39.1,30.23,NE,43,0.0,1.0,60,0.00,,SKC,0.00,VWS V14.01,2013-01-04 20:26:00,
2013-01-05 10:27:00,52.6,39.1,30.23,NE,43,1.0,2.0,60,0.00,,SKC,0.00,VWS V14.01,2013-01-04 20:27:00,
2013-01-05 10:28:00,52.6,39.1,30.23,NE,43,1.0,1.0,60,0.00,,SKC,0.00,VWS V14.01,2013-01-04 20:28:00,
2013-01-05 10:29:00,52.6,39.1,30.23,NE,43,1.0,3.0,60,0.00,,SKC,0.00,VWS V14.01,2013-01-04 20:29:00,
2013-01-05 10:30:00,52.6,39.1,30.23,NE,43,2.0,3.0,60,0.00,,SKC,0.00,VWS V14.01,2013-01-04 20:30:00,
2013-01-05 10:31:00,52.5,39.0,30.23,NE,43,1.0,1.0,60,0.00,,SKC,0.00,VWS V14.01,2013-01-04 20:31:00,
2013-01-05 10:32:00,52.4,38.9,30.23,NE,43,0.0,2.0,60,0.00,,SKC,0.00,VWS V14.01,2013-01-04 20:32:00,
2013-01-05 10:33:00,52.6,39.1,30.23,NE,43,1.0,2.0,60,0.00,,SKC,0.00,VWS V14.01,2013-01-04 20:33:00,
2013-01-05 10:34:00,52.9,39.4,30.23,North,5,2.0,3.0,60,0.00,,SKC,0.00,VWS V14.01,2013-01-04 20:34:00,
2013-01-05 10:35:00,53.1,39.6,30.23,North,5,2.0,2.0,60,0.00,,SKC,0.00,VWS V14.01,2013-01-04 20:35:00,
2013-01-05 10:36:00,53.2,39.3,30.23,North,9,1.0,1.0,59,0.00,,SKC,0.00,VWS V14.01,2013-01-04 20:36:00,
2013-01-05 10:37:00,53.2,39.3,30.22,North,9,1.0,3.0,59,0.00,,SKC,0.00,VWS V14.01,2013-01-04 20:37:00,
2013-01-05 10:38:00,53.3,39.3,30.23,North,9,0.0,1.0,59,0.00,,SKC,0.00,VWS V14.01,2013-01-04 20:38:00,
2013-01-05 10:39:00,53.5,40.0,30.22,NNW,342,2.0,4.0,60,0.00,,SKC,0.00,VWS V14.01,2013-01-04 20:39:00,
2013-01-05 10:40:00,53.6,39.6,30.23,NNW,342,1.0,3.0,59,0.00,,SKC,0.00,VWS V14.01,2013-01-04 20:40:00,
2013-01-05 10:41:00,53.6,39.6,30.22,North,360,2.0,2.0,59,0.00,,SKC,0.00,VWS V14.01,2013-01-04 20:41:00,
2013-01-05 10:42:00,53.6,39.6,30.22,North,360,2.0,3.0,59,0.00,,SKC,0.00,VWS V14.01,2013-01-04 20:42:00,
2013-01-05 10:43:00,53.5,39.5,30.22,North,360,1.0,2.0,59,0.00,,SKC,0.00,VWS V14.01,2013-01-04 20:43:00,
2013-01-05 10:44:00,53.5,40.0,30.22,North,360,1.0,2.0,60,0.00,,SKC,0.00,VWS V14.01,2013-01-04 20:44:00,
2013-01-05 10:45:00,53.6,40.1,30.23,North,360,1.0,3.0,60,0.00,,SKC,0.00,VWS V14.01,2013-01-04 20:45:00,
2013-01-05 10:46:00,53.6,39.6,30.22,NE,42,0.0,1.0,59,0.00,,SKC,0.00,VWS V14.01,2013-01-04 20:46:00,
2013-01-05 10:47:00,53.6,39.6,30.22,NE,42,1.0,3.0,59,0.00,,SKC,0.00,VWS V14.01,2013-01-04 20:47:00,
2013-01-05 10:48:00,53.5,39.5,30.22,NE,42,1.0,2.0,59,0.00,,SKC,0.00,VWS V14.01,2013-01-04 20:48:00,
2013-01-05 10:49:00,53.5,39.5,30.22,NE,42,1.0,2.0,59,0.00,,SKC,0.00,VWS V14.01,2013-01-04 20:49:00,
2013-01-05 10:50:00,53.4,39.5,30.22,NE,42,1.0,2.0,59,0.00,,SKC,0.00,VWS V14.01,2013-01-04 20:50:00,
2013-01-05 10:51:00,53.5,40.0,30.22,NE,42,0.0,0.0,60,0.00,,SKC,0.00,VWS V14.01,2013-01-04 20:51:00,
2013-01-05 10:52:00,53.5,40.0,30.22,NE,42,0.0,3.0,60,0.00,,SKC,0.00,VWS V14.01,2013-01-04 20:52:00,
2013-01-05 10:53:00,53.6,40.1,30.22,NE,42,2.0,2.0,60,0.00,,SKC,0.00,VWS V14.01,2013-01-04 20:53:00,
2013-01-05 10:54:00,53.7,40.2,30.22,NE,42,2.0,2.0,60,0.00,,SKC,0.00,VWS V14.01,2013-01-04 20:54:00,
2013-01-05 10:55:00,53.7,40.2,30.22,NE,42,3.0,3.0,60,0.00,,SKC,0.00,VWS V14.01,2013-01-04 20:55:00,
2013-01-05 10:56:00,53.4,39.9,30.22,NE,42,1.0,2.0,60,0.00,,SKC,0.00,VWS V14.01,2013-01-04 20:56:00,
2013-01-05 10:57:00,53.4,39.9,30.22,NE,42,2.0,3.0,60,0.00,,SKC,0.00,VWS V14.01,2013-01-04 20:57:00,
2013-01-05 10:58:00,53.4,39.9,30.22,NE,42,1.0,2.0,60,0.00,,SKC,0.00,VWS V14.01,2013-01-04 20:58:00,
2013-01-05 10:59:00,53.3,39.8,30.22,NE,42,2.0,3.0,60,0.00,,SKC,0.00,VWS V14.01,2013-01-04 20:59:00,
2013-01-05 11:00:00,53.4,39.9,30.22,NE,42,1.0,2.0,60,0.00,,SKC,0.00,VWS V14.01,2013-01-04 21:00:00,
2013-01-05 11:01:00,53.3,39.8,30.22,NE,42,2.0,3.0,60,0.00,,SKC,0.00,VWS V14.01,2013-01-04 21:01:00,
2013-01-05 11:02:00,53.3,39.8,30.22,NE,42,3.0,3.0,60,0.00,,SKC,0.00,VWS V14.01,2013-01-04 21:02:00,
2013-01-05 11:03:00,53.3,39.8,30.22,NE,42,0.0,3.0,60,0.00,,SKC,0.00,VWS V14.01,2013-01-04 21:03:00,
2013-01-05 11:04:00,53.6,40.5,30.22,NNE,31,0.0,3.0,61,0.00,,SKC,0.00,VWS V14.01,2013-01-04 21:04:00,
2013-01-05 11:05:00,53.7,40.6,30.22,NNE,31,1.0,1.0,61,0.00,,SKC,0.00,VWS V14.01,2013-01-04 21:05:00,
2013-01-05 11:06:00,53.9,40.8,30.21,NNE,31,0.0,0.0,61,0.00,,SKC,0.00,VWS V14.01,2013-01-04 21:06:00,
2013-01-05 11:07:00,53.9,40.8,30.21,NNE,31,0.0,1.0,61,0.00,,SKC,0.00,VWS V14.01,2013-01-04 21:07:00,
2013-01-05 11:08:00,54.0,40.4,30.21,NE,46,2.0,4.0,60,0.00,,SKC,0.00,VWS V14.01,2013-01-04 21:08:00,
2013-01-05 11:09:00,54.1,40.5,30.21,NE,46,1.0,2.0,60,0.00,,SKC,0.00,VWS V14.01,2013-01-04 21:09:00,
2013-01-05 11:10:00,54.1,40.1,30.21,NE,46,0.0,2.0,59,0.00,,SKC,0.00,VWS V14.01,2013-01-04 21:10:00,
2013-01-05 11:11:00,54.2,40.2,30.21,NNW,333,0.0,0.0,59,0.00,,SKC,0.00,VWS V14.01,2013-01-04 21:11:00,
2013-01-05 11:12:00,54.2,40.2,30.21,NNW,333,0.0,3.0,59,0.00,,SKC,0.00,VWS V14.01,2013-01-04 21:12:00,
2013-01-05 11:13:00,54.2,40.2,30.21,NNW,335,1.0,3.0,59,0.00,,SKC,0.00,VWS V14.01,2013-01-04 21:13:00,
2013-01-05 11:14:00,54.4,40.8,30.21,NNW,335,1.0,3.0,60,0.00,,SKC,0.00,VWS V14.01,2013-01-04 21:14:00,
2013-01-05 11:15:00,54.3,40.3,30.21,NNW,335,0.0,2.0,59,0.00,,SKC,0.00,VWS V14.01,2013-01-04 21:15:00,
2013-01-05 11:16:00,54.0,40.0,30.21,NE,55,1.0,1.0,59,0.00,,SKC,0.00,VWS V14.01,2013-01-04 21:16:00,
2013-01-05 11:17:00,54.0,40.0,30.21,NE,55,1.0,4.0,59,0.00,,SKC,0.00,VWS V14.01,2013-01-04 21:17:00,
2013-01-05 11:18:00,53.9,39.9,30.21,NE,54,3.0,3.0,59,0.00,,SKC,0.00,VWS V14.01,2013-01-04 21:18:00,
2013-01-05 11:19:00,53.9,40.3,30.21,NE,55,2.0,3.0,60,0.00,,SKC,0.00,VWS V14.01,2013-01-04 21:19:00,
2013-01-05 11:20:00,53.9,40.3,30.21,NE,55,0.0,2.0,60,0.00,,SKC,0.00,VWS V14.01,2013-01-04 21:20:00,
2013-01-05 11:21:00,54.3,41.2,30.21,NE,55,1.0,1.0,61,0.00,,SKC,0.00,VWS V14.01,2013-01-04 21:21:00,
2013-01-05 11:22:00,54.3,41.2,30.21,NE,55,1.0,2.0,61,0.00,,SKC,0.00,VWS V14.01,2013-01-04 21:22:00,
2013-01-05 11:23:00,54.5,40.9,30.21,NE,55,1.0,2.0,60,0.00,,SKC,0.00,VWS V14.01,2013-01-04 21:23:00,
2013-01-05 11:24:00,54.6,41.0,30.21,NE,55,2.0,2.0,60,0.00,,SKC,0.00,VWS V14.01,2013-01-04 21:24:00,
2013-01-05 11:25:00,54.6,40.6,30.21,NE,55,2.0,3.0,59,0.00,,SKC,0.00,VWS V14.01,2013-01-04 21:25:00,
2013-01-05 11:26:00,54.4,39.5,30.21,NE,55,3.0,3.0,57,0.00,,SKC,0.00,VWS V14.01,2013-01-04 21:26:00,
2013-01-05 11:27:00,54.4,39.5,30.21,NE,55,2.0,3.0,57,0.00,,SKC,0.00,VWS V14.01,2013-01-04 21:27:00,
2013-01-05 11:28:00,54.2,39.3,30.21,NE,55,1.0,3.0,57,0.00,,SKC,0.00,VWS V14.01,2013-01-04 21:28:00,
2013-01-05 11:29:00,54.2,39.8,30.21,NE,55,0.0,1.0,58,0.00,,SKC,0.00,VWS V14.01,2013-01-04 21:29:00,
2013-01-05 11:30:00,54.2,39.8,30.21,NE,55,0.0,1.0,58,0.00,,SKC,0.00,VWS V14.01,2013-01-04 21:30:00,
2013-01-05 11:31:00,54.4,39.5,30.20,NE,55,1.0,1.0,57,0.00,,SKC,0.00,VWS V14.01,2013-01-04 21:31:00,
2013-01-05 11:32:00,54.4,39.5,30.21,NE,55,1.0,3.0,57,0.00,,SKC,0.00,VWS V14.01,2013-01-04 21:32:00,
2013-01-05 11:33:00,54.5,39.6,30.20,NE,55,0.0,1.0,57,0.00,,SKC,0.00,VWS V14.01,2013-01-04 21:33:00,
2013-01-05 11:34:00,54.6,39.7,30.20,NE,55,0.0,3.0,57,0.00,,SKC,0.00,VWS V14.01,2013-01-04 21:34:00,
2013-01-05 11:35:00,54.7,39.8,30.20,NE,55,0.0,2.0,57,0.00,,SKC,0.00,VWS V14.01,2013-01-04 21:35:00,
2013-01-05 11:36:00,54.9,40.0,30.20,NE,55,0.0,0.0,57,0.00,,SKC,0.00,VWS V14.01,2013-01-04 21:36:00,
2013-01-05 11:37:00,54.9,40.0,30.20,NE,55,0.0,1.0,57,0.00,,SKC,0.00,VWS V14.01,2013-01-04 21:37:00,
2013-01-05 11:38:00,54.8,39.9,30.20,NE,55,2.0,2.0,57,0.00,,SKC,0.00,VWS V14.01,2013-01-04 21:38:00,
2013-01-05 11:40:00,54.8,40.3,30.20,NE,55,0.0,1.0,58,0.00,,SKC,0.00,VWS V14.01,2013-01-04 21:40:00,
2013-01-05 11:41:00,55.0,40.1,30.20,NE,55,3.0,3.0,57,0.00,,SKC,0.00,VWS V14.01,2013-01-04 21:41:00,
2013-01-05 11:42:00,55.0,40.1,30.20,NE,55,3.0,3.0,57,0.00,,SKC,0.00,VWS V14.01,2013-01-04 21:42:00,
2013-01-05 11:43:00,54.8,39.4,30.20,NE,54,3.0,5.0,56,0.00,,SKC,0.00,VWS V14.01,2013-01-04 21:43:00,
2013-01-05 11:44:00,54.7,39.3,30.20,NE,54,2.0,4.0,56,0.00,,SKC,0.00,VWS V14.01,2013-01-04 21:44:00,
2013-01-05 11:45:00,54.6,39.2,30.20,NE,54,1.0,3.0,56,0.00,,SKC,0.00,VWS V14.01,2013-01-04 21:45:00,
2013-01-05 11:46:00,54.7,39.8,30.19,NE,54,1.0,1.0,57,0.00,,SKC,0.00,VWS V14.01,2013-01-04 21:46:00,
2013-01-05 11:47:00,54.7,39.8,30.19,NE,54,0.0,3.0,57,0.00,,SKC,0.00,VWS V14.01,2013-01-04 21:47:00,
2013-01-05 11:48:00,54.9,40.0,30.19,NE,54,0.0,1.0,57,0.00,,SKC,0.00,VWS V14.01,2013-01-04 21:48:00,
2013-01-05 11:49:00,55.0,39.6,30.19,NE,54,3.0,4.0,56,0.00,,SKC,0.00,VWS V14.01,2013-01-04 21:49:00,
2013-01-05 11:50:00,54.9,39.5,30.19,NE,54,0.0,3.0,56,0.00,,SKC,0.00,VWS V14.01,2013-01-04 21:50:00,
2013-01-05 11:51:00,54.8,39.4,30.19,NE,54,2.0,2.0,56,0.00,,SKC,0.00,VWS V14.01,2013-01-04 21:51:00,
2013-01-05 11:52:00,54.8,39.4,30.19,NE,54,1.0,3.0,56,0.00,,SKC,0.00,VWS V14.01,2013-01-04 21:52:00,
2013-01-05 11:53:00,54.7,39.3,30.19,NE,54,1.0,2.0,56,0.00,,SKC,0.00,VWS V14.01,2013-01-04 21:53:00,
2013-01-05 11:54:00,54.9,39.5,30.19,NE,54,0.0,1.0,56,0.00,,SKC,0.00,VWS V14.01,2013-01-04 21:54:00,
2013-01-05 11:55:00,55.0,39.6,30.19,ENE,71,0.0,2.0,56,0.00,,SKC,0.00,VWS V14.01,2013-01-04 21:55:00,
2013-01-05 11:56:00,55.5,40.1,30.19,ENE,71,0.0,0.0,56,0.00,,SKC,0.00,VWS V14.01,2013-01-04 21:56:00,
2013-01-05 11:57:00,55.5,40.1,30.19,ENE,71,0.0,1.0,56,0.00,,SKC,0.00,VWS V14.01,2013-01-04 21:57:00,
2013-01-05 11:58:00,55.7,40.3,30.19,ENE,71,2.0,2.0,56,0.00,,SKC,0.00,VWS V14.01,2013-01-04 21:58:00,
2013-01-05 11:59:00,55.6,39.7,30.19,ENE,71,0.0,2.0,55,0.00,,SKC,0.00,VWS V14.01,2013-01-04 21:59:00,
2013-01-05 12:00:00,55.6,39.7,30.19,ENE,71,1.0,1.0,55,0.00,,SKC,0.00,VWS V14.01,2013-01-04 22:00:00,
2013-01-05 12:01:00,55.4,39.0,30.19,ENE,71,0.0,1.0,54,0.00,,FEW200,0.00,VWS V14.01,2013-01-04 22:01:00,
2013-01-05 12:02:00,55.4,39.0,30.19,ENE,71,1.0,2.0,54,0.00,,SKC,0.00,VWS V14.01,2013-01-04 22:02:00,
2013-01-05 12:03:00,55.4,38.6,30.19,ENE,71,0.0,2.0,53,0.00,,SKC,0.00,VWS V14.01,2013-01-04 22:03:00,
2013-01-05 12:04:00,55.5,39.1,30.19,ENE,71,0.0,0.0,54,0.00,,SKC,0.00,VWS V14.01,2013-01-04 22:04:00,
2013-01-05 12:05:00,55.7,39.3,30.19,NNW,333,0.0,2.0,54,0.00,,SKC,0.00,VWS V14.01,2013-01-04 22:05:00,
2013-01-05 12:06:00,56.3,39.4,30.19,NNW,333,2.0,2.0,53,0.00,,FEW200,0.00,VWS V14.01,2013-01-04 22:06:00,
2013-01-05 12:07:00,56.3,39.4,30.19,NNW,333,2.0,2.0,53,0.00,,SKC,0.00,VWS V14.01,2013-01-04 22:07:00,
2013-01-05 12:08:00,56.5,39.6,30.19,NNW,334,3.0,3.0,53,0.00,,SKC,0.00,VWS V14.01,2013-01-04 22:08:00,
2013-01-05 12:09:00,56.5,39.1,30.19,NNW,333,2.0,3.0,52,0.00,,SKC,0.00,VWS V14.01,2013-01-04 22:09:00,
2013-01-05 12:10:00,56.6,39.2,30.19,NNW,333,2.0,2.0,52,0.00,,SKC,0.00,VWS V14.01,2013-01-04 22:10:00,
2013-01-05 12:11:00,57.1,39.7,30.19,NNW,334,0.0,0.0,52,0.00,,FEW200,0.00,VWS V14.01,2013-01-04 22:11:00,
2013-01-05 12:12:00,57.1,39.7,30.19,NNW,334,0.0,0.0,52,0.00,,SKC,0.00,VWS V14.01,2013-01-04 22:12:00,
2013-01-05 12:13:00,57.3,39.3,30.19,NNW,333,0.0,1.0,51,0.00,,SKC,0.00,VWS V14.01,2013-01-04 22:13:00,
2013-01-05 12:14:00,57.2,39.2,30.19,NNW,333,0.0,1.0,51,0.00,,SKC,0.00,VWS V14.01,2013-01-04 22:14:00,
2013-01-05 12:15:00,57.1,39.2,30.19,NNW,333,1.0,1.0,51,0.00,,SKC,0.00,VWS V14.01,2013-01-04 22:15:00,
2013-01-05 12:16:00,56.6,38.2,30.19,NNW,334,0.0,1.0,50,0.00,,FEW200,0.00,VWS V14.01,2013-01-04 22:16:00,
2013-01-05 12:17:00,56.6,38.2,30.19,NNW,334,0.0,1.0,50,0.00,,SKC,0.00,VWS V14.01,2013-01-04 22:17:00,
2013-01-05 12:18:00,56.4,38.0,30.19,NNW,334,1.0,1.0,50,0.00,,SKC,0.00,VWS V14.01,2013-01-04 22:18:00,
2013-01-05 12:19:00,56.3,37.9,30.19,NNW,333,0.0,1.0,50,0.00,,SKC,0.00,VWS V14.01,2013-01-04 22:19:00,
2013-01-05 12:20:00,56.3,38.4,30.19,NNW,347,1.0,2.0,51,0.00,,SKC,0.00,VWS V14.01,2013-01-04 22:20:00,
2013-01-05 12:21:00,56.2,38.3,30.19,NNW,347,1.0,1.0,51,0.00,,FEW200,0.00,VWS V14.01,2013-01-04 22:21:00,
2013-01-05 12:22:00,56.2,38.3,30.19,NNW,347,1.0,1.0,51,0.00,,SKC,0.00,VWS V14.01,2013-01-04 22:22:00,
2013-01-05 12:23:00,56.3,38.4,30.19,NNW,347,0.0,2.0,51,0.00,,SKC,0.00,VWS V14.01,2013-01-04 22:23:00,
2013-01-05 12:24:00,56.4,39.0,30.19,NNW,347,0.0,1.0,52,0.00,,SKC,0.00,VWS V14.01,2013-01-04 22:24:00,
2013-01-05 12:25:00,56.5,39.1,30.19,NNW,347,0.0,2.0,52,0.00,,SKC,0.00,VWS V14.01,2013-01-04 22:25:00,
2013-01-05 12:26:00,56.8,39.4,30.19,NNW,347,0.0,1.0,52,0.00,,FEW200,0.00,VWS V14.01,2013-01-04 22:26:00,
2013-01-05 12:27:00,56.8,39.4,30.19,NNW,347,0.0,1.0,52,0.00,,SKC,0.00,VWS V14.01,2013-01-04 22:27:00,
2013-01-05 12:28:00,57.0,40.1,30.19,NNW,347,0.0,0.0,53,0.00,,SKC,0.00,VWS V14.01,2013-01-04 22:28:00,
2013-01-05 12:29:00,57.0,40.1,30.19,NNW,347,1.0,1.0,53,0.00,,SKC,0.00,VWS V14.01,2013-01-04 22:29:00,
2013-01-05 12:30:00,56.9,39.5,30.19,NNW,347,0.0,1.0,52,0.00,,SKC,0.00,VWS V14.01,2013-01-04 22:30:00,
2013-01-05 12:31:00,56.6,39.2,30.18,NNW,347,1.0,2.0,52,0.00,,FEW200,0.00,VWS V14.01,2013-01-04 22:31:00,
2013-01-05 12:32:00,56.6,39.2,30.18,NNW,347,1.0,2.0,52,0.00,,SKC,0.00,VWS V14.01,2013-01-04 22:32:00,
2013-01-05 12:33:00,56.4,39.5,30.19,NNW,347,0.0,1.0,53,0.00,,SKC,0.00,VWS V14.01,2013-01-04 22:33:00,
2013-01-05 12:34:00,56.4,39.5,30.19,NNW,347,0.0,2.0,53,0.00,,SKC,0.00,VWS V14.01,2013-01-04 22:34:00,
2013-01-05 12:35:00,56.3,39.9,30.19,NNW,347,0.0,1.0,54,0.00,,SKC,0.00,VWS V14.01,2013-01-04 22:35:00,
2013-01-05 12:36:00,56.6,40.2,30.19,NNW,347,0.0,1.0,54,0.00,,FEW200,0.00,VWS V14.01,2013-01-04 22:36:00,
2013-01-05 12:37:00,56.6,40.2,30.19,NNW,347,0.0,1.0,54,0.00,,SKC,0.00,VWS V14.01,2013-01-04 22:37:00,
2013-01-05 12:38:00,57.0,40.5,30.19,NNW,347,0.0,0.0,54,0.00,,SKC,0.00,VWS V14.01,2013-01-04 22:38:00,
2013-01-05 12:39:00,57.3,40.8,30.19,NNW,347,0.0,1.0,54,0.00,,SKC,0.00,VWS V14.01,2013-01-04 22:39:00,
2013-01-05 12:40:00,57.2,39.8,30.19,NNW,347,0.0,0.0,52,0.00,,SKC,0.00,VWS V14.01,2013-01-04 22:40:00,
2013-01-05 12:41:00,57.1,40.2,30.19,NNW,347,1.0,1.0,53,0.00,,FEW200,0.00,VWS V14.01,2013-01-04 22:41:00,
2013-01-05 12:42:00,57.1,40.2,30.19,NNW,347,1.0,1.0,53,0.00,,SKC,0.00,VWS V14.01,2013-01-04 22:42:00,
2013-01-05 12:43:00,57.0,39.6,30.18,NNW,347,1.0,2.0,52,0.00,,SKC,0.00,VWS V14.01,2013-01-04 22:43:00,
2013-01-05 12:44:00,57.1,40.2,30.18,NNW,347,0.0,1.0,53,0.00,,SKC,0.00,VWS V14.01,2013-01-04 22:44:00,
2013-01-05 12:45:00,57.2,40.7,30.18,NNW,347,0.0,0.0,54,0.00,,SKC,0.00,VWS V14.01,2013-01-04 22:45:00,
2013-01-05 12:46:00,57.6,40.6,30.18,NNW,347,0.0,1.0,53,0.00,,FEW200,0.00,VWS V14.01,2013-01-04 22:46:00,
2013-01-05 12:47:00,57.6,40.6,30.18,NNW,347,0.0,1.0,53,0.00,,SKC,0.00,VWS V14.01,2013-01-04 22:47:00,
2013-01-05 12:48:00,57.6,40.1,30.18,NNW,347,0.0,0.0,52,0.00,,SKC,0.00,VWS V14.01,2013-01-04 22:48:00,
2013-01-05 12:49:00,57.5,40.0,30.18,NNW,348,0.0,1.0,52,0.00,,SKC,0.00,VWS V14.01,2013-01-04 22:49:00,
2013-01-05 12:50:00,57.4,39.9,30.18,NNW,348,0.0,1.0,52,0.00,,SKC,0.00,VWS V14.01,2013-01-04 22:50:00,
2013-01-05 12:51:00,57.3,40.3,30.18,NNW,348,0.0,1.0,53,0.00,,FEW200,0.00,VWS V14.01,2013-01-04 22:51:00,
2013-01-05 12:52:00,57.2,40.2,30.18,NNW,348,1.0,1.0,53,0.00,,SKC,0.00,VWS V14.01,2013-01-04 22:52:00,
2013-01-05 12:53:00,57.1,40.6,30.18,NNW,348,0.0,1.0,54,0.00,,SKC,0.00,VWS V14.01,2013-01-04 22:53:00,
2013-01-05 12:54:00,57.1,41.1,30.18,NNW,348,0.0,0.0,55,0.00,,SKC,0.00,VWS V14.01,2013-01-04 22:54:00,
2013-01-05 12:55:00,57.1,40.2,30.18,NNW,348,0.0,1.0,53,0.00,,SKC,0.00,VWS V14.01,2013-01-04 22:55:00,
2013-01-05 12:56:00,57.3,40.3,30.18,NNW,348,0.0,0.0,53,0.00,,FEW200,0.00,VWS V14.01,2013-01-04 22:56:00,
2013-01-05 12:57:00,57.3,40.3,30.18,NNW,348,0.0,0.0,53,0.00,,SKC,0.00,VWS V14.01,2013-01-04 22:57:00,
2013-01-05 12:58:00,57.4,40.4,30.18,NNW,348,1.0,1.0,53,0.00,,SKC,0.00,VWS V14.01,2013-01-04 22:58:00,
2013-01-05 12:59:00,57.3,39.8,30.18,NNW,348,0.0,1.0,52,0.00,,SKC,0.00,VWS V14.01,2013-01-04 22:59:00,
2013-01-05 13:00:00,57.0,39.6,30.18,NNW,348,0.0,1.0,52,0.00,,SKC,0.00,VWS V14.01,2013-01-04 23:00:00,
2013-01-05 13:01:00,56.9,39.5,30.18,NNW,348,0.0,0.0,52,0.00,,SKC,0.00,VWS V14.01,2013-01-04 23:01:00,
2013-01-05 13:02:00,56.9,39.5,30.18,NNW,348,0.0,0.0,52,0.00,,SKC,0.00,VWS V14.01,2013-01-04 23:02:00,
2013-01-05 13:03:00,57.1,39.7,30.18,NNW,348,0.0,0.0,52,0.00,,SKC,0.00,VWS V14.01,2013-01-04 23:03:00,
2013-01-05 13:04:00,57.5,40.5,30.18,NNW,348,1.0,1.0,53,0.00,,SKC,0.00,VWS V14.01,2013-01-04 23:04:00,
2013-01-05 13:05:00,57.5,40.0,30.18,NNW,348,1.0,1.0,52,0.00,,SKC,0.00,VWS V14.01,2013-01-04 23:05:00,
2013-01-05 13:06:00,57.6,40.6,30.18,NNW,348,1.0,1.0,53,0.00,,SKC,0.00,VWS V14.01,2013-01-04 23:06:00,
2013-01-05 13:07:00,57.6,40.6,30.18,NNW,348,1.0,1.0,53,0.00,,SKC,0.00,VWS V14.01,2013-01-04 23:07:00,
2013-01-05 13:08:00,57.6,40.1,30.18,NNW,348,0.0,1.0,52,0.00,,SKC,0.00,VWS V14.01,2013-01-04 23:08:00,
2013-01-05 13:09:00,57.5,39.5,30.18,NNW,348,0.0,1.0,51,0.00,,SKC,0.00,VWS V14.01,2013-01-04 23:09:00,
2013-01-05 13:10:00,57.6,40.1,30.18,NNW,348,0.0,1.0,52,0.00,,SKC,0.00,VWS V14.01,2013-01-04 23:10:00,
2013-01-05 13:11:00,57.7,40.7,30.18,NNW,348,1.0,1.0,53,0.00,,SKC,0.00,VWS V14.01,2013-01-04 23:11:00,
2013-01-05 13:12:00,57.7,40.7,30.18,NNW,348,1.0,1.0,53,0.00,,SKC,0.00,VWS V14.01,2013-01-04 23:12:00,
2013-01-05 13:13:00,57.5,40.5,30.18,NNW,348,0.0,1.0,53,0.00,,SKC,0.00,VWS V14.01,2013-01-04 23:13:00,
2013-01-05 13:14:00,57.6,40.1,30.18,NNW,348,0.0,0.0,52,0.00,,SKC,0.00,VWS V14.01,2013-01-04 23:14:00,
2013-01-05 13:15:00,57.6,40.1,30.18,NNW,348,0.0,1.0,52,0.00,,SKC,0.00,VWS V14.01,2013-01-04 23:15:00,
2013-01-05 13:16:00,57.9,40.4,30.18,NNW,348,0.0,1.0,52,0.00,,SKC,0.00,VWS V14.01,2013-01-04 23:16:00,
2013-01-05 13:17:00,57.9,40.4,30.18,NNW,348,0.0,1.0,52,0.00,,SKC,0.00,VWS V14.01,2013-01-04 23:17:00,
2013-01-05 13:18:00,57.9,40.4,30.18,NNW,348,0.0,1.0,52,0.00,,SKC,0.00,VWS V14.01,2013-01-04 23:18:00,
2013-01-05 13:19:00,57.8,40.3,30.18,NNW,348,1.0,1.0,52,0.00,,SKC,0.00,VWS V14.01,2013-01-04 23:19:00,
2013-01-05 13:20:00,57.7,40.2,30.18,NNW,348,0.0,1.0,52,0.00,,SKC,0.00,VWS V14.01,2013-01-04 23:20:00,
2013-01-05 13:21:00,57.5,40.0,30.18,NNW,348,0.0,1.0,52,0.00,,SKC,0.00,VWS V14.01,2013-01-04 23:21:00,
2013-01-05 13:22:00,57.5,40.0,30.18,NNW,348,0.0,1.0,52,0.00,,SKC,0.00,VWS V14.01,2013-01-04 23:22:00,
2013-01-05 13:23:00,57.5,40.5,30.18,NNW,348,0.0,1.0,53,0.00,,SKC,0.00,VWS V14.01,2013-01-04 23:23:00,
2013-01-05 13:24:00,57.5,40.0,30.18,NNW,348,0.0,0.0,52,0.00,,SKC,0.00,VWS V14.01,2013-01-04 23:24:00,
2013-01-05 13:25:00,57.7,40.7,30.18,NNW,348,0.0,0.0,53,0.00,,SKC,0.00,VWS V14.01,2013-01-04 23:25:00,
2013-01-05 13:26:00,57.6,40.1,30.18,NNW,348,0.0,1.0,52,0.00,,SKC,0.00,VWS V14.01,2013-01-04 23:26:00,
2013-01-05 13:27:00,57.6,40.1,30.18,NNW,348,0.0,1.0,52,0.00,,SKC,0.00,VWS V14.01,2013-01-04 23:27:00,
2013-01-05 13:28:00,57.4,40.4,30.18,NNW,348,0.0,0.0,53,0.00,,SKC,0.00,VWS V14.01,2013-01-04 23:28:00,
2013-01-05 13:29:00,57.4,39.9,30.18,NNW,348,0.0,0.0,52,0.00,,SKC,0.00,VWS V14.01,2013-01-04 23:29:00,
2013-01-05 13:30:00,57.4,40.4,30.18,NNW,348,1.0,1.0,53,0.00,,SKC,0.00,VWS V14.01,2013-01-04 23:30:00,
2013-01-05 13:31:00,57.5,40.5,30.18,NNW,348,0.0,1.0,53,0.00,,SKC,0.00,VWS V14.01,2013-01-04 23:31:00,
2013-01-05 13:32:00,57.5,40.5,30.18,NNW,348,0.0,1.0,53,0.00,,SKC,0.00,VWS V14.01,2013-01-04 23:32:00,
2013-01-05 13:33:00,57.5,40.5,30.18,NNW,348,0.0,1.0,53,0.00,,SKC,0.00,VWS V14.01,2013-01-04 23:33:00,
2013-01-05 13:34:00,57.4,40.4,30.18,NNW,348,0.0,1.0,53,0.00,,SKC,0.00,VWS V14.01,2013-01-04 23:34:00,
2013-01-05 13:35:00,57.3,40.3,30.18,NNW,348,0.0,1.0,53,0.00,,SKC,0.00,VWS V14.01,2013-01-04 23:35:00,
2013-01-05 13:36:00,57.4,40.4,30.18,NNW,348,0.0,2.0,53,0.00,,SKC,0.00,VWS V14.01,2013-01-04 23:36:00,
2013-01-05 13:37:00,57.4,40.4,30.18,NNW,348,0.0,2.0,53,0.00,,SKC,0.00,VWS V14.01,2013-01-04 23:37:00,
2013-01-05 13:38:00,57.6,40.6,30.18,NNW,348,0.0,0.0,53,0.00,,SKC,0.00,VWS V14.01,2013-01-04 23:38:00,
2013-01-05 13:39:00,57.6,40.6,30.18,NNW,348,0.0,0.0,53,0.00,,SKC,0.00,VWS V14.01,2013-01-04 23:39:00,
2013-01-05 13:40:00,57.6,40.6,30.18,NNW,348,0.0,1.0,53,0.00,,SKC,0.00,VWS V14.01,2013-01-04 23:40:00,
2013-01-05 13:41:00,57.5,41.0,30.18,NNW,348,0.0,0.0,54,0.00,,SKC,0.00,VWS V14.01,2013-01-04 23:41:00,
2013-01-05 13:42:00,57.5,41.0,30.18,NNW,348,0.0,0.0,54,0.00,,SKC,0.00,VWS V14.01,2013-01-04 23:42:00,
2013-01-05 13:43:00,57.5,40.5,30.18,NNW,348,0.0,0.0,53,0.00,,SKC,0.00,VWS V14.01,2013-01-04 23:43:00,
2013-01-05 13:44:00,57.5,41.0,30.18,NNW,348,0.0,0.0,54,0.00,,SKC,0.00,VWS V14.01,2013-01-04 23:44:00,
2013-01-05 13:45:00,57.6,41.1,30.18,NNW,348,0.0,1.0,54,0.00,,SKC,0.00,VWS V14.01,2013-01-04 23:45:00,
2013-01-05 13:46:00,57.5,41.0,30.18,NNW,348,0.0,1.0,54,0.00,,SKC,0.00,VWS V14.01,2013-01-04 23:46:00,
2013-01-05 13:47:00,57.5,41.0,30.18,NNW,348,0.0,1.0,54,0.00,,SKC,0.00,VWS V14.01,2013-01-04 23:47:00,
2013-01-05 13:48:00,57.5,41.5,30.18,NNW,348,0.0,1.0,55,0.00,,SKC,0.00,VWS V14.01,2013-01-04 23:48:00,
2013-01-05 13:49:00,57.4,41.4,30.18,NNW,348,1.0,1.0,55,0.00,,SKC,0.00,VWS V14.01,2013-01-04 23:49:00,
2013-01-05 13:50:00,57.3,41.3,30.18,NNW,348,2.0,2.0,55,0.00,,SKC,0.00,VWS V14.01,2013-01-04 23:50:00,
2013-01-05 13:51:00,57.2,41.2,30.17,NNW,348,0.0,0.0,55,0.00,,SKC,0.00,VWS V14.01,2013-01-04 23:51:00,
2013-01-05 13:52:00,57.2,41.2,30.17,NNW,348,0.0,0.0,55,0.00,,SKC,0.00,VWS V14.01,2013-01-04 23:52:00,
2013-01-05 13:53:00,57.3,41.8,30.18,NNW,348,0.0,0.0,56,0.00,,SKC,0.00,VWS V14.01,2013-01-04 23:53:00,
2013-01-05 13:54:00,57.3,41.8,30.18,NNW,348,0.0,0.0,56,0.00,,SKC,0.00,VWS V14.01,2013-01-04 23:54:00,
2013-01-05 13:55:00,57.2,42.1,30.18,NNW,348,1.0,1.0,57,0.00,,SKC,0.00,VWS V14.01,2013-01-04 23:55:00,
2013-01-05 13:56:00,57.0,43.7,30.18,NNW,348,1.0,2.0,61,0.00,,SKC,0.00,VWS V14.01,2013-01-04 23:56:00,
2013-01-05 13:57:00,57.0,43.7,30.17,NNW,348,0.0,2.0,61,0.00,,SKC,0.00,VWS V14.01,2013-01-04 23:57:00,
2013-01-05 13:58:00,56.9,43.6,30.17,NNW,348,0.0,2.0,61,0.00,,SKC,0.00,VWS V14.01,2013-01-04 23:58:00,
2013-01-05 13:59:00,56.8,43.5,30.17,NNW,348,0.0,1.0,61,0.00,,SKC,0.00,VWS V14.01,2013-01-04 23:59:00,
2013-01-05 14:00:00,56.8,43.9,30.18,NNW,348,0.0,0.0,62,0.00,,SKC,0.00,VWS V14.01,2013-01-05 00:00:00,
2013-01-05 14:01:00,56.7,43.8,30.18,NNW,348,2.0,2.0,62,0.00,,SKC,0.00,VWS V14.01,2013-01-05 00:01:00,
2013-01-05 14:02:00,56.7,43.8,30.17,NNW,348,2.0,2.0,62,0.00,,SKC,0.00,VWS V14.01,2013-01-05 00:02:00,
2013-01-05 14:03:00,56.6,44.2,30.17,NNW,348,2.0,2.0,63,0.00,,SKC,0.00,VWS V14.01,2013-01-05 00:03:00,
2013-01-05 14:04:00,56.5,44.5,30.17,NNW,348,1.0,2.0,64,0.00,,SKC,0.00,VWS V14.01,2013-01-05 00:04:00,
2013-01-05 14:05:00,56.4,44.4,30.17,NNW,348,0.0,1.0,64,0.00,,SKC,0.00,VWS V14.01,2013-01-05 00:05:00,
2013-01-05 14:06:00,56.3,44.7,30.18,NNW,348,0.0,1.0,65,0.00,,SKC,0.00,VWS V14.01,2013-01-05 00:06:00,
2013-01-05 14:07:00,56.3,44.7,30.17,NNW,348,1.0,1.0,65,0.00,,SKC,0.00,VWS V14.01,2013-01-05 00:07:00,
2013-01-05 14:08:00,56.2,44.6,30.17,NNW,348,0.0,1.0,65,0.00,,SKC,0.00,VWS V14.01,2013-01-05 00:08:00,
2013-01-05 14:09:00,56.2,44.6,30.17,NNW,348,0.0,1.0,65,0.00,,SKC,0.00,VWS V14.01,2013-01-05 00:09:00,
2013-01-05 14:10:00,56.1,44.1,30.18,NNW,348,0.0,1.0,64,0.00,,SKC,0.00,VWS V14.01,2013-01-05 00:10:00,
2013-01-05 14:11:00,56.0,44.0,30.18,NNW,348,0.0,1.0,64,0.00,,SKC,0.00,VWS V14.01,2013-01-05 00:11:00,
2013-01-05 14:12:00,56.0,44.0,30.17,NNW,348,1.0,1.0,64,0.00,,SKC,0.00,VWS V14.01,2013-01-05 00:12:00,
2013-01-05 14:13:00,56.0,44.4,30.17,NNW,348,0.0,1.0,65,0.00,,SKC,0.00,VWS V14.01,2013-01-05 00:13:00,
2013-01-05 14:14:00,56.0,44.4,30.18,NNW,348,0.0,1.0,65,0.00,,SKC,0.00,VWS V14.01,2013-01-05 00:14:00,
2013-01-05 14:15:00,56.0,44.4,30.18,NNW,348,0.0,1.0,65,0.00,,SKC,0.00,VWS V14.01,2013-01-05 00:15:00,
2013-01-05 14:16:00,55.8,44.2,30.18,NNW,348,0.0,1.0,65,0.00,,SKC,0.00,VWS V14.01,2013-01-05 00:16:00,
2013-01-05 14:17:00,55.8,44.2,30.18,NNW,348,1.0,1.0,65,0.00,,SKC,0.00,VWS V14.01,2013-01-05 00:17:00,
2013-01-05 14:18:00,55.7,44.1,30.17,NNW,348,1.0,2.0,65,0.00,,SKC,0.00,VWS V14.01,2013-01-05 00:18:00,
2013-01-05 14:19:00,55.7,44.1,30.17,NNW,348,0.0,2.0,65,0.00,,SKC,0.00,VWS V14.01,2013-01-05 00:19:00,
2013-01-05 14:20:00,55.7,44.5,30.18,NNW,348,1.0,1.0,66,0.00,,SKC,0.00,VWS V14.01,2013-01-05 00:20:00,
2013-01-05 14:21:00,55.6,44.4,30.18,NNW,348,0.0,1.0,66,0.00,,SKC,0.00,VWS V14.01,2013-01-05 00:21:00,
2013-01-05 14:22:00,55.6,44.4,30.18,NNW,348,0.0,1.0,66,0.00,,SKC,0.00,VWS V14.01,2013-01-05 00:22:00,
2013-01-05 14:23:00,55.6,44.4,30.17,NNW,348,0.0,1.0,66,0.00,,SKC,0.00,VWS V14.01,2013-01-05 00:23:00,
2013-01-05 14:24:00,55.5,44.3,30.18,NNW,348,0.0,1.0,66,0.00,,SKC,0.00,VWS V14.01,2013-01-05 00:24:00,
2013-01-05 14:25:00,55.5,44.3,30.18,NNW,348,0.0,0.0,66,0.00,,SKC,0.00,VWS V14.01,2013-01-05 00:25:00,
2013-01-05 14:26:00,55.4,44.2,30.18,NNW,348,0.0,0.0,66,0.00,,SKC,0.00,VWS V14.01,2013-01-05 00:26:00,
2013-01-05 14:27:00,55.4,44.2,30.18,NNW,348,0.0,1.0,66,0.00,,SKC,0.00,VWS V14.01,2013-01-05 00:27:00,
2013-01-05 14:28:00,55.4,44.2,30.18,NNW,348,0.0,1.0,66,0.00,,SKC,0.00,VWS V14.01,2013-01-05 00:28:00,
2013-01-05 14:29:00,55.3,44.5,30.18,NNW,348,0.0,1.0,67,0.00,,SKC,0.00,VWS V14.01,2013-01-05 00:29:00,
2013-01-05 14:30:00,55.3,44.5,30.18,NNW,348,1.0,1.0,67,0.00,,SKC,0.00,VWS V14.01,2013-01-05 00:30:00,
2013-01-05 14:31:00,55.3,44.5,30.18,NNW,348,0.0,1.0,67,0.00,,SKC,0.00,VWS V14.01,2013-01-05 00:31:00,
2013-01-05 14:32:00,55.3,44.5,30.18,NNW,348,0.0,1.0,67,0.00,,SKC,0.00,VWS V14.01,2013-01-05 00:32:00,
2013-01-05 14:33:00,55.2,44.5,30.18,NNW,348,0.0,1.0,67,0.00,,SKC,0.00,VWS V14.01,2013-01-05 00:33:00,
2013-01-05 14:34:00,55.1,44.3,30.18,NNW,348,0.0,1.0,67,0.00,,SKC,0.00,VWS V14.01,2013-01-05 00:34:00,
2013-01-05 14:35:00,55.1,44.3,30.18,NNW,348,1.0,1.0,67,0.00,,SKC,0.00,VWS V14.01,2013-01-05 00:35:00,
2013-01-05 14:36:00,54.9,44.5,30.18,NNW,348,0.0,1.0,68,0.00,,SKC,0.00,VWS V14.01,2013-01-05 00:36:00,
2013-01-05 14:37:00,54.9,44.5,30.18,NNW,348,0.0,1.0,68,0.00,,SKC,0.00,VWS V14.01,2013-01-05 00:37:00,
2013-01-05 14:38:00,54.9,44.5,30.18,NNW,348,0.0,0.0,68,0.00,,SKC,0.00,VWS V14.01,2013-01-05 00:38:00,
2013-01-05 14:39:00,54.8,44.5,30.18,NNW,348,0.0,0.0,68,0.00,,SKC,0.00,VWS V14.01,2013-01-05 00:39:00,
2013-01-05 14:40:00,54.6,44.3,30.18,NNW,348,0.0,1.0,68,0.00,,SKC,0.00,VWS V14.01,2013-01-05 00:40:00,
2013-01-05 14:41:00,54.5,44.5,30.18,NNW,348,0.0,0.0,69,0.00,,SKC,0.00,VWS V14.01,2013-01-05 00:41:00,
2013-01-05 14:42:00,54.5,44.5,30.18,NNW,348,0.0,0.0,69,0.00,,SKC,0.00,VWS V14.01,2013-01-05 00:42:00,
2013-01-05 14:43:00,54.4,44.5,30.18,NNW,348,0.0,1.0,69,0.00,,SKC,0.00,VWS V14.01,2013-01-05 00:43:00,
2013-01-05 14:44:00,54.4,44.5,30.18,NNW,348,0.0,0.0,69,0.00,,SKC,0.00,VWS V14.01,2013-01-05 00:44:00,
2013-01-05 14:45:00,54.3,44.7,30.18,NNW,348,0.0,0.0,70,0.00,,SKC,0.00,VWS V14.01,2013-01-05 00:45:00,
2013-01-05 14:46:00,54.1,44.5,30.18,NNW,348,0.0,0.0,70,0.00,,SKC,0.00,VWS V14.01,2013-01-05 00:46:00,
2013-01-05 14:47:00,54.1,44.5,30.18,NNW,348,0.0,0.0,70,0.00,,SKC,0.00,VWS V14.01,2013-01-05 00:47:00,
2013-01-05 14:48:00,54.1,44.5,30.18,NNW,348,0.0,0.0,70,0.00,,SKC,0.00,VWS V14.01,2013-01-05 00:48:00,
2013-01-05 14:49:00,54.0,44.5,30.18,NNW,348,0.0,1.0,70,0.00,,SKC,0.00,VWS V14.01,2013-01-05 00:49:00,
2013-01-05 14:50:00,53.9,44.3,30.18,NNW,348,0.0,1.0,70,0.00,,SKC,0.00,VWS V14.01,2013-01-05 00:50:00,
2013-01-05 14:51:00,53.7,44.5,30.18,NNW,348,0.0,1.0,71,0.00,,SKC,0.00,VWS V14.01,2013-01-05 00:51:00,
2013-01-05 14:52:00,53.7,44.5,30.18,NNW,348,0.0,1.0,71,0.00,,SKC,0.00,VWS V14.01,2013-01-05 00:52:00,
2013-01-05 14:53:00,53.6,44.4,30.18,NNW,348,0.0,0.0,71,0.00,,SKC,0.00,VWS V14.01,2013-01-05 00:53:00,
2013-01-05 14:54:00,53.5,44.3,30.18,NNW,348,0.0,0.0,71,0.00,,SKC,0.00,VWS V14.01,2013-01-05 00:54:00,
2013-01-05 14:55:00,53.3,44.2,30.18,NNW,348,0.0,0.0,71,0.00,,SKC,0.00,VWS V14.01,2013-01-05 00:55:00,
2013-01-05 14:56:00,53.1,44.3,30.18,NNW,348,1.0,1.0,72,0.00,,SKC,0.00,VWS V14.01,2013-01-05 00:56:00,
2013-01-05 14:57:00,53.1,44.3,30.18,NNW,348,0.0,1.0,72,0.00,,SKC,0.00,VWS V14.01,2013-01-05 00:57:00,
2013-01-05 14:58:00,53.0,44.2,30.18,NNW,348,0.0,1.0,72,0.00,,SKC,0.00,VWS V14.01,2013-01-05 00:58:00,
2013-01-05 14:59:00,53.0,44.2,30.17,NNW,348,0.0,0.0,72,0.00,,SKC,0.00,VWS V14.01,2013-01-05 00:59:00,
2013-01-05 15:00:00,52.9,44.5,30.17,NNW,348,0.0,0.0,73,0.00,,SKC,0.00,VWS V14.01,2013-01-05 01:00:00,
2013-01-05 15:01:00,52.7,44.3,30.17,NNW,348,0.0,0.0,73,0.00,,SKC,0.00,VWS V14.01,2013-01-05 01:01:00,
2013-01-05 15:02:00,52.7,44.3,30.17,NNW,348,0.0,0.0,73,0.00,,SKC,0.00,VWS V14.01,2013-01-05 01:02:00,
2013-01-05 15:03:00,52.6,44.2,30.17,NNW,348,0.0,0.0,73,0.00,,SKC,0.00,VWS V14.01,2013-01-05 01:03:00,
2013-01-05 15:04:00,52.5,44.5,30.18,NNW,348,0.0,0.0,74,0.00,,SKC,0.00,VWS V14.01,2013-01-05 01:04:00,
2013-01-05 15:05:00,52.4,44.4,30.18,NNW,348,0.0,0.0,74,0.00,,SKC,0.00,VWS V14.01,2013-01-05 01:05:00,
2013-01-05 15:06:00,52.2,44.5,30.18,NNW,348,0.0,0.0,75,0.00,,SKC,0.00,VWS V14.01,2013-01-05 01:06:00,
2013-01-05 15:07:00,52.2,44.5,30.18,NNW,348,0.0,0.0,75,0.00,,SKC,0.00,VWS V14.01,2013-01-05 01:07:00,
2013-01-05 15:08:00,52.1,44.4,30.18,NNW,348,0.0,0.0,75,0.00,,SKC,0.00,VWS V14.01,2013-01-05 01:08:00,
2013-01-05 15:09:00,51.9,44.2,30.18,NNW,348,0.0,0.0,75,0.00,,SKC,0.00,VWS V14.01,2013-01-05 01:09:00,
2013-01-05 15:10:00,51.7,44.0,30.18,NNW,348,0.0,0.0,75,0.00,,SKC,0.00,VWS V14.01,2013-01-05 01:10:00,
2013-01-05 15:11:00,51.4,44.1,30.18,NNW,348,0.0,0.0,76,0.00,,SKC,0.00,VWS V14.01,2013-01-05 01:11:00,
2013-01-05 15:12:00,51.4,44.1,30.18,NNW,348,0.0,0.0,76,0.00,,SKC,0.00,VWS V14.01,2013-01-05 01:12:00,
2013-01-05 15:13:00,51.3,44.3,30.18,NNW,348,0.0,0.0,77,0.00,,SKC,0.00,VWS V14.01,2013-01-05 01:13:00,
2013-01-05 15:14:00,51.2,44.2,30.18,NNW,348,0.0,0.0,77,0.00,,SKC,0.00,VWS V14.01,2013-01-05 01:14:00,
2013-01-05 15:15:00,51.1,44.2,30.18,NNW,348,0.0,0.0,77,0.00,,SKC,0.00,VWS V14.01,2013-01-05 01:15:00,
2013-01-05 15:16:00,51.1,44.2,30.18,NNW,348,0.0,0.0,77,0.00,,SKC,0.00,VWS V14.01,2013-01-05 01:16:00,
2013-01-05 15:17:00,51.1,44.2,30.18,NNW,348,0.0,0.0,77,0.00,,SKC,0.00,VWS V14.01,2013-01-05 01:17:00,
2013-01-05 15:18:00,51.0,44.0,30.18,NNW,348,0.0,0.0,77,0.00,,SKC,0.00,VWS V14.01,2013-01-05 01:18:00,
2013-01-05 15:19:00,51.1,44.5,30.18,NNW,348,0.0,0.0,78,0.00,,SKC,0.00,VWS V14.01,2013-01-05 01:19:00,
2013-01-05 15:20:00,51.0,44.4,30.18,NNW,348,0.0,0.0,78,0.00,,SKC,0.00,VWS V14.01,2013-01-05 01:20:00,
2013-01-05 15:21:00,50.9,44.3,30.18,NNW,348,0.0,0.0,78,0.00,,SKC,0.00,VWS V14.01,2013-01-05 01:21:00,
2013-01-05 15:22:00,50.9,44.3,30.18,NNW,348,0.0,0.0,78,0.00,,SKC,0.00,VWS V14.01,2013-01-05 01:22:00,
2013-01-05 15:23:00,50.8,44.2,30.18,NNW,348,0.0,0.0,78,0.00,,SKC,0.00,VWS V14.01,2013-01-05 01:23:00,
2013-01-05 15:24:00,50.7,44.1,30.18,NNW,348,0.0,0.0,78,0.00,,SKC,0.00,VWS V14.01,2013-01-05 01:24:00,
2013-01-05 15:25:00,50.7,44.1,30.18,NNW,348,0.0,0.0,78,0.00,,SKC,0.00,VWS V14.01,2013-01-05 01:25:00,
2013-01-05 15:26:00,50.5,43.9,30.18,NNW,348,0.0,0.0,78,0.00,,SKC,0.00,VWS V14.01,2013-01-05 01:26:00,
2013-01-05 15:27:00,50.5,43.9,30.18,NNW,348,0.0,0.0,78,0.00,,SKC,0.00,VWS V14.01,2013-01-05 01:27:00,
2013-01-05 15:28:00,50.4,43.8,30.18,NNW,348,0.0,0.0,78,0.00,,SKC,0.00,VWS V14.01,2013-01-05 01:28:00,
2013-01-05 15:29:00,50.4,43.8,30.18,NNW,348,0.0,0.0,78,0.00,,SKC,0.00,VWS V14.01,2013-01-05 01:29:00,
2013-01-05 15:30:00,50.2,43.6,30.18,NNW,348,0.0,0.0,78,0.00,,SKC,0.00,VWS V14.01,2013-01-05 01:30:00,
2013-01-05 15:31:00,50.1,43.8,30.18,NNW,348,0.0,0.0,79,0.00,,SKC,0.00,VWS V14.01,2013-01-05 01:31:00,
2013-01-05 15:32:00,50.1,43.8,30.18,NNW,348,0.0,0.0,79,0.00,,SKC,0.00,VWS V14.01,2013-01-05 01:32:00,
2013-01-05 15:33:00,49.9,43.7,30.18,NNW,348,0.0,0.0,79,0.00,,SKC,0.00,VWS V14.01,2013-01-05 01:33:00,
2013-01-05 15:34:00,49.9,43.7,30.18,NNW,348,0.0,0.0,79,0.00,,SKC,0.00,VWS V14.01,2013-01-05 01:34:00,
2013-01-05 15:35:00,49.9,43.7,30.18,NNW,348,0.0,0.0,79,0.00,,SKC,0.00,VWS V14.01,2013-01-05 01:35:00,
2013-01-05 15:36:00,49.8,43.6,30.18,NNW,348,0.0,0.0,79,0.00,,SKC,0.00,VWS V14.01,2013-01-05 01:36:00,
2013-01-05 15:37:00,49.8,43.6,30.18,NNW,348,0.0,0.0,79,0.00,,SKC,0.00,VWS V14.01,2013-01-05 01:37:00,
2013-01-05 15:38:00,49.7,43.5,30.18,NNW,348,0.0,0.0,79,0.00,,SKC,0.00,VWS V14.01,2013-01-05 01:38:00,
2013-01-05 15:39:00,49.7,43.5,30.18,NNW,348,0.0,0.0,79,0.00,,SKC,0.00,VWS V14.01,2013-01-05 01:39:00,
2013-01-05 15:40:00,49.6,43.7,30.18,NNW,348,0.0,0.0,80,0.00,,SKC,0.00,VWS V14.01,2013-01-05 01:40:00,
2013-01-05 15:41:00,49.5,43.3,30.18,NNW,348,0.0,0.0,79,0.00,,SKC,0.00,VWS V14.01,2013-01-05 01:41:00,
2013-01-05 15:42:00,49.5,43.3,30.18,NNW,348,0.0,0.0,79,0.00,,SKC,0.00,VWS V14.01,2013-01-05 01:42:00,
2013-01-05 15:43:00,49.4,43.2,30.18,NNW,348,0.0,0.0,79,0.00,,SKC,0.00,VWS V14.01,2013-01-05 01:43:00,
2013-01-05 15:44:00,49.3,43.1,30.18,NNW,348,0.0,0.0,79,0.00,,SKC,0.00,VWS V14.01,2013-01-05 01:44:00,
2013-01-05 15:45:00,49.3,43.4,30.18,NNW,348,0.0,0.0,80,0.00,,SKC,0.00,VWS V14.01,2013-01-05 01:45:00,
2013-01-05 15:46:00,49.1,43.2,30.18,NNW,348,0.0,0.0,80,0.00,,SKC,0.00,VWS V14.01,2013-01-05 01:46:00,
2013-01-05 15:47:00,49.1,43.2,30.18,NNW,348,0.0,0.0,80,0.00,,SKC,0.00,VWS V14.01,2013-01-05 01:47:00,
2013-01-05 15:48:00,49.0,43.1,30.18,NNW,348,0.0,0.0,80,0.00,,SKC,0.00,VWS V14.01,2013-01-05 01:48:00,
2013-01-05 15:49:00,48.9,43.3,30.18,NNW,348,0.0,0.0,81,0.00,,SKC,0.00,VWS V14.01,2013-01-05 01:49:00,
2013-01-05 15:50:00,48.7,43.1,30.18,NNW,348,0.0,0.0,81,0.00,,SKC,0.00,VWS V14.01,2013-01-05 01:50:00,
2013-01-05 15:51:00,48.5,43.0,30.18,NNW,348,0.0,0.0,81,0.00,,SKC,0.00,VWS V14.01,2013-01-05 01:51:00,
2013-01-05 15:52:00,48.5,42.9,30.18,NNW,348,0.0,0.0,81,0.00,,SKC,0.00,VWS V14.01,2013-01-05 01:52:00,
2013-01-05 15:53:00,48.5,43.3,30.18,NNW,348,0.0,0.0,82,0.00,,SKC,0.00,VWS V14.01,2013-01-05 01:53:00,
2013-01-05 15:54:00,48.4,43.2,30.18,NNW,348,0.0,0.0,82,0.00,,SKC,0.00,VWS V14.01,2013-01-05 01:54:00,
2013-01-05 15:55:00,48.3,43.1,30.18,NNW,348,0.0,0.0,82,0.00,,SKC,0.00,VWS V14.01,2013-01-05 01:55:00,
2013-01-05 15:56:00,48.2,43.0,30.18,NNW,348,0.0,0.0,82,0.00,,SKC,0.00,VWS V14.01,2013-01-05 01:56:00,
2013-01-05 15:57:00,48.2,43.0,30.18,NNW,348,0.0,0.0,82,0.00,,SKC,0.00,VWS V14.01,2013-01-05 01:57:00,
2013-01-05 15:58:00,48.2,43.3,30.18,NNW,348,0.0,0.0,83,0.00,,SKC,0.00,VWS V14.01,2013-01-05 01:58:00,
2013-01-05 15:59:00,48.1,43.2,30.19,NNW,348,0.0,0.0,83,0.00,,SKC,0.00,VWS V14.01,2013-01-05 01:59:00,
2013-01-05 16:00:00,48.1,43.2,30.18,NNW,348,0.0,0.0,83,0.00,,SKC,0.00,VWS V14.01,2013-01-05 02:00:00,
2013-01-05 16:01:00,48.0,43.1,30.18,NNW,348,0.0,0.0,83,0.00,,SKC,0.00,VWS V14.01,2013-01-05 02:01:00,
2013-01-05 16:02:00,48.0,43.1,30.19,NNW,348,0.0,0.0,83,0.00,,SKC,0.00,VWS V14.01,2013-01-05 02:02:00,
2013-01-05 16:03:00,48.1,43.2,30.19,NNW,348,0.0,0.0,83,0.00,,SKC,0.00,VWS V14.01,2013-01-05 02:03:00,
2013-01-05 16:04:00,48.0,43.4,30.19,NNW,348,0.0,0.0,84,0.00,,SKC,0.00,VWS V14.01,2013-01-05 02:04:00,
2013-01-05 16:05:00,48.1,43.5,30.19,NNW,348,0.0,0.0,84,0.00,,SKC,0.00,VWS V14.01,2013-01-05 02:05:00,
2013-01-05 16:06:00,48.1,43.5,30.19,NNW,348,0.0,0.0,84,0.00,,SKC,0.00,VWS V14.01,2013-01-05 02:06:00,
2013-01-05 16:07:00,48.1,43.5,30.19,NNW,348,0.0,0.0,84,0.00,,SKC,0.00,VWS V14.01,2013-01-05 02:07:00,
2013-01-05 16:08:00,48.1,43.5,30.19,NNW,348,0.0,0.0,84,0.00,,SKC,0.00,VWS V14.01,2013-01-05 02:08:00,
2013-01-05 16:09:00,48.1,43.5,30.19,NNW,348,0.0,0.0,84,0.00,,SKC,0.00,VWS V14.01,2013-01-05 02:09:00,
2013-01-05 16:10:00,48.0,43.4,30.19,NNW,348,0.0,0.0,84,0.00,,SKC,0.00,VWS V14.01,2013-01-05 02:10:00,
2013-01-05 16:11:00,47.9,43.3,30.19,NNW,348,0.0,0.0,84,0.00,,SKC,0.00,VWS V14.01,2013-01-05 02:11:00,
2013-01-05 16:12:00,47.9,43.3,30.19,NNW,348,0.0,0.0,84,0.00,,SKC,0.00,VWS V14.01,2013-01-05 02:12:00,
2013-01-05 16:13:00,47.7,43.1,30.19,NNW,348,0.0,0.0,84,0.00,,SKC,0.00,VWS V14.01,2013-01-05 02:13:00,
2013-01-05 16:14:00,47.5,42.9,30.19,NNW,348,0.0,0.0,84,0.00,,SKC,0.00,VWS V14.01,2013-01-05 02:14:00,
2013-01-05 16:15:00,47.4,42.8,30.19,NNW,348,0.0,0.0,84,0.00,,SKC,0.00,VWS V14.01,2013-01-05 02:15:00,
2013-01-05 16:16:00,47.3,43.0,30.19,NNW,348,0.0,0.0,85,0.00,,SKC,0.00,VWS V14.01,2013-01-05 02:16:00,
2013-01-05 16:17:00,47.3,43.0,30.19,NNW,348,0.0,0.0,85,0.00,,SKC,0.00,VWS V14.01,2013-01-05 02:17:00,
2013-01-05 16:18:00,47.1,42.8,30.19,NNW,348,0.0,0.0,85,0.00,,SKC,0.00,VWS V14.01,2013-01-05 02:18:00,
2013-01-05 16:19:00,47.1,42.8,30.19,NNW,348,0.0,0.0,85,0.00,,SKC,0.00,VWS V14.01,2013-01-05 02:19:00,
2013-01-05 16:20:00,47.0,42.7,30.19,NNW,348,0.0,0.0,85,0.00,,SKC,0.00,VWS V14.01,2013-01-05 02:20:00,
2013-01-05 16:21:00,46.8,42.5,30.19,NNW,348,0.0,0.0,85,0.00,,SKC,0.00,VWS V14.01,2013-01-05 02:21:00,
2013-01-05 16:22:00,46.8,42.5,30.19,NNW,348,0.0,0.0,85,0.00,,SKC,0.00,VWS V14.01,2013-01-05 02:22:00,
2013-01-05 16:23:00,46.8,42.8,30.19,NNW,348,0.0,0.0,86,0.00,,SKC,0.00,VWS V14.01,2013-01-05 02:23:00,
2013-01-05 16:24:00,46.7,42.7,30.19,NNW,348,0.0,0.0,86,0.00,,SKC,0.00,VWS V14.01,2013-01-05 02:24:00,
2013-01-05 16:25:00,46.7,42.7,30.19,NNW,348,0.0,0.0,86,0.00,,SKC,0.00,VWS V14.01,2013-01-05 02:25:00,
2013-01-05 16:26:00,46.5,42.5,30.19,NNW,348,0.0,0.0,86,0.00,,SKC,0.00,VWS V14.01,2013-01-05 02:26:00,
2013-01-05 16:27:00,46.5,42.5,30.19,NNW,348,0.0,0.0,86,0.00,,SKC,0.00,VWS V14.01,2013-01-05 02:27:00,
2013-01-05 16:28:00,46.5,42.5,30.19,NNW,348,0.0,0.0,86,0.00,,SKC,0.00,VWS V14.01,2013-01-05 02:28:00,
2013-01-05 16:29:00,46.5,42.5,30.19,NNW,348,0.0,0.0,86,0.00,,SKC,0.00,VWS V14.01,2013-01-05 02:29:00,
2013-01-05 16:30:00,46.5,42.5,30.19,NNW,348,0.0,0.0,86,0.00,,SKC,0.00,VWS V14.01,2013-01-05 02:30:00,
2013-01-05 16:31:00,46.5,42.8,30.19,NNW,348,0.0,0.0,87,0.00,,SKC,0.00,VWS V14.01,2013-01-05 02:31:00,
2013-01-05 16:32:00,46.5,42.8,30.19,NNW,348,0.0,0.0,87,0.00,,SKC,0.00,VWS V14.01,2013-01-05 02:32:00,
2013-01-05 16:33:00,46.5,42.8,30.19,NNW,348,0.0,0.0,87,0.00,,SKC,0.00,VWS V14.01,2013-01-05 02:33:00,
2013-01-05 16:34:00,46.5,42.5,30.19,NNW,348,0.0,0.0,86,0.00,,SKC,0.00,VWS V14.01,2013-01-05 02:34:00,
2013-01-05 16:35:00,46.4,42.5,30.19,NNW,348,0.0,0.0,86,0.00,,SKC,0.00,VWS V14.01,2013-01-05 02:35:00,
2013-01-05 16:36:00,46.3,42.3,30.19,NNW,348,0.0,0.0,86,0.00,,SKC,0.00,VWS V14.01,2013-01-05 02:36:00,
2013-01-05 16:37:00,46.3,42.3,30.19,NNW,348,0.0,0.0,86,0.00,,SKC,0.00,VWS V14.01,2013-01-05 02:37:00,
2013-01-05 16:38:00,46.3,42.3,30.19,NNW,348,0.0,0.0,86,0.00,,SKC,0.00,VWS V14.01,2013-01-05 02:38:00,
2013-01-05 16:39:00,46.3,42.7,30.19,NNW,348,0.0,0.0,87,0.00,,SKC,0.00,VWS V14.01,2013-01-05 02:39:00,
2013-01-05 16:40:00,46.3,42.3,30.19,NNW,348,0.0,0.0,86,0.00,,SKC,0.00,VWS V14.01,2013-01-05 02:40:00,
2013-01-05 16:41:00,46.2,42.2,30.20,NNW,348,0.0,0.0,86,0.00,,SKC,0.00,VWS V14.01,2013-01-05 02:41:00,
2013-01-05 16:42:00,46.2,42.2,30.20,NNW,348,0.0,0.0,86,0.00,,SKC,0.00,VWS V14.01,2013-01-05 02:42:00,
2013-01-05 16:43:00,46.1,42.2,30.20,NNW,348,0.0,0.0,86,0.00,,SKC,0.00,VWS V14.01,2013-01-05 02:43:00,
2013-01-05 16:44:00,46.0,42.0,30.20,NNW,348,0.0,0.0,86,0.00,,SKC,0.00,VWS V14.01,2013-01-05 02:44:00,
2013-01-05 16:45:00,46.0,42.3,30.20,NNW,348,0.0,0.0,87,0.00,,SKC,0.00,VWS V14.01,2013-01-05 02:45:00,
2013-01-05 16:46:00,45.8,42.2,30.20,NNW,348,0.0,0.0,87,0.00,,SKC,0.00,VWS V14.01,2013-01-05 02:46:00,
2013-01-05 16:47:00,45.8,42.2,30.20,NNW,348,0.0,0.0,87,0.00,,SKC,0.00,VWS V14.01,2013-01-05 02:47:00,
2013-01-05 16:48:00,45.8,42.2,30.20,NNW,348,0.0,0.0,87,0.00,,SKC,0.00,VWS V14.01,2013-01-05 02:48:00,
2013-01-05 16:49:00,45.8,42.2,30.20,NNW,348,0.0,0.0,87,0.00,,SKC,0.00,VWS V14.01,2013-01-05 02:49:00,
2013-01-05 16:50:00,45.8,42.2,30.20,NNW,348,0.0,0.0,87,0.00,,SKC,0.00,VWS V14.01,2013-01-05 02:50:00,
2013-01-05 16:51:00,45.8,42.2,30.20,NNW,348,0.0,0.0,87,0.00,,SKC,0.00,VWS V14.01,2013-01-05 02:51:00,
2013-01-05 16:52:00,45.8,42.2,30.20,NNW,348,0.0,0.0,87,0.00,,SKC,0.00,VWS V14.01,2013-01-05 02:52:00,
2013-01-05 16:53:00,45.8,42.5,30.20,NNW,348,0.0,0.0,88,0.00,,SKC,0.00,VWS V14.01,2013-01-05 02:53:00,
2013-01-05 16:54:00,45.8,42.5,30.20,NNW,348,0.0,0.0,88,0.00,,SKC,0.00,VWS V14.01,2013-01-05 02:54:00,
2013-01-05 16:55:00,45.7,42.4,30.20,NNW,348,0.0,0.0,88,0.00,,SKC,0.00,VWS V14.01,2013-01-05 02:55:00,
2013-01-05 16:56:00,45.6,42.3,30.20,NNW,348,0.0,0.0,88,0.00,,SKC,0.00,VWS V14.01,2013-01-05 02:56:00,
2013-01-05 16:57:00,45.5,42.2,30.20,NNW,348,0.0,0.0,88,0.00,,SKC,0.00,VWS V14.01,2013-01-05 02:57:00,
2013-01-05 16:58:00,45.5,42.2,30.20,NNW,348,0.0,0.0,88,0.00,,SKC,0.00,VWS V14.01,2013-01-05 02:58:00,
2013-01-05 16:59:00,45.5,42.2,30.20,NNW,348,0.0,0.0,88,0.00,,SKC,0.00,VWS V14.01,2013-01-05 02:59:00,
2013-01-05 17:00:00,45.5,42.2,30.20,NNW,348,0.0,0.0,88,0.00,,SKC,0.00,VWS V14.01,2013-01-05 03:00:00,
2013-01-05 17:01:00,45.4,42.1,30.20,NNW,348,0.0,0.0,88,0.00,,SKC,0.00,VWS V14.01,2013-01-05 03:01:00,
2013-01-05 17:02:00,45.4,42.1,30.20,NNW,348,0.0,0.0,88,0.00,,SKC,0.00,VWS V14.01,2013-01-05 03:02:00,
2013-01-05 17:03:00,45.3,42.0,30.20,NNW,348,0.0,0.0,88,0.00,,SKC,0.00,VWS V14.01,2013-01-05 03:03:00,
2013-01-05 17:04:00,45.2,41.9,30.20,NNW,348,0.0,0.0,88,0.00,,SKC,0.00,VWS V14.01,2013-01-05 03:04:00,
2013-01-05 17:05:00,45.2,42.2,30.20,NNW,348,0.0,0.0,89,0.00,,SKC,0.00,VWS V14.01,2013-01-05 03:05:00,
2013-01-05 17:06:00,45.2,41.9,30.20,NNW,348,0.0,0.0,88,0.00,,SKC,0.00,VWS V14.01,2013-01-05 03:06:00,
2013-01-05 17:07:00,45.2,42.2,30.20,NNW,348,0.0,0.0,89,0.00,,SKC,0.00,VWS V14.01,2013-01-05 03:07:00,
2013-01-05 17:08:00,45.2,42.2,30.20,NNW,348,0.0,0.0,89,0.00,,SKC,0.00,VWS V14.01,2013-01-05 03:08:00,
2013-01-05 17:09:00,45.1,41.8,30.20,NNW,348,0.0,0.0,88,0.00,,SKC,0.00,VWS V14.01,2013-01-05 03:09:00,
2013-01-05 17:10:00,45.0,42.0,30.20,NNW,348,0.0,0.0,89,0.00,,SKC,0.00,VWS V14.01,2013-01-05 03:10:00,
2013-01-05 17:11:00,45.0,42.0,30.20,NNW,348,0.0,0.0,89,0.00,,SKC,0.00,VWS V14.01,2013-01-05 03:11:00,
2013-01-05 17:12:00,45.0,42.0,30.20,NNW,348,0.0,0.0,89,0.00,,SKC,0.00,VWS V14.01,2013-01-05 03:12:00,
2013-01-05 17:13:00,44.9,41.9,30.20,NNW,348,0.0,0.0,89,0.00,,SKC,0.00,VWS V14.01,2013-01-05 03:13:00,
2013-01-05 17:14:00,44.9,41.9,30.20,NNW,348,0.0,0.0,89,0.00,,SKC,0.00,VWS V14.01,2013-01-05 03:14:00,
2013-01-05 17:15:00,44.7,41.7,30.20,NNW,348,0.0,0.0,89,0.00,,SKC,0.00,VWS V14.01,2013-01-05 03:15:00,
2013-01-05 17:16:00,44.8,41.8,30.20,NNW,348,0.0,0.0,89,0.00,,SKC,0.00,VWS V14.01,2013-01-05 03:16:00,
2013-01-05 17:17:00,44.7,41.7,30.20,NNW,348,0.0,0.0,89,0.00,,SKC,0.00,VWS V14.01,2013-01-05 03:17:00,
2013-01-05 17:18:00,44.7,41.7,30.20,NNW,348,0.0,0.0,89,0.00,,SKC,0.00,VWS V14.01,2013-01-05 03:18:00,
2013-01-05 17:19:00,44.7,41.7,30.20,NNW,348,0.0,0.0,89,0.00,,SKC,0.00,VWS V14.01,2013-01-05 03:19:00,
2013-01-05 17:20:00,44.5,41.5,30.20,NNW,348,0.0,0.0,89,0.00,,SKC,0.00,VWS V14.01,2013-01-05 03:20:00,
2013-01-05 17:21:00,44.6,41.6,30.20,NNW,348,0.0,0.0,89,0.00,,SKC,0.00,VWS V14.01,2013-01-05 03:21:00,
2013-01-05 17:22:00,44.5,41.5,30.20,NNW,348,0.0,0.0,89,0.00,,SKC,0.00,VWS V14.01,2013-01-05 03:22:00,
2013-01-05 17:23:00,44.5,41.5,30.20,NNW,348,0.0,0.0,89,0.00,,SKC,0.00,VWS V14.01,2013-01-05 03:23:00,
2013-01-05 17:24:00,44.5,41.5,30.20,NNW,348,0.0,0.0,89,0.00,,SKC,0.00,VWS V14.01,2013-01-05 03:24:00,
2013-01-05 17:25:00,44.5,41.8,30.20,NNW,348,0.0,0.0,90,0.00,,SKC,0.00,VWS V14.01,2013-01-05 03:25:00,
2013-01-05 17:26:00,44.5,41.8,30.20,NNW,348,0.0,0.0,90,0.00,,SKC,0.00,VWS V14.01,2013-01-05 03:26:00,
2013-01-05 17:27:00,44.5,41.8,30.20,NNW,348,0.0,0.0,90,0.00,,SKC,0.00,VWS V14.01,2013-01-05 03:27:00,
2013-01-05 17:28:00,44.5,41.8,30.20,NNW,348,0.0,0.0,90,0.00,,SKC,0.00,VWS V14.01,2013-01-05 03:28:00,
2013-01-05 17:29:00,44.5,41.5,30.20,NNW,348,0.0,0.0,89,0.00,,SKC,0.00,VWS V14.01,2013-01-05 03:29:00,
2013-01-05 17:30:00,44.3,41.3,30.20,NNW,348,0.0,0.0,89,0.00,,SKC,0.00,VWS V14.01,2013-01-05 03:30:00,
2013-01-05 17:31:00,44.4,41.4,30.20,NNW,348,0.0,0.0,89,0.00,,SKC,0.00,VWS V14.01,2013-01-05 03:31:00,
2013-01-05 17:32:00,44.3,41.3,30.20,NNW,348,0.0,0.0,89,0.00,,SKC,0.00,VWS V14.01,2013-01-05 03:32:00,
2013-01-05 17:33:00,44.3,41.3,30.20,NNW,348,0.0,0.0,89,0.00,,SKC,0.00,VWS V14.01,2013-01-05 03:33:00,
2013-01-05 17:34:00,44.3,41.3,30.20,NNW,348,0.0,0.0,89,0.00,,SKC,0.00,VWS V14.01,2013-01-05 03:34:00,
2013-01-05 17:35:00,44.2,41.2,30.20,NNW,348,0.0,0.0,89,0.00,,SKC,0.00,VWS V14.01,2013-01-05 03:35:00,
2013-01-05 17:36:00,44.2,41.2,30.20,NNW,348,0.0,0.0,89,0.00,,SKC,0.00,VWS V14.01,2013-01-05 03:36:00,
2013-01-05 17:37:00,44.2,41.2,30.20,NNW,348,0.0,0.0,89,0.00,,SKC,0.00,VWS V14.01,2013-01-05 03:37:00,
2013-01-05 17:38:00,44.1,41.1,30.20,NNW,348,0.0,0.0,89,0.00,,SKC,0.00,VWS V14.01,2013-01-05 03:38:00,
2013-01-05 17:39:00,44.0,41.0,30.20,NNW,348,0.0,0.0,89,0.00,,SKC,0.00,VWS V14.01,2013-01-05 03:39:00,
2013-01-05 17:40:00,43.9,40.9,30.20,NNW,348,0.0,0.0,89,0.00,,SKC,0.00,VWS V14.01,2013-01-05 03:40:00,
2013-01-05 17:41:00,44.0,41.0,30.20,NNW,348,0.0,0.0,89,0.00,,SKC,0.00,VWS V14.01,2013-01-05 03:41:00,
2013-01-05 17:42:00,43.9,40.9,30.20,NNW,348,0.0,0.0,89,0.00,,SKC,0.00,VWS V14.01,2013-01-05 03:42:00,
2013-01-05 17:43:00,43.8,40.8,30.20,NNW,348,0.0,0.0,89,0.00,,SKC,0.00,VWS V14.01,2013-01-05 03:43:00,
2013-01-05 17:44:00,43.7,40.7,30.20,NNW,348,0.0,0.0,89,0.00,,SKC,0.00,VWS V14.01,2013-01-05 03:44:00,
2013-01-05 17:45:00,43.6,40.9,30.20,NNW,348,0.0,0.0,90,0.00,,SKC,0.00,VWS V14.01,2013-01-05 03:45:00,
2013-01-05 17:46:00,43.7,41.0,30.20,NNW,348,0.0,1.0,90,0.00,,SKC,0.00,VWS V14.01,2013-01-05 03:46:00,
2013-01-05 17:47:00,43.6,40.9,30.20,NNW,348,0.0,0.0,90,0.00,,SKC,0.00,VWS V14.01,2013-01-05 03:47:00,
2013-01-05 17:48:00,43.6,40.9,30.20,NNW,348,0.0,0.0,90,0.00,,SKC,0.00,VWS V14.01,2013-01-05 03:48:00,
2013-01-05 17:49:00,43.6,40.9,30.20,NNW,348,0.0,0.0,90,0.00,,SKC,0.00,VWS V14.01,2013-01-05 03:49:00,
2013-01-05 17:50:00,43.5,40.8,30.20,NNW,348,0.0,1.0,90,0.00,,SKC,0.00,VWS V14.01,2013-01-05 03:50:00,
2013-01-05 17:51:00,43.6,40.9,30.20,NNW,348,1.0,1.0,90,0.00,,SKC,0.00,VWS V14.01,2013-01-05 03:51:00,
2013-01-05 17:52:00,43.5,40.8,30.20,NNW,348,0.0,1.0,90,0.00,,SKC,0.00,VWS V14.01,2013-01-05 03:52:00,
2013-01-05 17:53:00,43.5,40.8,30.20,NNW,348,0.0,1.0,90,0.00,,SKC,0.00,VWS V14.01,2013-01-05 03:53:00,
2013-01-05 17:54:00,43.4,40.7,30.20,NNW,348,0.0,0.0,90,0.00,,SKC,0.00,VWS V14.01,2013-01-05 03:54:00,
2013-01-05 17:55:00,43.4,40.7,30.20,NNW,348,0.0,1.0,90,0.00,,SKC,0.00,VWS V14.01,2013-01-05 03:55:00,
2013-01-05 17:56:00,43.4,40.7,30.20,NNW,348,0.0,1.0,90,0.00,,SKC,0.00,VWS V14.01,2013-01-05 03:56:00,
2013-01-05 17:57:00,43.4,40.7,30.20,NNW,348,0.0,1.0,90,0.00,,SKC,0.00,VWS V14.01,2013-01-05 03:57:00,
2013-01-05 17:58:00,43.4,40.7,30.20,NNW,348,0.0,0.0,90,0.00,,SKC,0.00,VWS V14.01,2013-01-05 03:58:00,
2013-01-05 17:59:00,43.4,40.7,30.20,NNW,348,1.0,1.0,90,0.00,,SKC,0.00,VWS V14.01,2013-01-05 03:59:00,
2013-01-05 18:00:00,43.4,40.7,30.20,NNW,348,0.0,0.0,90,0.00,,SKC,0.00,VWS V14.01,2013-01-05 04:00:00,
2013-01-05 18:01:00,43.4,40.4,30.20,NNW,348,0.0,1.0,89,0.00,,SKC,0.00,VWS V14.01,2013-01-05 04:01:00,
2013-01-05 18:02:00,43.4,40.7,30.20,NNW,348,0.0,0.0,90,0.00,,SKC,0.00,VWS V14.01,2013-01-05 04:02:00,
2013-01-05 18:03:00,43.4,40.7,30.20,NNW,348,0.0,0.0,90,0.00,,SKC,0.00,VWS V14.01,2013-01-05 04:03:00,
2013-01-05 18:04:00,43.4,40.4,30.20,NNW,348,0.0,0.0,89,0.00,,SKC,0.00,VWS V14.01,2013-01-05 04:04:00,
2013-01-05 18:05:00,43.4,40.4,30.20,NNW,348,0.0,0.0,89,0.00,,SKC,0.00,VWS V14.01,2013-01-05 04:05:00,
2013-01-05 18:06:00,43.4,40.4,30.20,NNW,348,0.0,0.0,89,0.00,,SKC,0.00,VWS V14.01,2013-01-05 04:06:00,
2013-01-05 18:07:00,43.4,40.4,30.20,NNW,348,0.0,0.0,89,0.00,,SKC,0.00,VWS V14.01,2013-01-05 04:07:00,
2013-01-05 18:08:00,43.4,40.4,30.20,NNW,348,0.0,0.0,89,0.00,,SKC,0.00,VWS V14.01,2013-01-05 04:08:00,
2013-01-05 18:09:00,43.4,40.4,30.20,NNW,348,0.0,0.0,89,0.00,,SKC,0.00,VWS V14.01,2013-01-05 04:09:00,
2013-01-05 18:10:00,43.4,40.4,30.20,NNW,348,0.0,0.0,89,0.00,,SKC,0.00,VWS V14.01,2013-01-05 04:10:00,
2013-01-05 18:11:00,43.4,40.4,30.20,NNW,348,0.0,0.0,89,0.00,,SKC,0.00,VWS V14.01,2013-01-05 04:11:00,
2013-01-05 18:12:00,43.4,40.4,30.20,NNW,348,0.0,0.0,89,0.00,,SKC,0.00,VWS V14.01,2013-01-05 04:12:00,
2013-01-05 18:13:00,43.4,40.4,30.20,NNW,348,0.0,0.0,89,0.00,,SKC,0.00,VWS V14.01,2013-01-05 04:13:00,
2013-01-05 18:14:00,43.4,40.4,30.20,NNW,348,0.0,0.0,89,0.00,,SKC,0.00,VWS V14.01,2013-01-05 04:14:00,
2013-01-05 18:15:00,43.4,40.4,30.21,NNW,348,0.0,0.0,89,0.00,,SKC,0.00,VWS V14.01,2013-01-05 04:15:00,
2013-01-05 18:16:00,43.4,40.4,30.20,NNW,348,0.0,0.0,89,0.00,,SKC,0.00,VWS V14.01,2013-01-05 04:16:00,
2013-01-05 18:17:00,43.4,40.4,30.20,NNW,348,0.0,0.0,89,0.00,,SKC,0.00,VWS V14.01,2013-01-05 04:17:00,
2013-01-05 18:18:00,43.3,40.0,30.21,NNW,348,0.0,0.0,88,0.00,,SKC,0.00,VWS V14.01,2013-01-05 04:18:00,
2013-01-05 18:19:00,43.3,40.0,30.21,NNW,348,0.0,0.0,88,0.00,,SKC,0.00,VWS V14.01,2013-01-05 04:19:00,
2013-01-05 18:20:00,43.2,39.9,30.21,NNW,348,0.0,0.0,88,0.00,,SKC,0.00,VWS V14.01,2013-01-05 04:20:00,
2013-01-05 18:21:00,43.3,40.0,30.21,NNW,348,0.0,0.0,88,0.00,,SKC,0.00,VWS V14.01,2013-01-05 04:21:00,
2013-01-05 18:22:00,43.2,39.9,30.21,NNW,348,0.0,0.0,88,0.00,,SKC,0.00,VWS V14.01,2013-01-05 04:22:00,
2013-01-05 18:23:00,43.2,39.9,30.21,NNW,348,0.0,0.0,88,0.00,,SKC,0.00,VWS V14.01,2013-01-05 04:23:00,
2013-01-05 18:24:00,43.2,39.9,30.21,NNW,348,0.0,0.0,88,0.00,,SKC,0.00,VWS V14.01,2013-01-05 04:24:00,
2013-01-05 18:25:00,43.1,39.8,30.21,NNW,348,0.0,0.0,88,0.00,,SKC,0.00,VWS V14.01,2013-01-05 04:25:00,
2013-01-05 18:26:00,43.1,39.8,30.21,NNW,348,0.0,0.0,88,0.00,,SKC,0.00,VWS V14.01,2013-01-05 04:26:00,
2013-01-05 18:27:00,43.1,39.8,30.21,NNW,348,0.0,0.0,88,0.00,,SKC,0.00,VWS V14.01,2013-01-05 04:27:00,
2013-01-05 18:28:00,43.1,39.8,30.21,NNW,348,0.0,0.0,88,0.00,,SKC,0.00,VWS V14.01,2013-01-05 04:28:00,
2013-01-05 18:29:00,43.1,39.8,30.21,NNW,348,0.0,0.0,88,0.00,,SKC,0.00,VWS V14.01,2013-01-05 04:29:00,
2013-01-05 18:30:00,42.9,39.6,30.21,NNW,348,0.0,0.0,88,0.00,,SKC,0.00,VWS V14.01,2013-01-05 04:30:00,
2013-01-05 18:31:00,43.0,39.7,30.21,NNW,348,0.0,0.0,88,0.00,,SKC,0.00,VWS V14.01,2013-01-05 04:31:00,
2013-01-05 18:32:00,42.9,39.6,30.21,NNW,348,0.0,0.0,88,0.00,,SKC,0.00,VWS V14.01,2013-01-05 04:32:00,
2013-01-05 18:33:00,42.9,39.6,30.21,NNW,348,0.0,0.0,88,0.00,,SKC,0.00,VWS V14.01,2013-01-05 04:33:00,
2013-01-05 18:34:00,42.8,39.5,30.21,NNW,348,0.0,0.0,88,0.00,,SKC,0.00,VWS V14.01,2013-01-05 04:34:00,
2013-01-05 18:35:00,42.6,39.3,30.21,NNW,348,0.0,0.0,88,0.00,,SKC,0.00,VWS V14.01,2013-01-05 04:35:00,
2013-01-05 18:36:00,42.6,39.3,30.21,NNW,348,0.0,0.0,88,0.00,,SKC,0.00,VWS V14.01,2013-01-05 04:36:00,
2013-01-05 18:37:00,42.6,39.3,30.21,NNW,348,0.0,0.0,88,0.00,,SKC,0.00,VWS V14.01,2013-01-05 04:37:00,
2013-01-05 18:38:00,42.6,39.6,30.21,NNW,348,0.0,0.0,89,0.00,,SKC,0.00,VWS V14.01,2013-01-05 04:38:00,
2013-01-05 18:39:00,42.6,39.6,30.22,NNW,348,0.0,0.0,89,0.00,,SKC,0.00,VWS V14.01,2013-01-05 04:39:00,
2013-01-05 18:40:00,42.6,39.6,30.21,NNW,348,0.0,0.0,89,0.00,,SKC,0.00,VWS V14.01,2013-01-05 04:40:00,
2013-01-05 18:41:00,42.6,39.6,30.21,NNW,348,0.0,0.0,89,0.00,,SKC,0.00,VWS V14.01,2013-01-05 04:41:00,
2013-01-05 18:42:00,42.6,39.6,30.21,NNW,348,0.0,0.0,89,0.00,,SKC,0.00,VWS V14.01,2013-01-05 04:42:00,
2013-01-05 18:43:00,42.6,39.6,30.22,NNW,348,0.0,0.0,89,0.00,,SKC,0.00,VWS V14.01,2013-01-05 04:43:00,
2013-01-05 18:44:00,42.5,39.5,30.22,NNW,348,0.0,0.0,89,0.00,,SKC,0.00,VWS V14.01,2013-01-05 04:44:00,
2013-01-05 18:45:00,42.5,39.5,30.22,NNW,348,0.0,0.0,89,0.00,,SKC,0.00,VWS V14.01,2013-01-05 04:45:00,
2013-01-05 18:46:00,42.5,39.5,30.22,NNW,348,0.0,0.0,89,0.00,,SKC,0.00,VWS V14.01,2013-01-05 04:46:00,
2013-01-05 18:47:00,42.5,39.5,30.22,NNW,348,0.0,0.0,89,0.00,,SKC,0.00,VWS V14.01,2013-01-05 04:47:00,
2013-01-05 18:48:00,42.4,39.4,30.22,NNW,348,0.0,0.0,89,0.00,,SKC,0.00,VWS V14.01,2013-01-05 04:48:00,
2013-01-05 18:49:00,42.4,39.4,30.22,NNW,348,0.0,0.0,89,0.00,,SKC,0.00,VWS V14.01,2013-01-05 04:49:00,
2013-01-05 18:50:00,42.4,39.4,30.22,NNW,348,0.0,0.0,89,0.00,,SKC,0.00,VWS V14.01,2013-01-05 04:50:00,
2013-01-05 18:51:00,42.4,39.4,30.22,NNW,348,0.0,0.0,89,0.00,,SKC,0.00,VWS V14.01,2013-01-05 04:51:00,
2013-01-05 18:52:00,42.4,39.4,30.22,NNW,348,0.0,0.0,89,0.00,,SKC,0.00,VWS V14.01,2013-01-05 04:52:00,
2013-01-05 18:53:00,42.4,39.4,30.22,NNW,348,0.0,0.0,89,0.00,,SKC,0.00,VWS V14.01,2013-01-05 04:53:00,
2013-01-05 18:54:00,42.4,39.4,30.22,NNW,348,0.0,0.0,89,0.00,,SKC,0.00,VWS V14.01,2013-01-05 04:54:00,
2013-01-05 18:55:00,42.2,39.2,30.22,NNW,348,0.0,0.0,89,0.00,,SKC,0.00,VWS V14.01,2013-01-05 04:55:00,
2013-01-05 18:56:00,42.2,39.2,30.22,NNW,348,0.0,0.0,89,0.00,,SKC,0.00,VWS V14.01,2013-01-05 04:56:00,
2013-01-05 18:57:00,42.2,39.2,30.22,NNW,348,0.0,0.0,89,0.00,,SKC,0.00,VWS V14.01,2013-01-05 04:57:00,
2013-01-05 18:58:00,42.0,39.0,30.22,NNW,348,0.0,0.0,89,0.00,,SKC,0.00,VWS V14.01,2013-01-05 04:58:00,
2013-01-05 18:59:00,41.9,38.9,30.22,NNW,348,0.0,0.0,89,0.00,,SKC,0.00,VWS V14.01,2013-01-05 04:59:00,
2013-01-05 19:00:00,41.7,38.7,30.22,NNW,348,0.0,0.0,89,0.00,,SKC,0.00,VWS V14.01,2013-01-05 05:00:00,
2013-01-05 19:01:00,41.7,38.7,30.22,NNW,348,0.0,0.0,89,0.00,,SKC,0.00,VWS V14.01,2013-01-05 05:01:00,
2013-01-05 19:02:00,41.6,38.6,30.22,NNW,348,0.0,0.0,89,0.00,,SKC,0.00,VWS V14.01,2013-01-05 05:02:00,
2013-01-05 19:03:00,41.6,38.6,30.22,NNW,348,0.0,0.0,89,0.00,,SKC,0.00,VWS V14.01,2013-01-05 05:03:00,
2013-01-05 19:04:00,41.6,38.9,30.22,NNW,348,0.0,0.0,90,0.00,,SKC,0.00,VWS V14.01,2013-01-05 05:04:00,
2013-01-05 19:05:00,41.5,38.8,30.22,NNW,348,0.0,0.0,90,0.00,,SKC,0.00,VWS V14.01,2013-01-05 05:05:00,
2013-01-05 19:06:00,41.5,38.8,30.22,NNW,348,0.0,0.0,90,0.00,,SKC,0.00,VWS V14.01,2013-01-05 05:06:00,
2013-01-05 19:07:00,41.4,38.7,30.22,NNW,348,0.0,0.0,90,0.00,,SKC,0.00,VWS V14.01,2013-01-05 05:07:00,
2013-01-05 19:08:00,41.4,38.7,30.22,NNW,348,0.0,0.0,90,0.00,,SKC,0.00,VWS V14.01,2013-01-05 05:08:00,
2013-01-05 19:09:00,41.5,38.8,30.22,NNW,348,0.0,0.0,90,0.00,,SKC,0.00,VWS V14.01,2013-01-05 05:09:00,
2013-01-05 19:10:00,41.5,38.8,30.22,NNW,348,0.0,0.0,90,0.00,,SKC,0.00,VWS V14.01,2013-01-05 05:10:00,
2013-01-05 19:11:00,41.6,38.9,30.22,NNW,348,0.0,0.0,90,0.00,,SKC,0.00,VWS V14.01,2013-01-05 05:11:00,
2013-01-05 19:12:00,41.6,38.9,30.22,NNW,348,0.0,0.0,90,0.00,,SKC,0.00,VWS V14.01,2013-01-05 05:12:00,
2013-01-05 19:13:00,41.6,38.9,30.22,NNW,348,0.0,0.0,90,0.00,,SKC,0.00,VWS V14.01,2013-01-05 05:13:00,
2013-01-05 19:16:00,41.6,38.9,30.22,NNW,348,0.0,0.0,90,0.00,,SKC,0.00,VWS V14.01,2013-01-05 05:16:00,
2013-01-05 19:17:00,41.5,38.8,30.22,NNW,348,0.0,0.0,90,0.00,,SKC,0.00,VWS V14.01,2013-01-05 05:17:00,
2013-01-05 19:18:00,41.5,38.8,30.22,NNW,348,0.0,0.0,90,0.00,,SKC,0.00,VWS V14.01,2013-01-05 05:18:00,
2013-01-05 19:21:00,41.3,38.6,30.22,NNW,348,0.0,0.0,90,0.00,,SKC,0.00,VWS V14.01,2013-01-05 05:21:00,
2013-01-05 19:22:00,41.4,38.7,30.22,NNW,348,0.0,0.0,90,0.00,,SKC,0.00,VWS V14.01,2013-01-05 05:22:00,
2013-01-05 19:23:00,41.3,38.6,30.22,NNW,348,0.0,0.0,90,0.00,,SKC,0.00,VWS V14.01,2013-01-05 05:23:00,
2013-01-05 19:25:00,41.3,38.6,30.22,NNW,348,0.0,0.0,90,0.00,,SKC,0.00,VWS V14.01,2013-01-05 05:25:00,
2013-01-05 19:27:00,41.0,38.3,30.22,NNW,348,0.0,0.0,90,0.00,,SKC,0.00,VWS V14.01,2013-01-05 05:27:00,
2013-01-05 19:28:00,41.0,38.3,30.22,NNW,348,0.0,0.0,90,0.00,,SKC,0.00,VWS V14.01,2013-01-05 05:28:00,
2013-01-05 19:31:00,40.9,38.2,30.22,NNW,348,0.0,0.0,90,0.00,,SKC,0.00,VWS V14.01,2013-01-05 05:31:00,
2013-01-05 19:32:00,40.9,38.5,30.22,NNW,348,0.0,0.0,91,0.00,,SKC,0.00,VWS V14.01,2013-01-05 05:32:00,
2013-01-05 19:34:00,40.8,38.4,30.22,NNW,348,0.0,0.0,91,0.00,,SKC,0.00,VWS V14.01,2013-01-05 05:34:00,
2013-01-05 19:36:00,40.8,38.4,30.22,NNW,348,0.0,0.0,91,0.00,,SKC,0.00,VWS V14.01,2013-01-05 05:36:00,
2013-01-05 19:37:00,40.8,38.4,30.22,NNW,348,0.0,0.0,91,0.00,,SKC,0.00,VWS V14.01,2013-01-05 05:37:00,
2013-01-05 19:41:00,40.8,38.4,30.22,NNW,348,0.0,0.0,91,0.00,,SKC,0.00,VWS V14.01,2013-01-05 05:41:00,
2013-01-05 19:42:00,40.7,38.3,30.22,NNW,348,0.0,0.0,91,0.00,,SKC,0.00,VWS V14.01,2013-01-05 05:42:00,
2013-01-05 19:45:00,40.7,38.3,30.22,NNW,348,0.0,0.0,91,0.00,,SKC,0.00,VWS V14.01,2013-01-05 05:45:00,
2013-01-05 19:46:00,40.7,38.3,30.22,NNW,348,0.0,0.0,91,0.00,,SKC,0.00,VWS V14.01,2013-01-05 05:46:00,
2013-01-05 19:47:00,40.6,38.2,30.22,NNW,348,0.0,0.0,91,0.00,,SKC,0.00,VWS V14.01,2013-01-05 05:47:00,
2013-01-05 19:52:00,40.5,38.1,30.22,NNW,348,0.0,0.0,91,0.00,,SKC,0.00,VWS V14.01,2013-01-05 05:52:00,
2013-01-05 19:53:00,40.5,38.1,30.22,NNW,348,0.0,0.0,91,0.00,,SKC,0.00,VWS V14.01,2013-01-05 05:53:00,
2013-01-05 19:54:00,40.5,38.1,30.22,NNW,348,0.0,0.0,91,0.00,,SKC,0.00,VWS V14.01,2013-01-05 05:54:00,
2013-01-05 19:55:00,40.5,38.1,30.22,NNW,348,0.0,0.0,91,0.00,,SKC,0.00,VWS V14.01,2013-01-05 05:55:00,
2013-01-05 19:56:00,40.5,38.1,30.22,NNW,348,0.0,0.0,91,0.00,,SKC,0.00,VWS V14.01,2013-01-05 05:56:00,
2013-01-05 19:57:00,40.5,38.1,30.22,NNW,348,0.0,0.0,91,0.00,,SKC,0.00,VWS V14.01,2013-01-05 05:57:00,
2013-01-05 19:58:00,40.5,38.1,30.22,NNW,348,0.0,0.0,91,0.00,,SKC,0.00,VWS V14.01,2013-01-05 05:58:00,
2013-01-05 19:59:00,40.4,38.0,30.23,NNW,348,0.0,0.0,91,0.00,,SKC,0.00,VWS V14.01,2013-01-05 05:59:00,
2013-01-05 20:00:00,40.5,38.1,30.23,NNW,348,0.0,0.0,91,0.00,,SKC,0.00,VWS V14.01,2013-01-05 06:00:00,
2013-01-05 20:01:00,40.5,38.4,30.22,NNW,348,0.0,0.0,92,0.00,,SKC,0.00,VWS V14.01,2013-01-05 06:01:00,
2013-01-05 20:02:00,40.4,38.3,30.23,NNW,348,0.0,0.0,92,0.00,,SKC,0.00,VWS V14.01,2013-01-05 06:02:00,
2013-01-05 20:03:00,40.4,38.3,30.23,NNW,348,0.0,0.0,92,0.00,,SKC,0.00,VWS V14.01,2013-01-05 06:03:00,
2013-01-05 20:04:00,40.3,37.9,30.23,NNW,348,0.0,0.0,91,0.00,,SKC,0.00,VWS V14.01,2013-01-05 06:04:00,
2013-01-05 20:05:00,40.3,37.9,30.23,NNW,348,0.0,0.0,91,0.00,,SKC,0.00,VWS V14.01,2013-01-05 06:05:00,
2013-01-05 20:06:00,40.3,38.2,30.23,NNW,348,0.0,0.0,92,0.00,,SKC,0.00,VWS V14.01,2013-01-05 06:06:00,
2013-01-05 20:07:00,40.5,38.4,30.22,NNW,348,0.0,0.0,92,0.00,,SKC,0.00,VWS V14.01,2013-01-05 06:07:00,
2013-01-05 20:08:00,40.4,38.3,30.22,NNW,348,0.0,0.0,92,0.00,,SKC,0.00,VWS V14.01,2013-01-05 06:08:00,
2013-01-05 20:09:00,40.5,38.4,30.22,NNW,348,0.0,0.0,92,0.00,,SKC,0.00,VWS V14.01,2013-01-05 06:09:00,
2013-01-05 20:10:00,40.5,38.4,30.22,NNW,348,0.0,0.0,92,0.00,,SKC,0.00,VWS V14.01,2013-01-05 06:10:00,
2013-01-05 20:11:00,40.4,38.3,30.22,NNW,348,0.0,0.0,92,0.00,,SKC,0.00,VWS V14.01,2013-01-05 06:11:00,
2013-01-05 20:12:00,40.3,38.2,30.23,NNW,348,0.0,0.0,92,0.00,,SKC,0.00,VWS V14.01,2013-01-05 06:12:00,
2013-01-05 20:13:00,40.3,38.2,30.23,NNW,348,0.0,0.0,92,0.00,,SKC,0.00,VWS V14.01,2013-01-05 06:13:00,
2013-01-05 20:14:00,40.3,38.2,30.23,NNW,348,0.0,0.0,92,0.00,,SKC,0.00,VWS V14.01,2013-01-05 06:14:00,
2013-01-05 20:15:00,40.2,38.1,30.23,NNW,348,0.0,0.0,92,0.00,,SKC,0.00,VWS V14.01,2013-01-05 06:15:00,
2013-01-05 20:16:00,40.2,38.1,30.23,NNW,348,0.0,0.0,92,0.00,,SKC,0.00,VWS V14.01,2013-01-05 06:16:00,
2013-01-05 20:17:00,40.2,38.1,30.23,NNW,348,0.0,0.0,92,0.00,,SKC,0.00,VWS V14.01,2013-01-05 06:17:00,
2013-01-05 20:18:00,40.2,38.1,30.23,NNW,348,0.0,0.0,92,0.00,,SKC,0.00,VWS V14.01,2013-01-05 06:18:00,
2013-01-05 20:19:00,40.2,38.1,30.23,NNW,348,0.0,0.0,92,0.00,,SKC,0.00,VWS V14.01,2013-01-05 06:19:00,
2013-01-05 20:20:00,40.1,38.0,30.23,NNW,348,0.0,0.0,92,0.00,,SKC,0.00,VWS V14.01,2013-01-05 06:20:00,
2013-01-05 20:21:00,40.1,38.0,30.23,NNW,348,0.0,0.0,92,0.00,,SKC,0.00,VWS V14.01,2013-01-05 06:21:00,
2013-01-05 20:22:00,40.2,38.1,30.23,NNW,348,0.0,0.0,92,0.00,,SKC,0.00,VWS V14.01,2013-01-05 06:22:00,
2013-01-05 20:23:00,40.1,38.0,30.23,NNW,348,0.0,0.0,92,0.00,,SKC,0.00,VWS V14.01,2013-01-05 06:23:00,
2013-01-05 20:24:00,40.1,38.0,30.23,NNW,348,0.0,0.0,92,0.00,,SKC,0.00,VWS V14.01,2013-01-05 06:24:00,
2013-01-05 20:25:00,40.1,38.0,30.23,NNW,348,0.0,0.0,92,0.00,,SKC,0.00,VWS V14.01,2013-01-05 06:25:00,
2013-01-05 20:27:00,39.8,37.7,30.23,NNW,348,0.0,0.0,92,0.00,,SKC,0.00,VWS V14.01,2013-01-05 06:27:00,
2013-01-05 20:28:00,39.8,37.7,30.23,NNW,348,0.0,0.0,92,0.00,,SKC,0.00,VWS V14.01,2013-01-05 06:28:00,
2013-01-05 20:29:00,39.8,37.7,30.23,NNW,348,0.0,0.0,92,0.00,,SKC,0.00,VWS V14.01,2013-01-05 06:29:00,
2013-01-05 20:30:00,39.7,37.6,30.23,NNW,348,0.0,0.0,92,0.00,,SKC,0.00,VWS V14.01,2013-01-05 06:30:00,
2013-01-05 20:31:00,39.7,37.6,30.23,NNW,348,0.0,0.0,92,0.00,,SKC,0.00,VWS V14.01,2013-01-05 06:31:00,
2013-01-05 20:32:00,39.7,37.6,30.23,NNW,348,0.0,0.0,92,0.00,,SKC,0.00,VWS V14.01,2013-01-05 06:32:00,
2013-01-05 20:33:00,39.6,37.5,30.23,NNW,348,0.0,0.0,92,0.00,,SKC,0.00,VWS V14.01,2013-01-05 06:33:00,
2013-01-05 20:34:00,39.6,37.5,30.23,NNW,348,0.0,0.0,92,0.00,,SKC,0.00,VWS V14.01,2013-01-05 06:34:00,
2013-01-05 20:35:00,39.6,37.5,30.23,NNW,348,0.0,0.0,92,0.00,,SKC,0.00,VWS V14.01,2013-01-05 06:35:00,
2013-01-05 20:36:00,39.6,37.5,30.23,NNW,348,0.0,0.0,92,0.00,,SKC,0.00,VWS V14.01,2013-01-05 06:36:00,
2013-01-05 20:37:00,39.6,37.5,30.23,NNW,348,0.0,0.0,92,0.00,,SKC,0.00,VWS V14.01,2013-01-05 06:37:00,
2013-01-05 20:38:00,39.6,37.5,30.23,NNW,348,0.0,1.0,92,0.00,,SKC,0.00,VWS V14.01,2013-01-05 06:38:00,
2013-01-05 20:39:00,39.5,37.4,30.23,NNW,348,1.0,1.0,92,0.00,,SKC,0.00,VWS V14.01,2013-01-05 06:39:00,
2013-01-05 20:40:00,39.5,37.7,30.23,NNW,348,0.0,2.0,93,0.00,,SKC,0.00,VWS V14.01,2013-01-05 06:40:00,
2013-01-05 20:41:00,39.6,37.8,30.23,NNW,348,0.0,0.0,93,0.00,,SKC,0.00,VWS V14.01,2013-01-05 06:41:00,
2013-01-05 20:42:00,39.6,37.8,30.23,NNW,348,0.0,0.0,93,0.00,,SKC,0.00,VWS V14.01,2013-01-05 06:42:00,
2013-01-05 20:43:00,39.6,37.8,30.23,NNW,348,0.0,1.0,93,0.00,,SKC,0.00,VWS V14.01,2013-01-05 06:43:00,
2013-01-05 20:44:00,39.7,37.8,30.23,NNW,348,0.0,0.0,93,0.00,,SKC,0.00,VWS V14.01,2013-01-05 06:44:00,
2013-01-05 20:45:00,39.7,37.8,30.23,NNW,348,0.0,0.0,93,0.00,,SKC,0.00,VWS V14.01,2013-01-05 06:45:00,
2013-01-05 20:46:00,39.7,37.8,30.23,NNW,348,0.0,0.0,93,0.00,,SKC,0.00,VWS V14.01,2013-01-05 06:46:00,
2013-01-05 20:47:00,39.7,37.8,30.23,NNW,348,0.0,0.0,93,0.00,,SKC,0.00,VWS V14.01,2013-01-05 06:47:00,
2013-01-05 20:48:00,39.7,37.8,30.23,NNW,348,0.0,0.0,93,0.00,,SKC,0.00,VWS V14.01,2013-01-05 06:48:00,
2013-01-05 20:49:00,39.7,37.8,30.23,NNW,348,0.0,0.0,93,0.00,,SKC,0.00,VWS V14.01,2013-01-05 06:49:00,
2013-01-05 20:50:00,39.7,37.8,30.23,NNW,348,0.0,0.0,93,0.00,,SKC,0.00,VWS V14.01,2013-01-05 06:50:00,
2013-01-05 20:51:00,39.6,37.8,30.23,NNW,348,1.0,1.0,93,0.00,,SKC,0.00,VWS V14.01,2013-01-05 06:51:00,
2013-01-05 20:52:00,39.6,37.8,30.23,NNW,348,1.0,1.0,93,0.00,,SKC,0.00,VWS V14.01,2013-01-05 06:52:00,
2013-01-05 20:53:00,39.6,37.8,30.23,NNW,348,1.0,1.0,93,0.00,,SKC,0.00,VWS V14.01,2013-01-05 06:53:00,
2013-01-05 20:54:00,39.7,37.8,30.23,NNW,348,1.0,2.0,93,0.00,,SKC,0.00,VWS V14.01,2013-01-05 06:54:00,
2013-01-05 20:55:00,39.7,37.8,30.23,NNW,348,1.0,2.0,93,0.00,,SKC,0.00,VWS V14.01,2013-01-05 06:55:00,
2013-01-05 20:56:00,39.7,37.8,30.23,NNW,348,0.0,1.0,93,0.00,,SKC,0.00,VWS V14.01,2013-01-05 06:56:00,
2013-01-05 20:57:00,39.6,37.8,30.24,NNW,348,0.0,0.0,93,0.00,,SKC,0.00,VWS V14.01,2013-01-05 06:57:00,
2013-01-05 20:58:00,39.7,37.8,30.23,NNW,348,0.0,0.0,93,0.00,,SKC,0.00,VWS V14.01,2013-01-05 06:58:00,
2013-01-05 20:59:00,39.6,37.8,30.24,NNW,348,0.0,0.0,93,0.00,,SKC,0.00,VWS V14.01,2013-01-05 06:59:00,
2013-01-05 21:00:00,39.6,37.8,30.24,NNW,348,0.0,0.0,93,0.00,,SKC,0.00,VWS V14.01,2013-01-05 07:00:00,
2013-01-05 21:01:00,39.5,37.7,30.24,NNW,348,0.0,0.0,93,0.00,,SKC,0.00,VWS V14.01,2013-01-05 07:01:00,
2013-01-05 21:02:00,39.5,37.7,30.24,NNW,348,0.0,0.0,93,0.00,,SKC,0.00,VWS V14.01,2013-01-05 07:02:00,
2013-01-05 21:03:00,39.5,37.7,30.24,NNW,348,0.0,0.0,93,0.00,,SKC,0.00,VWS V14.01,2013-01-05 07:03:00,
2013-01-05 21:04:00,39.4,37.5,30.24,NNW,348,0.0,0.0,93,0.00,,SKC,0.00,VWS V14.01,2013-01-05 07:04:00,
2013-01-05 21:05:00,39.3,37.5,30.24,NNW,348,0.0,0.0,93,0.00,,SKC,0.00,VWS V14.01,2013-01-05 07:05:00,
2013-01-05 21:07:00,39.1,37.2,30.24,NNW,348,0.0,0.0,93,0.00,,SKC,0.00,VWS V14.01,2013-01-05 07:07:00,
2013-01-05 21:08:00,39.2,37.3,30.24,NNW,348,0.0,0.0,93,0.00,,SKC,0.00,VWS V14.01,2013-01-05 07:08:00,
2013-01-05 21:09:00,39.1,37.2,30.23,NNW,348,0.0,0.0,93,0.00,,SKC,0.00,VWS V14.01,2013-01-05 07:09:00,
2013-01-05 21:10:00,39.1,37.2,30.23,NNW,348,0.0,0.0,93,0.00,,SKC,0.00,VWS V14.01,2013-01-05 07:10:00,
2013-01-05 21:11:00,39.1,37.2,30.23,NNW,348,0.0,0.0,93,0.00,,SKC,0.00,VWS V14.01,2013-01-05 07:11:00,
2013-01-05 21:12:00,39.2,37.3,30.23,NNW,348,0.0,0.0,93,0.00,,SKC,0.00,VWS V14.01,2013-01-05 07:12:00,
2013-01-05 21:13:00,39.2,37.3,30.23,NNW,348,0.0,0.0,93,0.00,,SKC,0.00,VWS V14.01,2013-01-05 07:13:00,
2013-01-05 21:14:00,39.2,37.3,30.23,NNW,348,0.0,0.0,93,0.00,,SKC,0.00,VWS V14.01,2013-01-05 07:14:00,
2013-01-05 21:15:00,39.2,37.3,30.23,NNW,348,0.0,0.0,93,0.00,,SKC,0.00,VWS V14.01,2013-01-05 07:15:00,
2013-01-05 21:16:00,39.2,37.3,30.23,NNW,348,0.0,0.0,93,0.00,,SKC,0.00,VWS V14.01,2013-01-05 07:16:00,
2013-01-05 21:17:00,39.0,37.2,30.23,NNW,348,0.0,0.0,93,0.00,,SKC,0.00,VWS V14.01,2013-01-05 07:17:00,
2013-01-05 21:18:00,39.1,37.2,30.23,NNW,348,0.0,0.0,93,0.00,,SKC,0.00,VWS V14.01,2013-01-05 07:18:00,
2013-01-05 21:19:00,39.0,37.2,30.23,NNW,348,0.0,0.0,93,0.00,,SKC,0.00,VWS V14.01,2013-01-05 07:19:00,
2013-01-05 21:20:00,39.0,37.2,30.23,NNW,348,0.0,0.0,93,0.00,,SKC,0.00,VWS V14.01,2013-01-05 07:20:00,
2013-01-05 21:21:00,38.9,37.0,30.23,NNW,348,0.0,0.0,93,0.00,,SKC,0.00,VWS V14.01,2013-01-05 07:21:00,
2013-01-05 21:22:00,38.7,36.8,30.23,NNW,348,0.0,0.0,93,0.00,,SKC,0.00,VWS V14.01,2013-01-05 07:22:00,
2013-01-05 21:23:00,38.7,36.8,30.23,NNW,348,0.0,0.0,93,0.00,,SKC,0.00,VWS V14.01,2013-01-05 07:23:00,
2013-01-05 21:24:00,38.7,36.8,30.23,NNW,348,0.0,0.0,93,0.00,,SKC,0.00,VWS V14.01,2013-01-05 07:24:00,
2013-01-05 21:25:00,38.6,36.8,30.23,NNW,348,0.0,0.0,93,0.00,,SKC,0.00,VWS V14.01,2013-01-05 07:25:00,
2013-01-05 21:26:00,38.7,36.8,30.23,NNW,348,0.0,0.0,93,0.00,,SKC,0.00,VWS V14.01,2013-01-05 07:26:00,
2013-01-05 21:27:00,38.6,36.8,30.23,NNW,348,0.0,0.0,93,0.00,,SKC,0.00,VWS V14.01,2013-01-05 07:27:00,
2013-01-05 21:28:00,38.7,36.8,30.23,NNW,348,0.0,0.0,93,0.00,,SKC,0.00,VWS V14.01,2013-01-05 07:28:00,
2013-01-05 21:29:00,38.6,36.8,30.23,NNW,348,0.0,0.0,93,0.00,,SKC,0.00,VWS V14.01,2013-01-05 07:29:00,
2013-01-05 21:30:00,38.6,36.8,30.23,NNW,348,0.0,0.0,93,0.00,,SKC,0.00,VWS V14.01,2013-01-05 07:30:00,
2013-01-05 21:31:00,38.5,36.7,30.23,NNW,348,0.0,0.0,93,0.00,,SKC,0.00,VWS V14.01,2013-01-05 07:31:00,
2013-01-05 21:32:00,38.5,36.9,30.22,NNW,348,0.0,0.0,94,0.00,,SKC,0.00,VWS V14.01,2013-01-05 07:32:00,
2013-01-05 21:33:00,38.5,36.9,30.22,NNW,348,0.0,0.0,94,0.00,,SKC,0.00,VWS V14.01,2013-01-05 07:33:00,
2013-01-05 21:34:00,38.5,36.9,30.22,NNW,348,0.0,1.0,94,0.00,,SKC,0.00,VWS V14.01,2013-01-05 07:34:00,
2013-01-05 21:35:00,38.4,36.8,30.22,NNW,348,0.0,1.0,94,0.00,,SKC,0.00,VWS V14.01,2013-01-05 07:35:00,
2013-01-05 21:36:00,38.4,36.8,30.22,NNW,348,1.0,1.0,94,0.00,,SKC,0.00,VWS V14.01,2013-01-05 07:36:00,
2013-01-05 21:37:00,38.5,36.9,30.22,NNW,348,1.0,1.0,94,0.00,,SKC,0.00,VWS V14.01,2013-01-05 07:37:00,
2013-01-05 21:38:00,38.5,36.9,30.22,NNW,348,1.0,2.0,94,0.00,,SKC,0.00,VWS V14.01,2013-01-05 07:38:00,
2013-01-05 21:39:00,38.5,36.9,30.22,NNW,348,0.0,1.0,94,0.00,,SKC,0.00,VWS V14.01,2013-01-05 07:39:00,
2013-01-05 21:40:00,38.5,36.9,30.22,NNW,348,0.0,0.0,94,0.00,,SKC,0.00,VWS V14.01,2013-01-05 07:40:00,
2013-01-05 21:41:00,38.6,37.0,30.23,NNW,348,0.0,1.0,94,0.00,,SKC,0.00,VWS V14.01,2013-01-05 07:41:00,
2013-01-05 21:42:00,38.5,36.9,30.22,NNW,348,0.0,0.0,94,0.00,,SKC,0.00,VWS V14.01,2013-01-05 07:42:00,
2013-01-05 21:43:00,38.5,36.9,30.22,NNW,348,0.0,0.0,94,0.00,,SKC,0.00,VWS V14.01,2013-01-05 07:43:00,
2013-01-05 21:44:00,38.5,36.9,30.22,NNW,348,0.0,0.0,94,0.00,,SKC,0.00,VWS V14.01,2013-01-05 07:44:00,
2013-01-05 21:45:00,38.5,36.9,30.22,NNW,348,0.0,0.0,94,0.00,,SKC,0.00,VWS V14.01,2013-01-05 07:45:00,
2013-01-05 21:46:00,38.5,36.9,30.22,NNW,348,0.0,0.0,94,0.00,,SKC,0.00,VWS V14.01,2013-01-05 07:46:00,
2013-01-05 21:47:00,38.4,36.8,30.22,NNW,348,0.0,0.0,94,0.00,,SKC,0.00,VWS V14.01,2013-01-05 07:47:00,
2013-01-05 21:50:00,38.3,36.7,30.22,NNW,348,0.0,0.0,94,0.00,,SKC,0.00,VWS V14.01,2013-01-05 07:50:00,
2013-01-05 21:51:00,38.4,36.8,30.22,NNW,348,0.0,0.0,94,0.00,,SKC,0.00,VWS V14.01,2013-01-05 07:51:00,
2013-01-05 21:52:00,38.3,36.7,30.22,NNW,348,1.0,1.0,94,0.00,,SKC,0.00,VWS V14.01,2013-01-05 07:52:00,
2013-01-05 21:53:00,38.3,36.7,30.22,NNW,348,0.0,2.0,94,0.00,,SKC,0.00,VWS V14.01,2013-01-05 07:53:00,
2013-01-05 21:54:00,38.2,36.6,30.22,NNW,348,0.0,1.0,94,0.00,,SKC,0.00,VWS V14.01,2013-01-05 07:54:00,
2013-01-05 21:55:00,38.2,36.6,30.22,NNW,348,0.0,1.0,94,0.00,,SKC,0.00,VWS V14.01,2013-01-05 07:55:00,
2013-01-05 21:56:00,38.1,36.5,30.22,NNW,348,0.0,1.0,94,0.00,,SKC,0.00,VWS V14.01,2013-01-05 07:56:00,
2013-01-05 21:57:00,38.0,36.4,30.22,NNW,348,0.0,0.0,94,0.00,,SKC,0.00,VWS V14.01,2013-01-05 07:57:00,
2013-01-05 21:58:00,38.0,36.4,30.22,NNW,348,0.0,0.0,94,0.00,,SKC,0.00,VWS V14.01,2013-01-05 07:58:00,
2013-01-05 21:59:00,38.0,36.4,30.22,NNW,348,0.0,0.0,94,0.00,,SKC,0.00,VWS V14.01,2013-01-05 07:59:00,
2013-01-05 22:00:00,38.1,36.5,30.22,NNW,348,0.0,0.0,94,0.00,,SKC,0.00,VWS V14.01,2013-01-05 08:00:00,
2013-01-05 22:01:00,38.1,36.5,30.22,NNW,348,0.0,0.0,94,0.00,,SKC,0.00,VWS V14.01,2013-01-05 08:01:00,
2013-01-05 22:02:00,38.1,36.5,30.23,NNW,348,0.0,0.0,94,0.00,,SKC,0.00,VWS V14.01,2013-01-05 08:02:00,
2013-01-05 22:03:00,38.1,36.5,30.23,NNW,348,0.0,1.0,94,0.00,,SKC,0.00,VWS V14.01,2013-01-05 08:03:00,
2013-01-05 22:04:00,38.0,36.4,30.23,NNW,348,0.0,0.0,94,0.00,,SKC,0.00,VWS V14.01,2013-01-05 08:04:00,
2013-01-05 22:05:00,38.0,36.4,30.23,NNW,348,0.0,1.0,94,0.00,,SKC,0.00,VWS V14.01,2013-01-05 08:05:00,
2013-01-05 22:06:00,37.9,36.3,30.23,NNW,348,0.0,0.0,94,0.00,,SKC,0.00,VWS V14.01,2013-01-05 08:06:00,
2013-01-05 22:07:00,37.9,36.3,30.23,NNW,348,0.0,0.0,94,0.00,,SKC,0.00,VWS V14.01,2013-01-05 08:07:00,
2013-01-05 22:08:00,37.9,36.3,30.23,NNW,348,0.0,0.0,94,0.00,,SKC,0.00,VWS V14.01,2013-01-05 08:08:00,
2013-01-05 22:09:00,37.9,36.3,30.23,NNW,348,0.0,0.0,94,0.00,,SKC,0.00,VWS V14.01,2013-01-05 08:09:00,
2013-01-05 22:10:00,37.9,36.3,30.23,NNW,348,0.0,0.0,94,0.00,,SKC,0.00,VWS V14.01,2013-01-05 08:10:00,
2013-01-05 22:11:00,37.9,36.3,30.22,NNW,348,0.0,0.0,94,0.00,,SKC,0.00,VWS V14.01,2013-01-05 08:11:00,
2013-01-05 22:12:00,37.9,36.3,30.22,NNW,348,0.0,0.0,94,0.00,,SKC,0.00,VWS V14.01,2013-01-05 08:12:00,
2013-01-05 22:13:00,37.9,36.3,30.22,NNW,348,0.0,0.0,94,0.00,,SKC,0.00,VWS V14.01,2013-01-05 08:13:00,
2013-01-05 22:14:00,37.9,36.3,30.23,NNW,348,0.0,0.0,94,0.00,,SKC,0.00,VWS V14.01,2013-01-05 08:14:00,
2013-01-05 22:15:00,37.9,36.3,30.23,NNW,348,0.0,0.0,94,0.00,,SKC,0.00,VWS V14.01,2013-01-05 08:15:00,
2013-01-05 22:16:00,37.9,36.3,30.22,NNW,348,0.0,0.0,94,0.00,,SKC,0.00,VWS V14.01,2013-01-05 08:16:00,
2013-01-05 22:17:00,37.9,36.3,30.22,NNW,348,0.0,0.0,94,0.00,,SKC,0.00,VWS V14.01,2013-01-05 08:17:00,
2013-01-05 22:18:00,37.9,36.3,30.22,NNW,348,0.0,0.0,94,0.00,,SKC,0.00,VWS V14.01,2013-01-05 08:18:00,
2013-01-05 22:19:00,37.9,36.3,30.22,NNW,348,0.0,0.0,94,0.00,,SKC,0.00,VWS V14.01,2013-01-05 08:19:00,
2013-01-05 22:20:00,37.9,36.6,30.22,NNW,348,0.0,0.0,95,0.00,,SKC,0.00,VWS V14.01,2013-01-05 08:20:00,
2013-01-05 22:21:00,37.9,36.6,30.22,NNW,348,0.0,0.0,95,0.00,,SKC,0.00,VWS V14.01,2013-01-05 08:21:00,
2013-01-05 22:22:00,37.9,36.3,30.22,NNW,348,0.0,0.0,94,0.00,,SKC,0.00,VWS V14.01,2013-01-05 08:22:00,
2013-01-05 22:23:00,37.9,36.3,30.22,NNW,348,0.0,0.0,94,0.00,,SKC,0.00,VWS V14.01,2013-01-05 08:23:00,
2013-01-05 22:24:00,37.8,36.2,30.22,NNW,348,0.0,0.0,94,0.00,,SKC,0.00,VWS V14.01,2013-01-05 08:24:00,
2013-01-05 22:25:00,37.8,36.2,30.22,NNW,348,0.0,0.0,94,0.00,,SKC,0.00,VWS V14.01,2013-01-05 08:25:00,
2013-01-05 22:26:00,37.7,36.1,30.22,NNW,348,0.0,0.0,94,0.00,,SKC,0.00,VWS V14.01,2013-01-05 08:26:00,
2013-01-05 22:27:00,37.7,36.4,30.22,NNW,348,0.0,0.0,95,0.00,,SKC,0.00,VWS V14.01,2013-01-05 08:27:00,
2013-01-05 22:28:00,37.7,36.4,30.22,NNW,348,0.0,0.0,95,0.00,,SKC,0.00,VWS V14.01,2013-01-05 08:28:00,
2013-01-05 22:29:00,37.7,36.4,30.22,NNW,348,0.0,0.0,95,0.00,,SKC,0.00,VWS V14.01,2013-01-05 08:29:00,
2013-01-05 22:30:00,37.7,36.4,30.22,NNW,348,0.0,0.0,95,0.00,,SKC,0.00,VWS V14.01,2013-01-05 08:30:00,
2013-01-05 22:31:00,37.7,36.4,30.22,NNW,348,0.0,1.0,95,0.00,,SKC,0.00,VWS V14.01,2013-01-05 08:31:00,
2013-01-05 22:32:00,37.7,36.4,30.22,NNW,348,0.0,0.0,95,0.00,,SKC,0.00,VWS V14.01,2013-01-05 08:32:00,
2013-01-05 22:33:00,37.7,36.4,30.22,NNW,348,0.0,0.0,95,0.00,,SKC,0.00,VWS V14.01,2013-01-05 08:33:00,
2013-01-05 22:34:00,37.7,36.4,30.22,NNW,348,0.0,0.0,95,0.00,,SKC,0.00,VWS V14.01,2013-01-05 08:34:00,
2013-01-05 22:35:00,37.8,36.5,30.22,NNW,348,0.0,0.0,95,0.00,,SKC,0.00,VWS V14.01,2013-01-05 08:35:00,
2013-01-05 22:37:00,37.7,36.4,30.22,NNW,348,0.0,1.0,95,0.00,,SKC,0.00,VWS V14.01,2013-01-05 08:37:00,
2013-01-05 22:38:00,37.7,36.4,30.22,NNW,348,0.0,1.0,95,0.00,,SKC,0.00,VWS V14.01,2013-01-05 08:38:00,
2013-01-05 22:39:00,37.6,36.3,30.23,NNW,348,0.0,0.0,95,0.00,,SKC,0.00,VWS V14.01,2013-01-05 08:39:00,
2013-01-05 22:40:00,37.6,36.0,30.23,NNW,348,0.0,0.0,94,0.00,,SKC,0.00,VWS V14.01,2013-01-05 08:40:00,
2013-01-05 22:41:00,37.6,36.3,30.23,NNW,348,0.0,0.0,95,0.00,,SKC,0.00,VWS V14.01,2013-01-05 08:41:00,
2013-01-05 22:42:00,37.5,36.2,30.22,NNW,348,0.0,0.0,95,0.00,,SKC,0.00,VWS V14.01,2013-01-05 08:42:00,
2013-01-05 22:43:00,37.5,36.2,30.22,NNW,348,0.0,0.0,95,0.00,,SKC,0.00,VWS V14.01,2013-01-05 08:43:00,
2013-01-05 22:44:00,37.5,36.2,30.22,NNW,348,0.0,0.0,95,0.00,,SKC,0.00,VWS V14.01,2013-01-05 08:44:00,
2013-01-05 22:45:00,37.5,36.2,30.23,NNW,348,0.0,0.0,95,0.00,,SKC,0.00,VWS V14.01,2013-01-05 08:45:00,
2013-01-05 22:46:00,37.5,36.2,30.23,NNW,348,0.0,0.0,95,0.00,,SKC,0.00,VWS V14.01,2013-01-05 08:46:00,
2013-01-05 22:47:00,37.5,36.2,30.22,NNW,348,0.0,0.0,95,0.00,,SKC,0.00,VWS V14.01,2013-01-05 08:47:00,
2013-01-05 22:48:00,37.5,36.2,30.22,NNW,348,0.0,0.0,95,0.00,,SKC,0.00,VWS V14.01,2013-01-05 08:48:00,
2013-01-05 22:49:00,37.5,36.2,30.22,NNW,348,0.0,0.0,95,0.00,,SKC,0.00,VWS V14.01,2013-01-05 08:49:00,
2013-01-05 22:50:00,37.5,36.2,30.22,NNW,348,0.0,0.0,95,0.00,,SKC,0.00,VWS V14.01,2013-01-05 08:50:00,
2013-01-05 22:51:00,37.5,36.2,30.22,NNW,348,0.0,0.0,95,0.00,,SKC,0.00,VWS V14.01,2013-01-05 08:51:00,
2013-01-05 22:52:00,37.5,36.2,30.22,NNW,348,0.0,0.0,95,0.00,,SKC,0.00,VWS V14.01,2013-01-05 08:52:00,
2013-01-05 22:53:00,37.5,36.2,30.22,NNW,348,0.0,0.0,95,0.00,,SKC,0.00,VWS V14.01,2013-01-05 08:53:00,
2013-01-05 22:54:00,37.5,36.2,30.22,NNW,348,0.0,0.0,95,0.00,,SKC,0.00,VWS V14.01,2013-01-05 08:54:00,
2013-01-05 22:55:00,37.6,36.3,30.22,NNW,348,0.0,0.0,95,0.00,,SKC,0.00,VWS V14.01,2013-01-05 08:55:00,
2013-01-05 22:56:00,37.7,36.4,30.22,NNW,348,0.0,0.0,95,0.00,,SKC,0.00,VWS V14.01,2013-01-05 08:56:00,
2013-01-05 22:57:00,37.8,36.5,30.22,NNW,348,0.0,0.0,95,0.00,,SKC,0.00,VWS V14.01,2013-01-05 08:57:00,
2013-01-05 22:58:00,37.8,36.5,30.22,NNW,348,0.0,0.0,95,0.00,,SKC,0.00,VWS V14.01,2013-01-05 08:58:00,
2013-01-05 22:59:00,37.7,36.4,30.22,NNW,348,0.0,0.0,95,0.00,,SKC,0.00,VWS V14.01,2013-01-05 08:59:00,
2013-01-05 23:00:00,37.6,36.3,30.22,NNW,348,0.0,0.0,95,0.00,,SKC,0.00,VWS V14.01,2013-01-05 09:00:00,
2013-01-05 23:01:00,37.5,36.2,30.22,NNW,348,0.0,0.0,95,0.00,,SKC,0.00,VWS V14.01,2013-01-05 09:01:00,
2013-01-05 23:02:00,37.3,36.0,30.22,NNW,348,0.0,0.0,95,0.00,,SKC,0.00,VWS V14.01,2013-01-05 09:02:00,
2013-01-05 23:03:00,37.3,36.0,30.22,NNW,348,0.0,0.0,95,0.00,,SKC,0.00,VWS V14.01,2013-01-05 09:03:00,
2013-01-05 23:04:00,37.3,36.0,30.22,NNW,348,0.0,0.0,95,0.00,,SKC,0.00,VWS V14.01,2013-01-05 09:04:00,
2013-01-05 23:05:00,37.3,36.0,30.22,NNW,348,0.0,0.0,95,0.00,,SKC,0.00,VWS V14.01,2013-01-05 09:05:00,
2013-01-05 23:06:00,37.3,36.0,30.22,NNW,348,0.0,0.0,95,0.00,,SKC,0.00,VWS V14.01,2013-01-05 09:06:00,
2013-01-05 23:07:00,37.3,36.0,30.22,NNW,348,0.0,0.0,95,0.00,,SKC,0.00,VWS V14.01,2013-01-05 09:07:00,
2013-01-05 23:08:00,37.3,36.0,30.22,NNW,348,0.0,0.0,95,0.00,,SKC,0.00,VWS V14.01,2013-01-05 09:08:00,
2013-01-05 23:09:00,37.3,36.0,30.22,NNW,348,0.0,1.0,95,0.00,,SKC,0.00,VWS V14.01,2013-01-05 09:09:00,
2013-01-05 23:10:00,37.2,35.9,30.22,NNW,348,0.0,0.0,95,0.00,,SKC,0.00,VWS V14.01,2013-01-05 09:10:00,
2013-01-05 23:11:00,37.2,35.9,30.22,NNW,348,0.0,0.0,95,0.00,,SKC,0.00,VWS V14.01,2013-01-05 09:11:00,
2013-01-05 23:12:00,37.0,35.7,30.22,NNW,348,0.0,1.0,95,0.00,,SKC,0.00,VWS V14.01,2013-01-05 09:12:00,
2013-01-05 23:13:00,37.1,35.8,30.22,NNW,348,1.0,1.0,95,0.00,,SKC,0.00,VWS V14.01,2013-01-05 09:13:00,
2013-01-05 23:14:00,37.0,35.7,30.22,NNW,348,0.0,1.0,95,0.00,,SKC,0.00,VWS V14.01,2013-01-05 09:14:00,
2013-01-05 23:15:00,36.9,35.6,30.22,NNW,348,0.0,0.0,95,0.00,,SKC,0.00,VWS V14.01,2013-01-05 09:15:00,
2013-01-05 23:16:00,36.9,35.6,30.22,NNW,348,0.0,0.0,95,0.00,,SKC,0.00,VWS V14.01,2013-01-05 09:16:00,
2013-01-05 23:17:00,36.9,35.6,30.22,NNW,348,0.0,0.0,95,0.00,,SKC,0.00,VWS V14.01,2013-01-05 09:17:00,
2013-01-05 23:18:00,36.9,35.6,30.22,NNW,348,0.0,0.0,95,0.00,,SKC,0.00,VWS V14.01,2013-01-05 09:18:00,
2013-01-05 23:19:00,36.9,35.6,30.22,NNW,348,0.0,0.0,95,0.00,,SKC,0.00,VWS V14.01,2013-01-05 09:19:00,
2013-01-05 23:20:00,37.0,35.7,30.22,NNW,348,0.0,0.0,95,0.00,,SKC,0.00,VWS V14.01,2013-01-05 09:20:00,
2013-01-05 23:21:00,37.0,35.7,30.22,NNW,348,0.0,0.0,95,0.00,,SKC,0.00,VWS V14.01,2013-01-05 09:21:00,
2013-01-05 23:22:00,37.2,35.9,30.22,NNW,348,0.0,0.0,95,0.00,,SKC,0.00,VWS V14.01,2013-01-05 09:22:00,
2013-01-05 23:23:00,37.2,35.9,30.22,NNW,348,0.0,0.0,95,0.00,,SKC,0.00,VWS V14.01,2013-01-05 09:23:00,
2013-01-05 23:24:00,37.3,36.0,30.22,NNW,348,0.0,0.0,95,0.00,,SKC,0.00,VWS V14.01,2013-01-05 09:24:00,
2013-01-05 23:25:00,37.2,35.9,30.22,NNW,348,0.0,0.0,95,0.00,,SKC,0.00,VWS V14.01,2013-01-05 09:25:00,
2013-01-05 23:26:00,37.2,35.9,30.22,NNW,348,0.0,0.0,95,0.00,,SKC,0.00,VWS V14.01,2013-01-05 09:26:00,
2013-01-05 23:27:00,37.1,35.8,30.22,NNW,348,0.0,0.0,95,0.00,,SKC,0.00,VWS V14.01,2013-01-05 09:27:00,
2013-01-05 23:28:00,37.1,35.8,30.22,NNW,348,0.0,0.0,95,0.00,,SKC,0.00,VWS V14.01,2013-01-05 09:28:00,
2013-01-05 23:29:00,37.1,35.8,30.22,NNW,348,0.0,0.0,95,0.00,,SKC,0.00,VWS V14.01,2013-01-05 09:29:00,
2013-01-05 23:30:00,37.0,35.7,30.23,NNW,348,0.0,0.0,95,0.00,,SKC,0.00,VWS V14.01,2013-01-05 09:30:00,
2013-01-05 23:31:00,37.0,35.7,30.22,NNW,348,0.0,0.0,95,0.00,,SKC,0.00,VWS V14.01,2013-01-05 09:31:00,
2013-01-05 23:32:00,37.0,35.7,30.22,NNW,348,0.0,0.0,95,0.00,,SKC,0.00,VWS V14.01,2013-01-05 09:32:00,
2013-01-05 23:33:00,37.0,35.7,30.22,NNW,348,0.0,0.0,95,0.00,,SKC,0.00,VWS V14.01,2013-01-05 09:33:00,
2013-01-05 23:34:00,37.0,35.7,30.22,NNW,348,0.0,0.0,95,0.00,,SKC,0.00,VWS V14.01,2013-01-05 09:34:00,
2013-01-05 23:35:00,37.0,35.7,30.22,NNW,348,0.0,0.0,95,0.00,,SKC,0.00,VWS V14.01,2013-01-05 09:35:00,
2013-01-05 23:36:00,37.1,35.8,30.22,NNW,348,0.0,0.0,95,0.00,,SKC,0.00,VWS V14.01,2013-01-05 09:36:00,
2013-01-05 23:37:00,37.0,35.7,30.22,NNW,348,0.0,0.0,95,0.00,,SKC,0.00,VWS V14.01,2013-01-05 09:37:00,
2013-01-05 23:38:00,37.0,35.7,30.22,NNW,348,0.0,0.0,95,0.00,,SKC,0.00,VWS V14.01,2013-01-05 09:38:00,
2013-01-05 23:39:00,37.0,35.7,30.22,NNW,348,0.0,0.0,95,0.00,,SKC,0.00,VWS V14.01,2013-01-05 09:39:00,
2013-01-05 23:40:00,36.9,35.6,30.22,NNW,348,0.0,0.0,95,0.00,,SKC,0.00,VWS V14.01,2013-01-05 09:40:00,
2013-01-05 23:41:00,36.9,35.6,30.22,NNW,348,0.0,0.0,95,0.00,,SKC,0.00,VWS V14.01,2013-01-05 09:41:00,
2013-01-05 23:42:00,36.8,35.5,30.22,NNW,348,0.0,0.0,95,0.00,,SKC,0.00,VWS V14.01,2013-01-05 09:42:00,
2013-01-05 23:43:00,36.8,35.5,30.22,NNW,348,0.0,0.0,95,0.00,,SKC,0.00,VWS V14.01,2013-01-05 09:43:00,
2013-01-05 23:44:00,36.8,35.5,30.22,NNW,348,0.0,0.0,95,0.00,,SKC,0.00,VWS V14.01,2013-01-05 09:44:00,
2013-01-05 23:45:00,36.8,35.5,30.22,NNW,348,0.0,0.0,95,0.00,,SKC,0.00,VWS V14.01,2013-01-05 09:45:00,
2013-01-05 23:46:00,36.8,35.5,30.22,NNW,348,0.0,0.0,95,0.00,,SKC,0.00,VWS V14.01,2013-01-05 09:46:00,
2013-01-05 23:47:00,37.0,35.7,30.22,NNW,348,0.0,0.0,95,0.00,,SKC,0.00,VWS V14.01,2013-01-05 09:47:00,
2013-01-05 23:48:00,37.0,35.7,30.22,NNW,348,0.0,0.0,95,0.00,,SKC,0.00,VWS V14.01,2013-01-05 09:48:00,
2013-01-05 23:49:00,37.0,35.7,30.22,NNW,348,0.0,0.0,95,0.00,,SKC,0.00,VWS V14.01,2013-01-05 09:49:00,
2013-01-05 23:50:00,36.9,35.6,30.23,NNW,348,0.0,0.0,95,0.00,,SKC,0.00,VWS V14.01,2013-01-05 09:50:00,
2013-01-05 23:51:00,36.9,35.6,30.22,NNW,348,0.0,0.0,95,0.00,,SKC,0.00,VWS V14.01,2013-01-05 09:51:00,
2013-01-05 23:52:00,36.8,35.5,30.23,NNW,348,0.0,0.0,95,0.00,,SKC,0.00,VWS V14.01,2013-01-05 09:52:00,
2013-01-05 23:53:00,36.8,35.5,30.23,NNW,348,0.0,0.0,95,0.00,,SKC,0.00,VWS V14.01,2013-01-05 09:53:00,
2013-01-05 23:54:00,36.8,35.5,30.23,NNW,348,0.0,0.0,95,0.00,,SKC,0.00,VWS V14.01,2013-01-05 09:54:00,
2013-01-05 23:55:00,36.8,35.5,30.23,NNW,348,0.0,0.0,95,0.00,,SKC,0.00,VWS V14.01,2013-01-05 09:55:00,
2013-01-05 23:56:00,36.8,35.5,30.23,NNW,348,0.0,0.0,95,0.00,,SKC,0.00,VWS V14.01,2013-01-05 09:56:00,
2013-01-05 23:57:00,36.8,35.5,30.23,NNW,348,0.0,0.0,95,0.00,,SKC,0.00,VWS V14.01,2013-01-05 09:57:00,
2013-01-05 23:58:00,36.8,35.5,30.23,NNW,348,0.0,0.0,95,0.00,,SKC,0.00,VWS V14.01,2013-01-05 09:58:00,
2013-01-05 23:59:00,36.7,35.4,30.23,NNW,348,0.0,0.0,95,0.00,,SKC,0.00,VWS V14.01,2013-01-05 09:59:00,